<?xml version="1.0" encoding="UTF-8" standalone="no" ?>
<gpx xmlns="http://www.topografix.com/GPX/1/1" xmlns:xsi="http://www.w3.org/2001/XMLSchema-instance" xsi:schemaLocation="http://www.topografix.com/GPX/1/1 http://www.topografix.com/GPX/1/1/gpx.xsd" version="1.1" creator="VisuGPX - https://www.visugpx.com">
  <metadata>
    <name>Talant</name>
    <desc><![CDATA[Au dessus lac Kir et Plombiere.]]></desc>
  </metadata>
  <trk>
    <name><![CDATA[Untitled]]></name>
    <desc><![CDATA[JE, JP, O, M, L]]></desc>
    <trkseg>
      <trkpt lat="47.33675" lon="5.00004">
        <ele>327.39999389648</ele>
        <time>2014-11-15T07:30:28.000Z</time>
      </trkpt>
      <trkpt lat="47.33664" lon="4.99998">
        <ele>327.60000610352</ele>
        <time>2014-11-15T07:30:31.000Z</time>
      </trkpt>
      <trkpt lat="47.33662" lon="4.99999">
        <ele>328.39999389648</ele>
        <time>2014-11-15T07:30:32.000Z</time>
      </trkpt>
      <trkpt lat="47.33657" lon="4.99998">
        <ele>328.39999389648</ele>
        <time>2014-11-15T07:30:35.000Z</time>
      </trkpt>
      <trkpt lat="47.33645" lon="4.99999">
        <ele>328</ele>
        <time>2014-11-15T07:30:45.000Z</time>
      </trkpt>
      <trkpt lat="47.33638" lon="4.99974">
        <ele>328.20001220703</ele>
        <time>2014-11-15T07:30:59.000Z</time>
      </trkpt>
      <trkpt lat="47.33628" lon="4.99958">
        <ele>328.20001220703</ele>
        <time>2014-11-15T07:31:10.000Z</time>
      </trkpt>
      <trkpt lat="47.33627" lon="4.99954">
        <ele>327.79998779297</ele>
        <time>2014-11-15T07:31:12.000Z</time>
      </trkpt>
      <trkpt lat="47.33621" lon="4.99934">
        <ele>326.79998779297</ele>
        <time>2014-11-15T07:31:22.000Z</time>
      </trkpt>
      <trkpt lat="47.33618" lon="4.99916">
        <ele>325.79998779297</ele>
        <time>2014-11-15T07:31:31.000Z</time>
      </trkpt>
      <trkpt lat="47.33614" lon="4.99897">
        <ele>323.79998779297</ele>
        <time>2014-11-15T07:31:40.000Z</time>
      </trkpt>
      <trkpt lat="47.33608" lon="4.99876">
        <ele>321.39999389648</ele>
        <time>2014-11-15T07:31:50.000Z</time>
      </trkpt>
      <trkpt lat="47.33602" lon="4.99866">
        <ele>320.39999389648</ele>
        <time>2014-11-15T07:31:57.000Z</time>
      </trkpt>
      <trkpt lat="47.33592" lon="4.99853">
        <ele>318.79998779297</ele>
        <time>2014-11-15T07:32:05.000Z</time>
      </trkpt>
      <trkpt lat="47.33584" lon="4.99839">
        <ele>317.20001220703</ele>
        <time>2014-11-15T07:32:14.000Z</time>
      </trkpt>
      <trkpt lat="47.33581" lon="4.99832">
        <ele>316.20001220703</ele>
        <time>2014-11-15T07:32:19.000Z</time>
      </trkpt>
      <trkpt lat="47.33576" lon="4.99826">
        <ele>315.79998779297</ele>
        <time>2014-11-15T07:32:25.000Z</time>
      </trkpt>
      <trkpt lat="47.33568" lon="4.99821">
        <ele>315.79998779297</ele>
        <time>2014-11-15T07:32:31.000Z</time>
      </trkpt>
      <trkpt lat="47.33558" lon="4.99818">
        <ele>316.20001220703</ele>
        <time>2014-11-15T07:32:38.000Z</time>
      </trkpt>
      <trkpt lat="47.33543" lon="4.99812">
        <ele>316.79998779297</ele>
        <time>2014-11-15T07:32:47.000Z</time>
      </trkpt>
      <trkpt lat="47.33531" lon="4.99808">
        <ele>317.20001220703</ele>
        <time>2014-11-15T07:32:55.000Z</time>
      </trkpt>
      <trkpt lat="47.33521" lon="4.99805">
        <ele>317.79998779297</ele>
        <time>2014-11-15T07:33:02.000Z</time>
      </trkpt>
      <trkpt lat="47.33505" lon="4.998">
        <ele>318.39999389648</ele>
        <time>2014-11-15T07:33:12.000Z</time>
      </trkpt>
      <trkpt lat="47.33489" lon="4.99793">
        <ele>318</ele>
        <time>2014-11-15T07:33:22.000Z</time>
      </trkpt>
      <trkpt lat="47.33477" lon="4.99786">
        <ele>316.79998779297</ele>
        <time>2014-11-15T07:33:30.000Z</time>
      </trkpt>
      <trkpt lat="47.33466" lon="4.99781">
        <ele>315.60000610352</ele>
        <time>2014-11-15T07:33:37.000Z</time>
      </trkpt>
      <trkpt lat="47.33455" lon="4.99772">
        <ele>313.79998779297</ele>
        <time>2014-11-15T07:33:45.000Z</time>
      </trkpt>
      <trkpt lat="47.33443" lon="4.99763">
        <ele>311.79998779297</ele>
        <time>2014-11-15T07:33:54.000Z</time>
      </trkpt>
      <trkpt lat="47.33432" lon="4.99751">
        <ele>309.39999389648</ele>
        <time>2014-11-15T07:34:03.000Z</time>
      </trkpt>
      <trkpt lat="47.33423" lon="4.99741">
        <ele>307.39999389648</ele>
        <time>2014-11-15T07:34:11.000Z</time>
      </trkpt>
      <trkpt lat="47.33413" lon="4.99732">
        <ele>305.60000610352</ele>
        <time>2014-11-15T07:34:20.000Z</time>
      </trkpt>
      <trkpt lat="47.33409" lon="4.99728">
        <ele>305.20001220703</ele>
        <time>2014-11-15T07:34:26.000Z</time>
      </trkpt>
      <trkpt lat="47.33401" lon="4.99718">
        <ele>303.79998779297</ele>
        <time>2014-11-15T07:34:34.000Z</time>
      </trkpt>
      <trkpt lat="47.33394" lon="4.99705">
        <ele>301.79998779297</ele>
        <time>2014-11-15T07:34:43.000Z</time>
      </trkpt>
      <trkpt lat="47.33388" lon="4.99691">
        <ele>299.79998779297</ele>
        <time>2014-11-15T07:34:50.000Z</time>
      </trkpt>
      <trkpt lat="47.33379" lon="4.99688">
        <ele>299.79998779297</ele>
        <time>2014-11-15T07:34:57.000Z</time>
      </trkpt>
      <trkpt lat="47.33369" lon="4.99684">
        <ele>300</ele>
        <time>2014-11-15T07:35:04.000Z</time>
      </trkpt>
      <trkpt lat="47.33357" lon="4.99682">
        <ele>300.39999389648</ele>
        <time>2014-11-15T07:35:12.000Z</time>
      </trkpt>
      <trkpt lat="47.33346" lon="4.99682">
        <ele>301.20001220703</ele>
        <time>2014-11-15T07:35:20.000Z</time>
      </trkpt>
      <trkpt lat="47.33334" lon="4.99681">
        <ele>302</ele>
        <time>2014-11-15T07:35:30.000Z</time>
      </trkpt>
      <trkpt lat="47.33319" lon="4.99683">
        <ele>302</ele>
        <time>2014-11-15T07:35:40.000Z</time>
      </trkpt>
      <trkpt lat="47.33306" lon="4.99686">
        <ele>302.20001220703</ele>
        <time>2014-11-15T07:35:49.000Z</time>
      </trkpt>
      <trkpt lat="47.33294" lon="4.99691">
        <ele>302.79998779297</ele>
        <time>2014-11-15T07:35:58.000Z</time>
      </trkpt>
      <trkpt lat="47.33284" lon="4.99702">
        <ele>304.60000610352</ele>
        <time>2014-11-15T07:36:07.000Z</time>
      </trkpt>
      <trkpt lat="47.33276" lon="4.99717">
        <ele>306.39999389648</ele>
        <time>2014-11-15T07:36:14.000Z</time>
      </trkpt>
      <trkpt lat="47.3327" lon="4.99735">
        <ele>307.60000610352</ele>
        <time>2014-11-15T07:36:23.000Z</time>
      </trkpt>
      <trkpt lat="47.33267" lon="4.99754">
        <ele>308</ele>
        <time>2014-11-15T07:36:31.000Z</time>
      </trkpt>
      <trkpt lat="47.33267" lon="4.99756">
        <ele>308.20001220703</ele>
        <time>2014-11-15T07:36:32.000Z</time>
      </trkpt>
      <trkpt lat="47.33269" lon="4.99778">
        <ele>309</ele>
        <time>2014-11-15T07:36:42.000Z</time>
      </trkpt>
      <trkpt lat="47.33273" lon="4.99792">
        <ele>309.79998779297</ele>
        <time>2014-11-15T07:36:49.000Z</time>
      </trkpt>
      <trkpt lat="47.33277" lon="4.99814">
        <ele>311.20001220703</ele>
        <time>2014-11-15T07:37:00.000Z</time>
      </trkpt>
      <trkpt lat="47.33277" lon="4.99831">
        <ele>311.39999389648</ele>
        <time>2014-11-15T07:37:08.000Z</time>
      </trkpt>
      <trkpt lat="47.33274" lon="4.99843">
        <ele>310.60000610352</ele>
        <time>2014-11-15T07:37:14.000Z</time>
      </trkpt>
      <trkpt lat="47.33273" lon="4.99854">
        <ele>310.20001220703</ele>
        <time>2014-11-15T07:37:19.000Z</time>
      </trkpt>
      <trkpt lat="47.33268" lon="4.99875">
        <ele>309</ele>
        <time>2014-11-15T07:37:29.000Z</time>
      </trkpt>
      <trkpt lat="47.33266" lon="4.9989">
        <ele>309</ele>
        <time>2014-11-15T07:37:37.000Z</time>
      </trkpt>
      <trkpt lat="47.33265" lon="4.99893">
        <ele>309</ele>
        <time>2014-11-15T07:37:40.000Z</time>
      </trkpt>
      <trkpt lat="47.33269" lon="4.99905">
        <ele>309.79998779297</ele>
        <time>2014-11-15T07:37:49.000Z</time>
      </trkpt>
      <trkpt lat="47.33272" lon="4.99916">
        <ele>310.39999389648</ele>
        <time>2014-11-15T07:37:55.000Z</time>
      </trkpt>
      <trkpt lat="47.33277" lon="4.99926">
        <ele>311.20001220703</ele>
        <time>2014-11-15T07:38:02.000Z</time>
      </trkpt>
      <trkpt lat="47.33282" lon="4.99932">
        <ele>312</ele>
        <time>2014-11-15T07:38:07.000Z</time>
      </trkpt>
      <trkpt lat="47.33283" lon="4.99935">
        <ele>312.39999389648</ele>
        <time>2014-11-15T07:38:10.000Z</time>
      </trkpt>
      <trkpt lat="47.33288" lon="4.99943">
        <ele>313.20001220703</ele>
        <time>2014-11-15T07:38:15.000Z</time>
      </trkpt>
      <trkpt lat="47.33294" lon="4.99953">
        <ele>314.20001220703</ele>
        <time>2014-11-15T07:38:22.000Z</time>
      </trkpt>
      <trkpt lat="47.33295" lon="4.99967">
        <ele>313.60000610352</ele>
        <time>2014-11-15T07:38:29.000Z</time>
      </trkpt>
      <trkpt lat="47.33293" lon="4.99976">
        <ele>312.60000610352</ele>
        <time>2014-11-15T07:38:33.000Z</time>
      </trkpt>
      <trkpt lat="47.33294" lon="4.99997">
        <ele>311</ele>
        <time>2014-11-15T07:38:42.000Z</time>
      </trkpt>
      <trkpt lat="47.33294" lon="4.99999">
        <ele>310.79998779297</ele>
        <time>2014-11-15T07:38:43.000Z</time>
      </trkpt>
      <trkpt lat="47.33295" lon="5.00014">
        <ele>311</ele>
        <time>2014-11-15T07:38:49.000Z</time>
      </trkpt>
      <trkpt lat="47.33295" lon="5.00022">
        <ele>311.60000610352</ele>
        <time>2014-11-15T07:38:53.000Z</time>
      </trkpt>
      <trkpt lat="47.33294" lon="5.00032">
        <ele>312.39999389648</ele>
        <time>2014-11-15T07:38:58.000Z</time>
      </trkpt>
      <trkpt lat="47.33295" lon="5.0004">
        <ele>313</ele>
        <time>2014-11-15T07:39:03.000Z</time>
      </trkpt>
      <trkpt lat="47.33295" lon="5.00042">
        <ele>312.39999389648</ele>
        <time>2014-11-15T07:39:04.000Z</time>
      </trkpt>
      <trkpt lat="47.33298" lon="5.0005">
        <ele>313</ele>
        <time>2014-11-15T07:39:08.000Z</time>
      </trkpt>
      <trkpt lat="47.33299" lon="5.00057">
        <ele>313.39999389648</ele>
        <time>2014-11-15T07:39:13.000Z</time>
      </trkpt>
      <trkpt lat="47.33297" lon="5.00063">
        <ele>313</ele>
        <time>2014-11-15T07:39:16.000Z</time>
      </trkpt>
      <trkpt lat="47.33293" lon="5.00078">
        <ele>312.20001220703</ele>
        <time>2014-11-15T07:39:23.000Z</time>
      </trkpt>
      <trkpt lat="47.3329" lon="5.00095">
        <ele>312.20001220703</ele>
        <time>2014-11-15T07:39:31.000Z</time>
      </trkpt>
      <trkpt lat="47.3329" lon="5.00109">
        <ele>312.79998779297</ele>
        <time>2014-11-15T07:39:37.000Z</time>
      </trkpt>
      <trkpt lat="47.33292" lon="5.00125">
        <ele>314</ele>
        <time>2014-11-15T07:39:44.000Z</time>
      </trkpt>
      <trkpt lat="47.33293" lon="5.0014">
        <ele>314.39999389648</ele>
        <time>2014-11-15T07:39:52.000Z</time>
      </trkpt>
      <trkpt lat="47.33293" lon="5.00142">
        <ele>314.39999389648</ele>
        <time>2014-11-15T07:39:53.000Z</time>
      </trkpt>
      <trkpt lat="47.33287" lon="5.00157">
        <ele>313.60000610352</ele>
        <time>2014-11-15T07:40:00.000Z</time>
      </trkpt>
      <trkpt lat="47.33286" lon="5.0016">
        <ele>313.39999389648</ele>
        <time>2014-11-15T07:40:02.000Z</time>
      </trkpt>
      <trkpt lat="47.33284" lon="5.00167">
        <ele>313.60000610352</ele>
        <time>2014-11-15T07:40:05.000Z</time>
      </trkpt>
      <trkpt lat="47.33285" lon="5.00175">
        <ele>314.39999389648</ele>
        <time>2014-11-15T07:40:08.000Z</time>
      </trkpt>
      <trkpt lat="47.33282" lon="5.00186">
        <ele>315.20001220703</ele>
        <time>2014-11-15T07:40:13.000Z</time>
      </trkpt>
      <trkpt lat="47.33279" lon="5.00189">
        <ele>315.20001220703</ele>
        <time>2014-11-15T07:40:15.000Z</time>
      </trkpt>
      <trkpt lat="47.33268" lon="5.00196">
        <ele>314.79998779297</ele>
        <time>2014-11-15T07:40:22.000Z</time>
      </trkpt>
      <trkpt lat="47.33258" lon="5.00204">
        <ele>314.60000610352</ele>
        <time>2014-11-15T07:40:31.000Z</time>
      </trkpt>
      <trkpt lat="47.33256" lon="5.00206">
        <ele>314.60000610352</ele>
        <time>2014-11-15T07:40:36.000Z</time>
      </trkpt>
      <trkpt lat="47.33254" lon="5.00212">
        <ele>314.79998779297</ele>
        <time>2014-11-15T07:40:41.000Z</time>
      </trkpt>
      <trkpt lat="47.33253" lon="5.00215">
        <ele>314.79998779297</ele>
        <time>2014-11-15T07:40:46.000Z</time>
      </trkpt>
      <trkpt lat="47.33253" lon="5.00219">
        <ele>315</ele>
        <time>2014-11-15T07:40:56.000Z</time>
      </trkpt>
      <trkpt lat="47.33256" lon="5.0022">
        <ele>315.39999389648</ele>
        <time>2014-11-15T07:41:07.000Z</time>
      </trkpt>
      <trkpt lat="47.33254" lon="5.0022">
        <ele>315.20001220703</ele>
        <time>2014-11-15T07:41:09.000Z</time>
      </trkpt>
      <trkpt lat="47.33246" lon="5.00221">
        <ele>314.60000610352</ele>
        <time>2014-11-15T07:41:16.000Z</time>
      </trkpt>
      <trkpt lat="47.33244" lon="5.0022">
        <ele>314.39999389648</ele>
        <time>2014-11-15T07:41:18.000Z</time>
      </trkpt>
      <trkpt lat="47.33241" lon="5.00219">
        <ele>314.20001220703</ele>
        <time>2014-11-15T07:41:20.000Z</time>
      </trkpt>
      <trkpt lat="47.33236" lon="5.00213">
        <ele>313.79998779297</ele>
        <time>2014-11-15T07:41:25.000Z</time>
      </trkpt>
      <trkpt lat="47.33235" lon="5.00212">
        <ele>313.60000610352</ele>
        <time>2014-11-15T07:41:26.000Z</time>
      </trkpt>
      <trkpt lat="47.33234" lon="5.00209">
        <ele>313.39999389648</ele>
        <time>2014-11-15T07:41:28.000Z</time>
      </trkpt>
      <trkpt lat="47.33232" lon="5.00195">
        <ele>312.20001220703</ele>
        <time>2014-11-15T07:41:35.000Z</time>
      </trkpt>
      <trkpt lat="47.33226" lon="5.00185">
        <ele>311.20001220703</ele>
        <time>2014-11-15T07:41:41.000Z</time>
      </trkpt>
      <trkpt lat="47.3322" lon="5.00178">
        <ele>310.39999389648</ele>
        <time>2014-11-15T07:41:46.000Z</time>
      </trkpt>
      <trkpt lat="47.33212" lon="5.00169">
        <ele>309.39999389648</ele>
        <time>2014-11-15T07:41:53.000Z</time>
      </trkpt>
      <trkpt lat="47.33205" lon="5.00158">
        <ele>308.20001220703</ele>
        <time>2014-11-15T07:42:00.000Z</time>
      </trkpt>
      <trkpt lat="47.33197" lon="5.00148">
        <ele>307</ele>
        <time>2014-11-15T07:42:07.000Z</time>
      </trkpt>
      <trkpt lat="47.3319" lon="5.0014">
        <ele>306</ele>
        <time>2014-11-15T07:42:13.000Z</time>
      </trkpt>
      <trkpt lat="47.33187" lon="5.00136">
        <ele>305.60000610352</ele>
        <time>2014-11-15T07:42:17.000Z</time>
      </trkpt>
      <trkpt lat="47.33181" lon="5.0013">
        <ele>305</ele>
        <time>2014-11-15T07:42:22.000Z</time>
      </trkpt>
      <trkpt lat="47.33172" lon="5.00125">
        <ele>304.20001220703</ele>
        <time>2014-11-15T07:42:29.000Z</time>
      </trkpt>
      <trkpt lat="47.33163" lon="5.00123">
        <ele>303.79998779297</ele>
        <time>2014-11-15T07:42:37.000Z</time>
      </trkpt>
      <trkpt lat="47.33161" lon="5.00123">
        <ele>303.60000610352</ele>
        <time>2014-11-15T07:42:38.000Z</time>
      </trkpt>
      <trkpt lat="47.33147" lon="5.00118">
        <ele>302</ele>
        <time>2014-11-15T07:42:47.000Z</time>
      </trkpt>
      <trkpt lat="47.33139" lon="5.00116">
        <ele>301.20001220703</ele>
        <time>2014-11-15T07:42:52.000Z</time>
      </trkpt>
      <trkpt lat="47.33131" lon="5.00118">
        <ele>300.60000610352</ele>
        <time>2014-11-15T07:42:58.000Z</time>
      </trkpt>
      <trkpt lat="47.33127" lon="5.00118">
        <ele>300.39999389648</ele>
        <time>2014-11-15T07:43:01.000Z</time>
      </trkpt>
      <trkpt lat="47.33123" lon="5.00118">
        <ele>300</ele>
        <time>2014-11-15T07:43:04.000Z</time>
      </trkpt>
      <trkpt lat="47.33114" lon="5.00116">
        <ele>299</ele>
        <time>2014-11-15T07:43:10.000Z</time>
      </trkpt>
      <trkpt lat="47.3311" lon="5.00115">
        <ele>298.60000610352</ele>
        <time>2014-11-15T07:43:14.000Z</time>
      </trkpt>
      <trkpt lat="47.33109" lon="5.00115">
        <ele>298.39999389648</ele>
        <time>2014-11-15T07:43:15.000Z</time>
      </trkpt>
      <trkpt lat="47.33104" lon="5.00113">
        <ele>298</ele>
        <time>2014-11-15T07:43:19.000Z</time>
      </trkpt>
      <trkpt lat="47.331" lon="5.00114">
        <ele>297.60000610352</ele>
        <time>2014-11-15T07:43:26.000Z</time>
      </trkpt>
      <trkpt lat="47.33097" lon="5.00113">
        <ele>297.39999389648</ele>
        <time>2014-11-15T07:43:36.000Z</time>
      </trkpt>
      <trkpt lat="47.33093" lon="5.00113">
        <ele>297</ele>
        <time>2014-11-15T07:43:56.000Z</time>
      </trkpt>
      <trkpt lat="47.3309" lon="5.00114">
        <ele>296.79998779297</ele>
        <time>2014-11-15T07:43:59.000Z</time>
      </trkpt>
      <trkpt lat="47.33083" lon="5.00114">
        <ele>296.39999389648</ele>
        <time>2014-11-15T07:44:04.000Z</time>
      </trkpt>
      <trkpt lat="47.33079" lon="5.00112">
        <ele>295.39999389648</ele>
        <time>2014-11-15T07:44:07.000Z</time>
      </trkpt>
      <trkpt lat="47.33072" lon="5.00119">
        <ele>294</ele>
        <time>2014-11-15T07:44:13.000Z</time>
      </trkpt>
      <trkpt lat="47.33065" lon="5.00125">
        <ele>292.60000610352</ele>
        <time>2014-11-15T07:44:19.000Z</time>
      </trkpt>
      <trkpt lat="47.33063" lon="5.00125">
        <ele>292</ele>
        <time>2014-11-15T07:44:34.000Z</time>
      </trkpt>
      <trkpt lat="47.33064" lon="5.00126">
        <ele>292.20001220703</ele>
        <time>2014-11-15T07:44:39.000Z</time>
      </trkpt>
      <trkpt lat="47.33065" lon="5.00127">
        <ele>292.60000610352</ele>
        <time>2014-11-15T07:45:11.000Z</time>
      </trkpt>
      <trkpt lat="47.3306" lon="5.00128">
        <ele>291.39999389648</ele>
        <time>2014-11-15T07:45:43.000Z</time>
      </trkpt>
      <trkpt lat="47.33061" lon="5.00127">
        <ele>291.39999389648</ele>
        <time>2014-11-15T07:45:52.000Z</time>
      </trkpt>
      <trkpt lat="47.3306" lon="5.00128">
        <ele>291.20001220703</ele>
        <time>2014-11-15T07:45:57.000Z</time>
      </trkpt>
      <trkpt lat="47.33053" lon="5.0013">
        <ele>289.39999389648</ele>
        <time>2014-11-15T07:46:21.000Z</time>
      </trkpt>
      <trkpt lat="47.33052" lon="5.00131">
        <ele>289</ele>
        <time>2014-11-15T07:46:22.000Z</time>
      </trkpt>
      <trkpt lat="47.33046" lon="5.00138">
        <ele>287.79998779297</ele>
        <time>2014-11-15T07:46:29.000Z</time>
      </trkpt>
      <trkpt lat="47.33041" lon="5.00144">
        <ele>286.79998779297</ele>
        <time>2014-11-15T07:46:35.000Z</time>
      </trkpt>
      <trkpt lat="47.33035" lon="5.00152">
        <ele>285.60000610352</ele>
        <time>2014-11-15T07:46:44.000Z</time>
      </trkpt>
      <trkpt lat="47.33034" lon="5.00153">
        <ele>285.39999389648</ele>
        <time>2014-11-15T07:46:45.000Z</time>
      </trkpt>
      <trkpt lat="47.33028" lon="5.00146">
        <ele>283.20001220703</ele>
        <time>2014-11-15T07:46:51.000Z</time>
      </trkpt>
      <trkpt lat="47.33024" lon="5.00133">
        <ele>281.20001220703</ele>
        <time>2014-11-15T07:46:58.000Z</time>
      </trkpt>
      <trkpt lat="47.33022" lon="5.00117">
        <ele>279.60000610352</ele>
        <time>2014-11-15T07:47:06.000Z</time>
      </trkpt>
      <trkpt lat="47.33023" lon="5.0011">
        <ele>279</ele>
        <time>2014-11-15T07:47:10.000Z</time>
      </trkpt>
      <trkpt lat="47.33024" lon="5.00105">
        <ele>278.79998779297</ele>
        <time>2014-11-15T07:47:14.000Z</time>
      </trkpt>
      <trkpt lat="47.33024" lon="5.00102">
        <ele>278.60000610352</ele>
        <time>2014-11-15T07:47:16.000Z</time>
      </trkpt>
      <trkpt lat="47.33025" lon="5.00098">
        <ele>278.39999389648</ele>
        <time>2014-11-15T07:47:20.000Z</time>
      </trkpt>
      <trkpt lat="47.33025" lon="5.00094">
        <ele>278.20001220703</ele>
        <time>2014-11-15T07:47:23.000Z</time>
      </trkpt>
      <trkpt lat="47.33027" lon="5.00085">
        <ele>277.79998779297</ele>
        <time>2014-11-15T07:47:29.000Z</time>
      </trkpt>
      <trkpt lat="47.33027" lon="5.00082">
        <ele>277.60000610352</ele>
        <time>2014-11-15T07:47:31.000Z</time>
      </trkpt>
      <trkpt lat="47.33027" lon="5.00077">
        <ele>277.20001220703</ele>
        <time>2014-11-15T07:47:34.000Z</time>
      </trkpt>
      <trkpt lat="47.33028" lon="5.00074">
        <ele>277</ele>
        <time>2014-11-15T07:47:36.000Z</time>
      </trkpt>
      <trkpt lat="47.3303" lon="5.00063">
        <ele>276.60000610352</ele>
        <time>2014-11-15T07:47:43.000Z</time>
      </trkpt>
      <trkpt lat="47.3303" lon="5.0005">
        <ele>275.39999389648</ele>
        <time>2014-11-15T07:47:50.000Z</time>
      </trkpt>
      <trkpt lat="47.33029" lon="5.00041">
        <ele>259</ele>
        <time>2014-11-15T07:47:55.000Z</time>
      </trkpt>
      <trkpt lat="47.33029" lon="5.00029">
        <ele>258</ele>
        <time>2014-11-15T07:48:02.000Z</time>
      </trkpt>
      <trkpt lat="47.33029" lon="5.00022">
        <ele>257.39999389648</ele>
        <time>2014-11-15T07:48:07.000Z</time>
      </trkpt>
      <trkpt lat="47.3303" lon="5.00016">
        <ele>256.79998779297</ele>
        <time>2014-11-15T07:48:12.000Z</time>
      </trkpt>
      <trkpt lat="47.33027" lon="5.00009">
        <ele>256.20001220703</ele>
        <time>2014-11-15T07:48:17.000Z</time>
      </trkpt>
      <trkpt lat="47.33027" lon="5.00003">
        <ele>255.80000305176</ele>
        <time>2014-11-15T07:48:21.000Z</time>
      </trkpt>
      <trkpt lat="47.33026" lon="4.99993">
        <ele>255</ele>
        <time>2014-11-15T07:48:27.000Z</time>
      </trkpt>
      <trkpt lat="47.33026" lon="4.99991">
        <ele>254.80000305176</ele>
        <time>2014-11-15T07:48:28.000Z</time>
      </trkpt>
      <trkpt lat="47.33026" lon="4.99978">
        <ele>255.19999694824</ele>
        <time>2014-11-15T07:48:35.000Z</time>
      </trkpt>
      <trkpt lat="47.33027" lon="4.99975">
        <ele>255.80000305176</ele>
        <time>2014-11-15T07:48:36.000Z</time>
      </trkpt>
      <trkpt lat="47.33031" lon="4.99961">
        <ele>257.79998779297</ele>
        <time>2014-11-15T07:48:43.000Z</time>
      </trkpt>
      <trkpt lat="47.33031" lon="4.9996">
        <ele>258</ele>
        <time>2014-11-15T07:48:44.000Z</time>
      </trkpt>
      <trkpt lat="47.33028" lon="4.99955">
        <ele>257.60000610352</ele>
        <time>2014-11-15T07:48:51.000Z</time>
      </trkpt>
      <trkpt lat="47.33027" lon="4.9995">
        <ele>257.39999389648</ele>
        <time>2014-11-15T07:48:58.000Z</time>
      </trkpt>
      <trkpt lat="47.33028" lon="4.99948">
        <ele>257.39999389648</ele>
        <time>2014-11-15T07:48:59.000Z</time>
      </trkpt>
      <trkpt lat="47.33028" lon="4.99942">
        <ele>257.39999389648</ele>
        <time>2014-11-15T07:49:02.000Z</time>
      </trkpt>
      <trkpt lat="47.33029" lon="4.99934">
        <ele>257.39999389648</ele>
        <time>2014-11-15T07:49:06.000Z</time>
      </trkpt>
      <trkpt lat="47.3303" lon="4.99929">
        <ele>257.39999389648</ele>
        <time>2014-11-15T07:49:09.000Z</time>
      </trkpt>
      <trkpt lat="47.33028" lon="4.99919">
        <ele>257.20001220703</ele>
        <time>2014-11-15T07:49:16.000Z</time>
      </trkpt>
      <trkpt lat="47.33028" lon="4.99918">
        <ele>257</ele>
        <time>2014-11-15T07:49:17.000Z</time>
      </trkpt>
      <trkpt lat="47.33027" lon="4.99913">
        <ele>256.79998779297</ele>
        <time>2014-11-15T07:49:26.000Z</time>
      </trkpt>
      <trkpt lat="47.33029" lon="4.99908">
        <ele>257</ele>
        <time>2014-11-15T07:49:33.000Z</time>
      </trkpt>
      <trkpt lat="47.33029" lon="4.99902">
        <ele>257.39999389648</ele>
        <time>2014-11-15T07:49:40.000Z</time>
      </trkpt>
      <trkpt lat="47.3303" lon="4.99896">
        <ele>258</ele>
        <time>2014-11-15T07:49:46.000Z</time>
      </trkpt>
      <trkpt lat="47.33032" lon="4.9989">
        <ele>259</ele>
        <time>2014-11-15T07:49:52.000Z</time>
      </trkpt>
      <trkpt lat="47.33034" lon="4.99882">
        <ele>259.79998779297</ele>
        <time>2014-11-15T07:49:59.000Z</time>
      </trkpt>
      <trkpt lat="47.33037" lon="4.99872">
        <ele>261</ele>
        <time>2014-11-15T07:50:05.000Z</time>
      </trkpt>
      <trkpt lat="47.33037" lon="4.99871">
        <ele>261</ele>
        <time>2014-11-15T07:50:06.000Z</time>
      </trkpt>
      <trkpt lat="47.33041" lon="4.99864">
        <ele>262</ele>
        <time>2014-11-15T07:50:13.000Z</time>
      </trkpt>
      <trkpt lat="47.33043" lon="4.99856">
        <ele>262.60000610352</ele>
        <time>2014-11-15T07:50:18.000Z</time>
      </trkpt>
      <trkpt lat="47.33045" lon="4.99853">
        <ele>263</ele>
        <time>2014-11-15T07:50:23.000Z</time>
      </trkpt>
      <trkpt lat="47.33048" lon="4.99846">
        <ele>263.79998779297</ele>
        <time>2014-11-15T07:50:30.000Z</time>
      </trkpt>
      <trkpt lat="47.3305" lon="4.99841">
        <ele>264.20001220703</ele>
        <time>2014-11-15T07:50:35.000Z</time>
      </trkpt>
      <trkpt lat="47.33052" lon="4.99826">
        <ele>263.79998779297</ele>
        <time>2014-11-15T07:50:44.000Z</time>
      </trkpt>
      <trkpt lat="47.33052" lon="4.99825">
        <ele>263.79998779297</ele>
        <time>2014-11-15T07:50:45.000Z</time>
      </trkpt>
      <trkpt lat="47.33054" lon="4.99819">
        <ele>263.79998779297</ele>
        <time>2014-11-15T07:50:49.000Z</time>
      </trkpt>
      <trkpt lat="47.33055" lon="4.9981">
        <ele>263.60000610352</ele>
        <time>2014-11-15T07:50:54.000Z</time>
      </trkpt>
      <trkpt lat="47.33055" lon="4.99797">
        <ele>263</ele>
        <time>2014-11-15T07:51:01.000Z</time>
      </trkpt>
      <trkpt lat="47.33055" lon="4.99795">
        <ele>263</ele>
        <time>2014-11-15T07:51:02.000Z</time>
      </trkpt>
      <trkpt lat="47.33058" lon="4.99786">
        <ele>263.20001220703</ele>
        <time>2014-11-15T07:51:08.000Z</time>
      </trkpt>
      <trkpt lat="47.33059" lon="4.99785">
        <ele>263.39999389648</ele>
        <time>2014-11-15T07:51:09.000Z</time>
      </trkpt>
      <trkpt lat="47.33063" lon="4.99775">
        <ele>264</ele>
        <time>2014-11-15T07:51:15.000Z</time>
      </trkpt>
      <trkpt lat="47.33065" lon="4.9977">
        <ele>264.39999389648</ele>
        <time>2014-11-15T07:51:21.000Z</time>
      </trkpt>
      <trkpt lat="47.33067" lon="4.99765">
        <ele>264.60000610352</ele>
        <time>2014-11-15T07:51:27.000Z</time>
      </trkpt>
      <trkpt lat="47.33068" lon="4.99756">
        <ele>264.39999389648</ele>
        <time>2014-11-15T07:51:33.000Z</time>
      </trkpt>
      <trkpt lat="47.33071" lon="4.99749">
        <ele>264.79998779297</ele>
        <time>2014-11-15T07:51:39.000Z</time>
      </trkpt>
      <trkpt lat="47.33072" lon="4.99748">
        <ele>264.79998779297</ele>
        <time>2014-11-15T07:51:41.000Z</time>
      </trkpt>
      <trkpt lat="47.33073" lon="4.99745">
        <ele>265</ele>
        <time>2014-11-15T07:51:44.000Z</time>
      </trkpt>
      <trkpt lat="47.33076" lon="4.99741">
        <ele>265.20001220703</ele>
        <time>2014-11-15T07:51:50.000Z</time>
      </trkpt>
      <trkpt lat="47.33075" lon="4.99736">
        <ele>264.79998779297</ele>
        <time>2014-11-15T07:51:56.000Z</time>
      </trkpt>
      <trkpt lat="47.33074" lon="4.99731">
        <ele>264.60000610352</ele>
        <time>2014-11-15T07:52:04.000Z</time>
      </trkpt>
      <trkpt lat="47.33075" lon="4.9973">
        <ele>264.79998779297</ele>
        <time>2014-11-15T07:52:09.000Z</time>
      </trkpt>
      <trkpt lat="47.33074" lon="4.99724">
        <ele>264.39999389648</ele>
        <time>2014-11-15T07:52:18.000Z</time>
      </trkpt>
      <trkpt lat="47.33075" lon="4.99721">
        <ele>264.39999389648</ele>
        <time>2014-11-15T07:52:24.000Z</time>
      </trkpt>
      <trkpt lat="47.33076" lon="4.99718">
        <ele>264.60000610352</ele>
        <time>2014-11-15T07:52:30.000Z</time>
      </trkpt>
      <trkpt lat="47.33078" lon="4.99715">
        <ele>264.79998779297</ele>
        <time>2014-11-15T07:52:33.000Z</time>
      </trkpt>
      <trkpt lat="47.33081" lon="4.99709">
        <ele>265</ele>
        <time>2014-11-15T07:52:39.000Z</time>
      </trkpt>
      <trkpt lat="47.3308" lon="4.99708">
        <ele>264.79998779297</ele>
        <time>2014-11-15T07:52:48.000Z</time>
      </trkpt>
      <trkpt lat="47.33078" lon="4.99699">
        <ele>264</ele>
        <time>2014-11-15T07:53:01.000Z</time>
      </trkpt>
      <trkpt lat="47.33077" lon="4.99695">
        <ele>263.60000610352</ele>
        <time>2014-11-15T07:53:03.000Z</time>
      </trkpt>
      <trkpt lat="47.33077" lon="4.99684">
        <ele>262.79998779297</ele>
        <time>2014-11-15T07:53:09.000Z</time>
      </trkpt>
      <trkpt lat="47.33078" lon="4.99679">
        <ele>262.60000610352</ele>
        <time>2014-11-15T07:53:12.000Z</time>
      </trkpt>
      <trkpt lat="47.33078" lon="4.99672">
        <ele>262</ele>
        <time>2014-11-15T07:53:16.000Z</time>
      </trkpt>
      <trkpt lat="47.3308" lon="4.99667">
        <ele>261.79998779297</ele>
        <time>2014-11-15T07:53:20.000Z</time>
      </trkpt>
      <trkpt lat="47.33081" lon="4.99661">
        <ele>261.79998779297</ele>
        <time>2014-11-15T07:53:25.000Z</time>
      </trkpt>
      <trkpt lat="47.33082" lon="4.99654">
        <ele>261.39999389648</ele>
        <time>2014-11-15T07:53:32.000Z</time>
      </trkpt>
      <trkpt lat="47.33082" lon="4.99651">
        <ele>261.20001220703</ele>
        <time>2014-11-15T07:53:36.000Z</time>
      </trkpt>
      <trkpt lat="47.33083" lon="4.99641">
        <ele>260.79998779297</ele>
        <time>2014-11-15T07:53:43.000Z</time>
      </trkpt>
      <trkpt lat="47.33084" lon="4.99634">
        <ele>260.79998779297</ele>
        <time>2014-11-15T07:53:48.000Z</time>
      </trkpt>
      <trkpt lat="47.33086" lon="4.99623">
        <ele>260.20001220703</ele>
        <time>2014-11-15T07:53:55.000Z</time>
      </trkpt>
      <trkpt lat="47.33089" lon="4.99611">
        <ele>260.60000610352</ele>
        <time>2014-11-15T07:54:02.000Z</time>
      </trkpt>
      <trkpt lat="47.33093" lon="4.99596">
        <ele>261</ele>
        <time>2014-11-15T07:54:10.000Z</time>
      </trkpt>
      <trkpt lat="47.33096" lon="4.99584">
        <ele>261.39999389648</ele>
        <time>2014-11-15T07:54:17.000Z</time>
      </trkpt>
      <trkpt lat="47.33096" lon="4.99582">
        <ele>261.20001220703</ele>
        <time>2014-11-15T07:54:18.000Z</time>
      </trkpt>
      <trkpt lat="47.33098" lon="4.99568">
        <ele>261.39999389648</ele>
        <time>2014-11-15T07:54:25.000Z</time>
      </trkpt>
      <trkpt lat="47.33101" lon="4.99562">
        <ele>261.79998779297</ele>
        <time>2014-11-15T07:54:29.000Z</time>
      </trkpt>
      <trkpt lat="47.33103" lon="4.9955">
        <ele>259.79998779297</ele>
        <time>2014-11-15T07:54:37.000Z</time>
      </trkpt>
      <trkpt lat="47.33105" lon="4.99538">
        <ele>258.39999389648</ele>
        <time>2014-11-15T07:54:44.000Z</time>
      </trkpt>
      <trkpt lat="47.33106" lon="4.99526">
        <ele>258</ele>
        <time>2014-11-15T07:54:51.000Z</time>
      </trkpt>
      <trkpt lat="47.3311" lon="4.99517">
        <ele>258</ele>
        <time>2014-11-15T07:54:57.000Z</time>
      </trkpt>
      <trkpt lat="47.3311" lon="4.99516">
        <ele>258</ele>
        <time>2014-11-15T07:54:58.000Z</time>
      </trkpt>
      <trkpt lat="47.33113" lon="4.99506">
        <ele>257.79998779297</ele>
        <time>2014-11-15T07:55:04.000Z</time>
      </trkpt>
      <trkpt lat="47.33114" lon="4.99503">
        <ele>257.79998779297</ele>
        <time>2014-11-15T07:55:06.000Z</time>
      </trkpt>
      <trkpt lat="47.33115" lon="4.99495">
        <ele>257.39999389648</ele>
        <time>2014-11-15T07:55:11.000Z</time>
      </trkpt>
      <trkpt lat="47.33118" lon="4.99488">
        <ele>257</ele>
        <time>2014-11-15T07:55:17.000Z</time>
      </trkpt>
      <trkpt lat="47.33117" lon="4.99484">
        <ele>256.60000610352</ele>
        <time>2014-11-15T07:55:21.000Z</time>
      </trkpt>
      <trkpt lat="47.33118" lon="4.99476">
        <ele>256</ele>
        <time>2014-11-15T07:55:29.000Z</time>
      </trkpt>
      <trkpt lat="47.33118" lon="4.99472">
        <ele>255.60000610352</ele>
        <time>2014-11-15T07:55:35.000Z</time>
      </trkpt>
      <trkpt lat="47.33118" lon="4.99465">
        <ele>254.80000305176</ele>
        <time>2014-11-15T07:55:41.000Z</time>
      </trkpt>
      <trkpt lat="47.33119" lon="4.9946">
        <ele>254.39999389648</ele>
        <time>2014-11-15T07:55:46.000Z</time>
      </trkpt>
      <trkpt lat="47.33121" lon="4.99456">
        <ele>254.39999389648</ele>
        <time>2014-11-15T07:55:52.000Z</time>
      </trkpt>
      <trkpt lat="47.33122" lon="4.99453">
        <ele>254.39999389648</ele>
        <time>2014-11-15T07:55:57.000Z</time>
      </trkpt>
      <trkpt lat="47.33124" lon="4.99452">
        <ele>254.39999389648</ele>
        <time>2014-11-15T07:55:58.000Z</time>
      </trkpt>
      <trkpt lat="47.33127" lon="4.99448">
        <ele>254.60000610352</ele>
        <time>2014-11-15T07:56:02.000Z</time>
      </trkpt>
      <trkpt lat="47.33129" lon="4.99442">
        <ele>254.60000610352</ele>
        <time>2014-11-15T07:56:08.000Z</time>
      </trkpt>
      <trkpt lat="47.33127" lon="4.99431">
        <ele>254.19999694824</ele>
        <time>2014-11-15T07:56:14.000Z</time>
      </trkpt>
      <trkpt lat="47.33127" lon="4.99427">
        <ele>254</ele>
        <time>2014-11-15T07:56:16.000Z</time>
      </trkpt>
      <trkpt lat="47.33129" lon="4.99417">
        <ele>254.19999694824</ele>
        <time>2014-11-15T07:56:21.000Z</time>
      </trkpt>
      <trkpt lat="47.33132" lon="4.99405">
        <ele>254.60000610352</ele>
        <time>2014-11-15T07:56:27.000Z</time>
      </trkpt>
      <trkpt lat="47.33133" lon="4.99401">
        <ele>254.80000305176</ele>
        <time>2014-11-15T07:56:29.000Z</time>
      </trkpt>
      <trkpt lat="47.33136" lon="4.99392">
        <ele>255.19999694824</ele>
        <time>2014-11-15T07:56:34.000Z</time>
      </trkpt>
      <trkpt lat="47.33138" lon="4.99388">
        <ele>255.39999389648</ele>
        <time>2014-11-15T07:56:36.000Z</time>
      </trkpt>
      <trkpt lat="47.3314" lon="4.99376">
        <ele>255.60000610352</ele>
        <time>2014-11-15T07:56:42.000Z</time>
      </trkpt>
      <trkpt lat="47.33144" lon="4.99369">
        <ele>256</ele>
        <time>2014-11-15T07:56:47.000Z</time>
      </trkpt>
      <trkpt lat="47.33152" lon="4.99364">
        <ele>256.79998779297</ele>
        <time>2014-11-15T07:56:54.000Z</time>
      </trkpt>
      <trkpt lat="47.33158" lon="4.99354">
        <ele>257</ele>
        <time>2014-11-15T07:57:00.000Z</time>
      </trkpt>
      <trkpt lat="47.33164" lon="4.99334">
        <ele>257</ele>
        <time>2014-11-15T07:57:09.000Z</time>
      </trkpt>
      <trkpt lat="47.33173" lon="4.9932">
        <ele>257.39999389648</ele>
        <time>2014-11-15T07:57:17.000Z</time>
      </trkpt>
      <trkpt lat="47.33179" lon="4.99308">
        <ele>257.60000610352</ele>
        <time>2014-11-15T07:57:24.000Z</time>
      </trkpt>
      <trkpt lat="47.33182" lon="4.99303">
        <ele>258.20001220703</ele>
        <time>2014-11-15T07:57:27.000Z</time>
      </trkpt>
      <trkpt lat="47.33187" lon="4.99288">
        <ele>259</ele>
        <time>2014-11-15T07:57:35.000Z</time>
      </trkpt>
      <trkpt lat="47.33189" lon="4.99281">
        <ele>259.20001220703</ele>
        <time>2014-11-15T07:57:38.000Z</time>
      </trkpt>
      <trkpt lat="47.33193" lon="4.99268">
        <ele>259.60000610352</ele>
        <time>2014-11-15T07:57:44.000Z</time>
      </trkpt>
      <trkpt lat="47.33194" lon="4.99267">
        <ele>259.60000610352</ele>
        <time>2014-11-15T07:57:45.000Z</time>
      </trkpt>
      <trkpt lat="47.33197" lon="4.99264">
        <ele>260</ele>
        <time>2014-11-15T07:57:48.000Z</time>
      </trkpt>
      <trkpt lat="47.332" lon="4.9926">
        <ele>260.39999389648</ele>
        <time>2014-11-15T07:57:51.000Z</time>
      </trkpt>
      <trkpt lat="47.33207" lon="4.99254">
        <ele>261.20001220703</ele>
        <time>2014-11-15T07:57:56.000Z</time>
      </trkpt>
      <trkpt lat="47.33213" lon="4.99249">
        <ele>262</ele>
        <time>2014-11-15T07:58:01.000Z</time>
      </trkpt>
      <trkpt lat="47.33223" lon="4.99235">
        <ele>263.39999389648</ele>
        <time>2014-11-15T07:58:10.000Z</time>
      </trkpt>
      <trkpt lat="47.33232" lon="4.99227">
        <ele>264.79998779297</ele>
        <time>2014-11-15T07:58:16.000Z</time>
      </trkpt>
      <trkpt lat="47.3324" lon="4.99218">
        <ele>266</ele>
        <time>2014-11-15T07:58:23.000Z</time>
      </trkpt>
      <trkpt lat="47.33246" lon="4.99206">
        <ele>266.60000610352</ele>
        <time>2014-11-15T07:58:30.000Z</time>
      </trkpt>
      <trkpt lat="47.33248" lon="4.99202">
        <ele>267</ele>
        <time>2014-11-15T07:58:32.000Z</time>
      </trkpt>
      <trkpt lat="47.33249" lon="4.99185">
        <ele>266.60000610352</ele>
        <time>2014-11-15T07:58:38.000Z</time>
      </trkpt>
      <trkpt lat="47.3325" lon="4.99173">
        <ele>266.39999389648</ele>
        <time>2014-11-15T07:58:43.000Z</time>
      </trkpt>
      <trkpt lat="47.33251" lon="4.99166">
        <ele>266.39999389648</ele>
        <time>2014-11-15T07:58:47.000Z</time>
      </trkpt>
      <trkpt lat="47.3325" lon="4.99162">
        <ele>265.79998779297</ele>
        <time>2014-11-15T07:58:49.000Z</time>
      </trkpt>
      <trkpt lat="47.33252" lon="4.99144">
        <ele>265.79998779297</ele>
        <time>2014-11-15T07:58:57.000Z</time>
      </trkpt>
      <trkpt lat="47.33258" lon="4.99132">
        <ele>266.79998779297</ele>
        <time>2014-11-15T07:59:03.000Z</time>
      </trkpt>
      <trkpt lat="47.33261" lon="4.99127">
        <ele>267.39999389648</ele>
        <time>2014-11-15T07:59:06.000Z</time>
      </trkpt>
      <trkpt lat="47.33262" lon="4.9912">
        <ele>267.60000610352</ele>
        <time>2014-11-15T07:59:10.000Z</time>
      </trkpt>
      <trkpt lat="47.33266" lon="4.99107">
        <ele>267.79998779297</ele>
        <time>2014-11-15T07:59:17.000Z</time>
      </trkpt>
      <trkpt lat="47.33267" lon="4.99106">
        <ele>267.79998779297</ele>
        <time>2014-11-15T07:59:18.000Z</time>
      </trkpt>
      <trkpt lat="47.33273" lon="4.99095">
        <ele>268.79998779297</ele>
        <time>2014-11-15T07:59:24.000Z</time>
      </trkpt>
      <trkpt lat="47.33279" lon="4.9908">
        <ele>269.39999389648</ele>
        <time>2014-11-15T07:59:32.000Z</time>
      </trkpt>
      <trkpt lat="47.33287" lon="4.99066">
        <ele>269.39999389648</ele>
        <time>2014-11-15T07:59:40.000Z</time>
      </trkpt>
      <trkpt lat="47.33288" lon="4.99065">
        <ele>269.39999389648</ele>
        <time>2014-11-15T07:59:41.000Z</time>
      </trkpt>
      <trkpt lat="47.33293" lon="4.99057">
        <ele>269.39999389648</ele>
        <time>2014-11-15T07:59:46.000Z</time>
      </trkpt>
      <trkpt lat="47.33299" lon="4.9905">
        <ele>269.60000610352</ele>
        <time>2014-11-15T07:59:52.000Z</time>
      </trkpt>
      <trkpt lat="47.33303" lon="4.99046">
        <ele>269.60000610352</ele>
        <time>2014-11-15T07:59:55.000Z</time>
      </trkpt>
      <trkpt lat="47.3331" lon="4.99037">
        <ele>270.39999389648</ele>
        <time>2014-11-15T08:00:02.000Z</time>
      </trkpt>
      <trkpt lat="47.33312" lon="4.99034">
        <ele>270.39999389648</ele>
        <time>2014-11-15T08:00:11.000Z</time>
      </trkpt>
      <trkpt lat="47.33312" lon="4.99032">
        <ele>270.60000610352</ele>
        <time>2014-11-15T08:00:13.000Z</time>
      </trkpt>
      <trkpt lat="47.33313" lon="4.99029">
        <ele>270.60000610352</ele>
        <time>2014-11-15T08:00:21.000Z</time>
      </trkpt>
      <trkpt lat="47.33316" lon="4.99021">
        <ele>270.60000610352</ele>
        <time>2014-11-15T08:00:26.000Z</time>
      </trkpt>
      <trkpt lat="47.33316" lon="4.9902">
        <ele>270.39999389648</ele>
        <time>2014-11-15T08:00:27.000Z</time>
      </trkpt>
      <trkpt lat="47.33322" lon="4.99014">
        <ele>270</ele>
        <time>2014-11-15T08:00:32.000Z</time>
      </trkpt>
      <trkpt lat="47.33323" lon="4.99013">
        <ele>270</ele>
        <time>2014-11-15T08:00:33.000Z</time>
      </trkpt>
      <trkpt lat="47.33326" lon="4.99006">
        <ele>269.39999389648</ele>
        <time>2014-11-15T08:00:37.000Z</time>
      </trkpt>
      <trkpt lat="47.3333" lon="4.99">
        <ele>269</ele>
        <time>2014-11-15T08:00:41.000Z</time>
      </trkpt>
      <trkpt lat="47.33333" lon="4.98995">
        <ele>269</ele>
        <time>2014-11-15T08:00:44.000Z</time>
      </trkpt>
      <trkpt lat="47.33339" lon="4.98986">
        <ele>269</ele>
        <time>2014-11-15T08:00:50.000Z</time>
      </trkpt>
      <trkpt lat="47.33344" lon="4.98979">
        <ele>269.20001220703</ele>
        <time>2014-11-15T08:00:55.000Z</time>
      </trkpt>
      <trkpt lat="47.33351" lon="4.98973">
        <ele>269.39999389648</ele>
        <time>2014-11-15T08:01:01.000Z</time>
      </trkpt>
      <trkpt lat="47.33357" lon="4.98965">
        <ele>268.60000610352</ele>
        <time>2014-11-15T08:01:07.000Z</time>
      </trkpt>
      <trkpt lat="47.33359" lon="4.98962">
        <ele>268.39999389648</ele>
        <time>2014-11-15T08:01:09.000Z</time>
      </trkpt>
      <trkpt lat="47.3336" lon="4.98961">
        <ele>268.20001220703</ele>
        <time>2014-11-15T08:01:12.000Z</time>
      </trkpt>
      <trkpt lat="47.33361" lon="4.98953">
        <ele>267.60000610352</ele>
        <time>2014-11-15T08:01:17.000Z</time>
      </trkpt>
      <trkpt lat="47.33362" lon="4.98946">
        <ele>267.20001220703</ele>
        <time>2014-11-15T08:01:21.000Z</time>
      </trkpt>
      <trkpt lat="47.33363" lon="4.98938">
        <ele>266.39999389648</ele>
        <time>2014-11-15T08:01:27.000Z</time>
      </trkpt>
      <trkpt lat="47.33364" lon="4.98935">
        <ele>266.39999389648</ele>
        <time>2014-11-15T08:01:29.000Z</time>
      </trkpt>
      <trkpt lat="47.33364" lon="4.98932">
        <ele>266.20001220703</ele>
        <time>2014-11-15T08:01:31.000Z</time>
      </trkpt>
      <trkpt lat="47.33364" lon="4.98926">
        <ele>265.79998779297</ele>
        <time>2014-11-15T08:01:34.000Z</time>
      </trkpt>
      <trkpt lat="47.33369" lon="4.98919">
        <ele>265.79998779297</ele>
        <time>2014-11-15T08:01:39.000Z</time>
      </trkpt>
      <trkpt lat="47.3337" lon="4.98916">
        <ele>265.60000610352</ele>
        <time>2014-11-15T08:01:41.000Z</time>
      </trkpt>
      <trkpt lat="47.3337" lon="4.98911">
        <ele>265</ele>
        <time>2014-11-15T08:01:43.000Z</time>
      </trkpt>
      <trkpt lat="47.33376" lon="4.98904">
        <ele>264.39999389648</ele>
        <time>2014-11-15T08:01:48.000Z</time>
      </trkpt>
      <trkpt lat="47.33378" lon="4.989">
        <ele>264</ele>
        <time>2014-11-15T08:01:50.000Z</time>
      </trkpt>
      <trkpt lat="47.33383" lon="4.98893">
        <ele>263.39999389648</ele>
        <time>2014-11-15T08:01:55.000Z</time>
      </trkpt>
      <trkpt lat="47.33384" lon="4.98891">
        <ele>263.20001220703</ele>
        <time>2014-11-15T08:01:56.000Z</time>
      </trkpt>
      <trkpt lat="47.33385" lon="4.98889">
        <ele>263</ele>
        <time>2014-11-15T08:01:57.000Z</time>
      </trkpt>
      <trkpt lat="47.3339" lon="4.98882">
        <ele>262.39999389648</ele>
        <time>2014-11-15T08:02:01.000Z</time>
      </trkpt>
      <trkpt lat="47.33391" lon="4.9888">
        <ele>262</ele>
        <time>2014-11-15T08:02:02.000Z</time>
      </trkpt>
      <trkpt lat="47.33396" lon="4.98869">
        <ele>261.20001220703</ele>
        <time>2014-11-15T08:02:08.000Z</time>
      </trkpt>
      <trkpt lat="47.33401" lon="4.98859">
        <ele>260.79998779297</ele>
        <time>2014-11-15T08:02:13.000Z</time>
      </trkpt>
      <trkpt lat="47.33409" lon="4.9885">
        <ele>260.39999389648</ele>
        <time>2014-11-15T08:02:19.000Z</time>
      </trkpt>
      <trkpt lat="47.33416" lon="4.98842">
        <ele>260</ele>
        <time>2014-11-15T08:02:24.000Z</time>
      </trkpt>
      <trkpt lat="47.33425" lon="4.98829">
        <ele>259.20001220703</ele>
        <time>2014-11-15T08:02:31.000Z</time>
      </trkpt>
      <trkpt lat="47.33435" lon="4.98815">
        <ele>258.60000610352</ele>
        <time>2014-11-15T08:02:38.000Z</time>
      </trkpt>
      <trkpt lat="47.33436" lon="4.98813">
        <ele>258.39999389648</ele>
        <time>2014-11-15T08:02:39.000Z</time>
      </trkpt>
      <trkpt lat="47.33437" lon="4.98812">
        <ele>258.39999389648</ele>
        <time>2014-11-15T08:02:40.000Z</time>
      </trkpt>
      <trkpt lat="47.33441" lon="4.98805">
        <ele>258.20001220703</ele>
        <time>2014-11-15T08:02:46.000Z</time>
      </trkpt>
      <trkpt lat="47.33444" lon="4.98798">
        <ele>258</ele>
        <time>2014-11-15T08:02:51.000Z</time>
      </trkpt>
      <trkpt lat="47.3345" lon="4.98787">
        <ele>257.79998779297</ele>
        <time>2014-11-15T08:02:58.000Z</time>
      </trkpt>
      <trkpt lat="47.33458" lon="4.98775">
        <ele>257.60000610352</ele>
        <time>2014-11-15T08:03:05.000Z</time>
      </trkpt>
      <trkpt lat="47.33461" lon="4.9877">
        <ele>257.60000610352</ele>
        <time>2014-11-15T08:03:08.000Z</time>
      </trkpt>
      <trkpt lat="47.3347" lon="4.98754">
        <ele>257.60000610352</ele>
        <time>2014-11-15T08:03:17.000Z</time>
      </trkpt>
      <trkpt lat="47.33478" lon="4.98742">
        <ele>257.79998779297</ele>
        <time>2014-11-15T08:03:24.000Z</time>
      </trkpt>
      <trkpt lat="47.33489" lon="4.98725">
        <ele>258</ele>
        <time>2014-11-15T08:03:34.000Z</time>
      </trkpt>
      <trkpt lat="47.33497" lon="4.98713">
        <ele>258.20001220703</ele>
        <time>2014-11-15T08:03:41.000Z</time>
      </trkpt>
      <trkpt lat="47.33506" lon="4.98697">
        <ele>257.79998779297</ele>
        <time>2014-11-15T08:03:50.000Z</time>
      </trkpt>
      <trkpt lat="47.33515" lon="4.98683">
        <ele>257.60000610352</ele>
        <time>2014-11-15T08:03:58.000Z</time>
      </trkpt>
      <trkpt lat="47.33522" lon="4.98671">
        <ele>257.39999389648</ele>
        <time>2014-11-15T08:04:05.000Z</time>
      </trkpt>
      <trkpt lat="47.33531" lon="4.98656">
        <ele>257.20001220703</ele>
        <time>2014-11-15T08:04:14.000Z</time>
      </trkpt>
      <trkpt lat="47.33539" lon="4.98645">
        <ele>257</ele>
        <time>2014-11-15T08:04:21.000Z</time>
      </trkpt>
      <trkpt lat="47.33545" lon="4.98634">
        <ele>256.79998779297</ele>
        <time>2014-11-15T08:04:27.000Z</time>
      </trkpt>
      <trkpt lat="47.33553" lon="4.98621">
        <ele>256.60000610352</ele>
        <time>2014-11-15T08:04:34.000Z</time>
      </trkpt>
      <trkpt lat="47.33566" lon="4.98603">
        <ele>256.39999389648</ele>
        <time>2014-11-15T08:04:45.000Z</time>
      </trkpt>
      <trkpt lat="47.33575" lon="4.98588">
        <ele>256.39999389648</ele>
        <time>2014-11-15T08:04:54.000Z</time>
      </trkpt>
      <trkpt lat="47.33581" lon="4.98578">
        <ele>256.39999389648</ele>
        <time>2014-11-15T08:05:00.000Z</time>
      </trkpt>
      <trkpt lat="47.33582" lon="4.98576">
        <ele>256.20001220703</ele>
        <time>2014-11-15T08:05:05.000Z</time>
      </trkpt>
      <trkpt lat="47.33584" lon="4.98573">
        <ele>256.20001220703</ele>
        <time>2014-11-15T08:05:11.000Z</time>
      </trkpt>
      <trkpt lat="47.33587" lon="4.98568">
        <ele>256.20001220703</ele>
        <time>2014-11-15T08:05:19.000Z</time>
      </trkpt>
      <trkpt lat="47.33595" lon="4.98567">
        <ele>256.20001220703</ele>
        <time>2014-11-15T08:05:26.000Z</time>
      </trkpt>
      <trkpt lat="47.33599" lon="4.98568">
        <ele>256.39999389648</ele>
        <time>2014-11-15T08:05:30.000Z</time>
      </trkpt>
      <trkpt lat="47.33606" lon="4.9857">
        <ele>256.60000610352</ele>
        <time>2014-11-15T08:05:37.000Z</time>
      </trkpt>
      <trkpt lat="47.33607" lon="4.9857">
        <ele>256.60000610352</ele>
        <time>2014-11-15T08:05:38.000Z</time>
      </trkpt>
      <trkpt lat="47.3361" lon="4.98566">
        <ele>256.60000610352</ele>
        <time>2014-11-15T08:05:42.000Z</time>
      </trkpt>
      <trkpt lat="47.33609" lon="4.98565">
        <ele>256.60000610352</ele>
        <time>2014-11-15T08:05:43.000Z</time>
      </trkpt>
      <trkpt lat="47.33608" lon="4.98561">
        <ele>256.39999389648</ele>
        <time>2014-11-15T08:05:49.000Z</time>
      </trkpt>
      <trkpt lat="47.33607" lon="4.98547">
        <ele>256</ele>
        <time>2014-11-15T08:05:56.000Z</time>
      </trkpt>
      <trkpt lat="47.33611" lon="4.98535">
        <ele>255.80000305176</ele>
        <time>2014-11-15T08:06:02.000Z</time>
      </trkpt>
      <trkpt lat="47.33617" lon="4.98529">
        <ele>255.80000305176</ele>
        <time>2014-11-15T08:06:07.000Z</time>
      </trkpt>
      <trkpt lat="47.33625" lon="4.98521">
        <ele>255.80000305176</ele>
        <time>2014-11-15T08:06:14.000Z</time>
      </trkpt>
      <trkpt lat="47.33629" lon="4.98515">
        <ele>255.80000305176</ele>
        <time>2014-11-15T08:06:19.000Z</time>
      </trkpt>
      <trkpt lat="47.3363" lon="4.98514">
        <ele>255.80000305176</ele>
        <time>2014-11-15T08:06:20.000Z</time>
      </trkpt>
      <trkpt lat="47.33636" lon="4.98507">
        <ele>256.20001220703</ele>
        <time>2014-11-15T08:06:25.000Z</time>
      </trkpt>
      <trkpt lat="47.3364" lon="4.98501">
        <ele>256.60000610352</ele>
        <time>2014-11-15T08:06:29.000Z</time>
      </trkpt>
      <trkpt lat="47.33646" lon="4.98497">
        <ele>257.39999389648</ele>
        <time>2014-11-15T08:06:33.000Z</time>
      </trkpt>
      <trkpt lat="47.33644" lon="4.98476">
        <ele>257.60000610352</ele>
        <time>2014-11-15T08:06:39.000Z</time>
      </trkpt>
      <trkpt lat="47.33645" lon="4.9847">
        <ele>258</ele>
        <time>2014-11-15T08:06:43.000Z</time>
      </trkpt>
      <trkpt lat="47.33646" lon="4.98468">
        <ele>258</ele>
        <time>2014-11-15T08:06:44.000Z</time>
      </trkpt>
      <trkpt lat="47.33653" lon="4.98457">
        <ele>259</ele>
        <time>2014-11-15T08:06:50.000Z</time>
      </trkpt>
      <trkpt lat="47.33654" lon="4.98456">
        <ele>259</ele>
        <time>2014-11-15T08:06:51.000Z</time>
      </trkpt>
      <trkpt lat="47.33659" lon="4.98454">
        <ele>259.39999389648</ele>
        <time>2014-11-15T08:06:54.000Z</time>
      </trkpt>
      <trkpt lat="47.33662" lon="4.98452">
        <ele>259.60000610352</ele>
        <time>2014-11-15T08:06:56.000Z</time>
      </trkpt>
      <trkpt lat="47.33666" lon="4.9844">
        <ele>260</ele>
        <time>2014-11-15T08:07:02.000Z</time>
      </trkpt>
      <trkpt lat="47.33673" lon="4.9843">
        <ele>260.39999389648</ele>
        <time>2014-11-15T08:07:08.000Z</time>
      </trkpt>
      <trkpt lat="47.33684" lon="4.98427">
        <ele>261.20001220703</ele>
        <time>2014-11-15T08:07:16.000Z</time>
      </trkpt>
      <trkpt lat="47.33699" lon="4.98424">
        <ele>262.60000610352</ele>
        <time>2014-11-15T08:07:26.000Z</time>
      </trkpt>
      <trkpt lat="47.33702" lon="4.98425">
        <ele>262.79998779297</ele>
        <time>2014-11-15T08:07:29.000Z</time>
      </trkpt>
      <trkpt lat="47.33717" lon="4.98422">
        <ele>264</ele>
        <time>2014-11-15T08:07:39.000Z</time>
      </trkpt>
      <trkpt lat="47.33726" lon="4.98416">
        <ele>264.39999389648</ele>
        <time>2014-11-15T08:07:46.000Z</time>
      </trkpt>
      <trkpt lat="47.33733" lon="4.98406">
        <ele>264.79998779297</ele>
        <time>2014-11-15T08:07:53.000Z</time>
      </trkpt>
      <trkpt lat="47.33738" lon="4.98391">
        <ele>264.79998779297</ele>
        <time>2014-11-15T08:08:01.000Z</time>
      </trkpt>
      <trkpt lat="47.33743" lon="4.98375">
        <ele>264.60000610352</ele>
        <time>2014-11-15T08:08:10.000Z</time>
      </trkpt>
      <trkpt lat="47.33748" lon="4.9836">
        <ele>264.60000610352</ele>
        <time>2014-11-15T08:08:18.000Z</time>
      </trkpt>
      <trkpt lat="47.33751" lon="4.98349">
        <ele>265</ele>
        <time>2014-11-15T08:08:24.000Z</time>
      </trkpt>
      <trkpt lat="47.33758" lon="4.98331">
        <ele>265.79998779297</ele>
        <time>2014-11-15T08:08:34.000Z</time>
      </trkpt>
      <trkpt lat="47.33767" lon="4.98309">
        <ele>267</ele>
        <time>2014-11-15T08:08:46.000Z</time>
      </trkpt>
      <trkpt lat="47.33774" lon="4.98288">
        <ele>268.20001220703</ele>
        <time>2014-11-15T08:08:57.000Z</time>
      </trkpt>
      <trkpt lat="47.3378" lon="4.98273">
        <ele>269.39999389648</ele>
        <time>2014-11-15T08:09:05.000Z</time>
      </trkpt>
      <trkpt lat="47.33787" lon="4.98256">
        <ele>270.60000610352</ele>
        <time>2014-11-15T08:09:14.000Z</time>
      </trkpt>
      <trkpt lat="47.33793" lon="4.98238">
        <ele>271.79998779297</ele>
        <time>2014-11-15T08:09:24.000Z</time>
      </trkpt>
      <trkpt lat="47.33799" lon="4.9822">
        <ele>273.39999389648</ele>
        <time>2014-11-15T08:09:34.000Z</time>
      </trkpt>
      <trkpt lat="47.33809" lon="4.98205">
        <ele>275.60000610352</ele>
        <time>2014-11-15T08:09:47.000Z</time>
      </trkpt>
      <trkpt lat="47.33812" lon="4.98204">
        <ele>276.20001220703</ele>
        <time>2014-11-15T08:09:50.000Z</time>
      </trkpt>
      <trkpt lat="47.33821" lon="4.98206">
        <ele>278</ele>
        <time>2014-11-15T08:09:59.000Z</time>
      </trkpt>
      <trkpt lat="47.33826" lon="4.98208">
        <ele>279</ele>
        <time>2014-11-15T08:10:05.000Z</time>
      </trkpt>
      <trkpt lat="47.33831" lon="4.9821">
        <ele>280.20001220703</ele>
        <time>2014-11-15T08:10:12.000Z</time>
      </trkpt>
      <trkpt lat="47.33837" lon="4.9821">
        <ele>281.60000610352</ele>
        <time>2014-11-15T08:10:19.000Z</time>
      </trkpt>
      <trkpt lat="47.33843" lon="4.98211">
        <ele>283.60000610352</ele>
        <time>2014-11-15T08:10:25.000Z</time>
      </trkpt>
      <trkpt lat="47.33852" lon="4.98211">
        <ele>286</ele>
        <time>2014-11-15T08:10:33.000Z</time>
      </trkpt>
      <trkpt lat="47.33861" lon="4.98211">
        <ele>288.39999389648</ele>
        <time>2014-11-15T08:10:41.000Z</time>
      </trkpt>
      <trkpt lat="47.33871" lon="4.98211">
        <ele>291.20001220703</ele>
        <time>2014-11-15T08:10:50.000Z</time>
      </trkpt>
      <trkpt lat="47.33877" lon="4.98211">
        <ele>292.79998779297</ele>
        <time>2014-11-15T08:10:55.000Z</time>
      </trkpt>
      <trkpt lat="47.33885" lon="4.98211">
        <ele>295</ele>
        <time>2014-11-15T08:11:02.000Z</time>
      </trkpt>
      <trkpt lat="47.33887" lon="4.98212">
        <ele>295.60000610352</ele>
        <time>2014-11-15T08:11:04.000Z</time>
      </trkpt>
      <trkpt lat="47.33891" lon="4.98212">
        <ele>296.79998779297</ele>
        <time>2014-11-15T08:11:09.000Z</time>
      </trkpt>
      <trkpt lat="47.33896" lon="4.98212">
        <ele>298</ele>
        <time>2014-11-15T08:11:13.000Z</time>
      </trkpt>
      <trkpt lat="47.33904" lon="4.98214">
        <ele>300.39999389648</ele>
        <time>2014-11-15T08:11:21.000Z</time>
      </trkpt>
      <trkpt lat="47.33912" lon="4.98215">
        <ele>302.39999389648</ele>
        <time>2014-11-15T08:11:28.000Z</time>
      </trkpt>
      <trkpt lat="47.33919" lon="4.98217">
        <ele>304.20001220703</ele>
        <time>2014-11-15T08:11:35.000Z</time>
      </trkpt>
      <trkpt lat="47.33924" lon="4.98218">
        <ele>305.79998779297</ele>
        <time>2014-11-15T08:11:42.000Z</time>
      </trkpt>
      <trkpt lat="47.33925" lon="4.98219">
        <ele>306.20001220703</ele>
        <time>2014-11-15T08:11:43.000Z</time>
      </trkpt>
      <trkpt lat="47.33931" lon="4.98219">
        <ele>307.79998779297</ele>
        <time>2014-11-15T08:11:50.000Z</time>
      </trkpt>
      <trkpt lat="47.33931" lon="4.98219">
        <ele>308</ele>
        <time>2014-11-15T08:11:51.000Z</time>
      </trkpt>
      <trkpt lat="47.33935" lon="4.98218">
        <ele>308.79998779297</ele>
        <time>2014-11-15T08:11:56.000Z</time>
      </trkpt>
      <trkpt lat="47.33938" lon="4.98215">
        <ele>309.79998779297</ele>
        <time>2014-11-15T08:12:03.000Z</time>
      </trkpt>
      <trkpt lat="47.33938" lon="4.98211">
        <ele>310</ele>
        <time>2014-11-15T08:12:06.000Z</time>
      </trkpt>
      <trkpt lat="47.33936" lon="4.98205">
        <ele>309.60000610352</ele>
        <time>2014-11-15T08:12:11.000Z</time>
      </trkpt>
      <trkpt lat="47.33931" lon="4.98194">
        <ele>308.60000610352</ele>
        <time>2014-11-15T08:12:19.000Z</time>
      </trkpt>
      <trkpt lat="47.33925" lon="4.98184">
        <ele>307.39999389648</ele>
        <time>2014-11-15T08:12:27.000Z</time>
      </trkpt>
      <trkpt lat="47.33919" lon="4.98172">
        <ele>306.20001220703</ele>
        <time>2014-11-15T08:12:35.000Z</time>
      </trkpt>
      <trkpt lat="47.33915" lon="4.98158">
        <ele>305.79998779297</ele>
        <time>2014-11-15T08:12:44.000Z</time>
      </trkpt>
      <trkpt lat="47.3391" lon="4.98145">
        <ele>305</ele>
        <time>2014-11-15T08:12:52.000Z</time>
      </trkpt>
      <trkpt lat="47.33909" lon="4.98139">
        <ele>305</ele>
        <time>2014-11-15T08:12:56.000Z</time>
      </trkpt>
      <trkpt lat="47.33902" lon="4.98128">
        <ele>303.79998779297</ele>
        <time>2014-11-15T08:13:04.000Z</time>
      </trkpt>
      <trkpt lat="47.33904" lon="4.98118">
        <ele>304.39999389648</ele>
        <time>2014-11-15T08:13:10.000Z</time>
      </trkpt>
      <trkpt lat="47.33907" lon="4.98108">
        <ele>305</ele>
        <time>2014-11-15T08:13:17.000Z</time>
      </trkpt>
      <trkpt lat="47.33902" lon="4.98099">
        <ele>303.79998779297</ele>
        <time>2014-11-15T08:13:23.000Z</time>
      </trkpt>
      <trkpt lat="47.33898" lon="4.98085">
        <ele>302.39999389648</ele>
        <time>2014-11-15T08:13:30.000Z</time>
      </trkpt>
      <trkpt lat="47.33896" lon="4.9808">
        <ele>302.20001220703</ele>
        <time>2014-11-15T08:13:33.000Z</time>
      </trkpt>
      <trkpt lat="47.33894" lon="4.98056">
        <ele>301.39999389648</ele>
        <time>2014-11-15T08:13:46.000Z</time>
      </trkpt>
      <trkpt lat="47.33893" lon="4.98052">
        <ele>301.20001220703</ele>
        <time>2014-11-15T08:13:48.000Z</time>
      </trkpt>
      <trkpt lat="47.33892" lon="4.98042">
        <ele>301</ele>
        <time>2014-11-15T08:13:54.000Z</time>
      </trkpt>
      <trkpt lat="47.33893" lon="4.98025">
        <ele>299.20001220703</ele>
        <time>2014-11-15T08:14:03.000Z</time>
      </trkpt>
      <trkpt lat="47.33894" lon="4.98011">
        <ele>298.39999389648</ele>
        <time>2014-11-15T08:14:10.000Z</time>
      </trkpt>
      <trkpt lat="47.33893" lon="4.97999">
        <ele>297.20001220703</ele>
        <time>2014-11-15T08:14:17.000Z</time>
      </trkpt>
      <trkpt lat="47.33895" lon="4.97989">
        <ele>297.20001220703</ele>
        <time>2014-11-15T08:14:23.000Z</time>
      </trkpt>
      <trkpt lat="47.33895" lon="4.97983">
        <ele>297</ele>
        <time>2014-11-15T08:14:27.000Z</time>
      </trkpt>
      <trkpt lat="47.33899" lon="4.97974">
        <ele>297.60000610352</ele>
        <time>2014-11-15T08:14:34.000Z</time>
      </trkpt>
      <trkpt lat="47.33903" lon="4.97964">
        <ele>297.79998779297</ele>
        <time>2014-11-15T08:14:42.000Z</time>
      </trkpt>
      <trkpt lat="47.33905" lon="4.97959">
        <ele>298</ele>
        <time>2014-11-15T08:14:49.000Z</time>
      </trkpt>
      <trkpt lat="47.33906" lon="4.9795">
        <ele>297</ele>
        <time>2014-11-15T08:17:32.000Z</time>
      </trkpt>
      <trkpt lat="47.33909" lon="4.97946">
        <ele>297.20001220703</ele>
        <time>2014-11-15T08:17:35.000Z</time>
      </trkpt>
      <trkpt lat="47.33913" lon="4.97941">
        <ele>297.60000610352</ele>
        <time>2014-11-15T08:17:41.000Z</time>
      </trkpt>
      <trkpt lat="47.3392" lon="4.97929">
        <ele>296.79998779297</ele>
        <time>2014-11-15T08:17:50.000Z</time>
      </trkpt>
      <trkpt lat="47.33923" lon="4.97928">
        <ele>296.79998779297</ele>
        <time>2014-11-15T08:17:54.000Z</time>
      </trkpt>
      <trkpt lat="47.33923" lon="4.97927">
        <ele>296.79998779297</ele>
        <time>2014-11-15T08:17:55.000Z</time>
      </trkpt>
      <trkpt lat="47.33924" lon="4.97924">
        <ele>296.39999389648</ele>
        <time>2014-11-15T08:18:01.000Z</time>
      </trkpt>
      <trkpt lat="47.33926" lon="4.97919">
        <ele>295.60000610352</ele>
        <time>2014-11-15T08:18:07.000Z</time>
      </trkpt>
      <trkpt lat="47.3393" lon="4.97911">
        <ele>294.79998779297</ele>
        <time>2014-11-15T08:18:13.000Z</time>
      </trkpt>
      <trkpt lat="47.33935" lon="4.97903">
        <ele>294.20001220703</ele>
        <time>2014-11-15T08:18:21.000Z</time>
      </trkpt>
      <trkpt lat="47.33938" lon="4.97901">
        <ele>294.20001220703</ele>
        <time>2014-11-15T08:18:24.000Z</time>
      </trkpt>
      <trkpt lat="47.33941" lon="4.97898">
        <ele>294</ele>
        <time>2014-11-15T08:18:28.000Z</time>
      </trkpt>
      <trkpt lat="47.33945" lon="4.97891">
        <ele>293.79998779297</ele>
        <time>2014-11-15T08:18:35.000Z</time>
      </trkpt>
      <trkpt lat="47.33946" lon="4.97891">
        <ele>293.79998779297</ele>
        <time>2014-11-15T08:18:36.000Z</time>
      </trkpt>
      <trkpt lat="47.33947" lon="4.9789">
        <ele>293.79998779297</ele>
        <time>2014-11-15T08:18:37.000Z</time>
      </trkpt>
      <trkpt lat="47.33948" lon="4.9789">
        <ele>294</ele>
        <time>2014-11-15T08:18:39.000Z</time>
      </trkpt>
      <trkpt lat="47.33953" lon="4.97888">
        <ele>294.79998779297</ele>
        <time>2014-11-15T08:18:46.000Z</time>
      </trkpt>
      <trkpt lat="47.33961" lon="4.97886">
        <ele>295.60000610352</ele>
        <time>2014-11-15T08:18:53.000Z</time>
      </trkpt>
      <trkpt lat="47.33964" lon="4.97886">
        <ele>296.20001220703</ele>
        <time>2014-11-15T08:18:57.000Z</time>
      </trkpt>
      <trkpt lat="47.33968" lon="4.97884">
        <ele>296.60000610352</ele>
        <time>2014-11-15T08:19:01.000Z</time>
      </trkpt>
      <trkpt lat="47.33974" lon="4.97881">
        <ele>297</ele>
        <time>2014-11-15T08:19:07.000Z</time>
      </trkpt>
      <trkpt lat="47.33978" lon="4.9788">
        <ele>297.60000610352</ele>
        <time>2014-11-15T08:19:11.000Z</time>
      </trkpt>
      <trkpt lat="47.33985" lon="4.9788">
        <ele>298.79998779297</ele>
        <time>2014-11-15T08:19:18.000Z</time>
      </trkpt>
      <trkpt lat="47.33985" lon="4.97879">
        <ele>298.79998779297</ele>
        <time>2014-11-15T08:19:19.000Z</time>
      </trkpt>
      <trkpt lat="47.33994" lon="4.9787">
        <ele>298.79998779297</ele>
        <time>2014-11-15T08:19:29.000Z</time>
      </trkpt>
      <trkpt lat="47.33997" lon="4.9787">
        <ele>299.79998779297</ele>
        <time>2014-11-15T08:19:32.000Z</time>
      </trkpt>
      <trkpt lat="47.34004" lon="4.97866">
        <ele>301</ele>
        <time>2014-11-15T08:19:38.000Z</time>
      </trkpt>
      <trkpt lat="47.34009" lon="4.97862">
        <ele>301.79998779297</ele>
        <time>2014-11-15T08:19:44.000Z</time>
      </trkpt>
      <trkpt lat="47.3401" lon="4.97862">
        <ele>302</ele>
        <time>2014-11-15T08:19:45.000Z</time>
      </trkpt>
      <trkpt lat="47.34014" lon="4.97861">
        <ele>302.79998779297</ele>
        <time>2014-11-15T08:19:50.000Z</time>
      </trkpt>
      <trkpt lat="47.34016" lon="4.97859">
        <ele>303.20001220703</ele>
        <time>2014-11-15T08:19:55.000Z</time>
      </trkpt>
      <trkpt lat="47.34018" lon="4.97851">
        <ele>303.39999389648</ele>
        <time>2014-11-15T08:20:01.000Z</time>
      </trkpt>
      <trkpt lat="47.34019" lon="4.9785">
        <ele>303.60000610352</ele>
        <time>2014-11-15T08:20:02.000Z</time>
      </trkpt>
      <trkpt lat="47.34023" lon="4.97844">
        <ele>304</ele>
        <time>2014-11-15T08:20:07.000Z</time>
      </trkpt>
      <trkpt lat="47.34026" lon="4.97839">
        <ele>304.60000610352</ele>
        <time>2014-11-15T08:20:11.000Z</time>
      </trkpt>
      <trkpt lat="47.34028" lon="4.97838">
        <ele>304.79998779297</ele>
        <time>2014-11-15T08:20:13.000Z</time>
      </trkpt>
      <trkpt lat="47.34029" lon="4.97836">
        <ele>305</ele>
        <time>2014-11-15T08:20:15.000Z</time>
      </trkpt>
      <trkpt lat="47.34029" lon="4.97823">
        <ele>304.60000610352</ele>
        <time>2014-11-15T08:20:22.000Z</time>
      </trkpt>
      <trkpt lat="47.34027" lon="4.97811">
        <ele>304.39999389648</ele>
        <time>2014-11-15T08:20:28.000Z</time>
      </trkpt>
      <trkpt lat="47.34023" lon="4.97796">
        <ele>303.60000610352</ele>
        <time>2014-11-15T08:20:36.000Z</time>
      </trkpt>
      <trkpt lat="47.34022" lon="4.97792">
        <ele>303.39999389648</ele>
        <time>2014-11-15T08:20:38.000Z</time>
      </trkpt>
      <trkpt lat="47.34021" lon="4.97775">
        <ele>302.20001220703</ele>
        <time>2014-11-15T08:20:46.000Z</time>
      </trkpt>
      <trkpt lat="47.34021" lon="4.97773">
        <ele>302</ele>
        <time>2014-11-15T08:20:47.000Z</time>
      </trkpt>
      <trkpt lat="47.34022" lon="4.97766">
        <ele>301.60000610352</ele>
        <time>2014-11-15T08:20:51.000Z</time>
      </trkpt>
      <trkpt lat="47.34021" lon="4.97752">
        <ele>300.60000610352</ele>
        <time>2014-11-15T08:20:58.000Z</time>
      </trkpt>
      <trkpt lat="47.34021" lon="4.97738">
        <ele>299.60000610352</ele>
        <time>2014-11-15T08:21:05.000Z</time>
      </trkpt>
      <trkpt lat="47.34023" lon="4.97727">
        <ele>299</ele>
        <time>2014-11-15T08:21:11.000Z</time>
      </trkpt>
      <trkpt lat="47.34024" lon="4.9772">
        <ele>299</ele>
        <time>2014-11-15T08:21:15.000Z</time>
      </trkpt>
      <trkpt lat="47.34026" lon="4.9771">
        <ele>298.60000610352</ele>
        <time>2014-11-15T08:21:22.000Z</time>
      </trkpt>
      <trkpt lat="47.34026" lon="4.97707">
        <ele>298.39999389648</ele>
        <time>2014-11-15T08:21:24.000Z</time>
      </trkpt>
      <trkpt lat="47.34031" lon="4.97693">
        <ele>297.79998779297</ele>
        <time>2014-11-15T08:21:33.000Z</time>
      </trkpt>
      <trkpt lat="47.34037" lon="4.97677">
        <ele>297</ele>
        <time>2014-11-15T08:21:42.000Z</time>
      </trkpt>
      <trkpt lat="47.3404" lon="4.97668">
        <ele>296.60000610352</ele>
        <time>2014-11-15T08:21:50.000Z</time>
      </trkpt>
      <trkpt lat="47.34044" lon="4.97663">
        <ele>296</ele>
        <time>2014-11-15T08:22:04.000Z</time>
      </trkpt>
      <trkpt lat="47.34045" lon="4.97659">
        <ele>295.60000610352</ele>
        <time>2014-11-15T08:22:06.000Z</time>
      </trkpt>
      <trkpt lat="47.34052" lon="4.9765">
        <ele>294.79998779297</ele>
        <time>2014-11-15T08:22:12.000Z</time>
      </trkpt>
      <trkpt lat="47.34059" lon="4.9764">
        <ele>293.60000610352</ele>
        <time>2014-11-15T08:22:18.000Z</time>
      </trkpt>
      <trkpt lat="47.34064" lon="4.97634">
        <ele>293.20001220703</ele>
        <time>2014-11-15T08:22:22.000Z</time>
      </trkpt>
      <trkpt lat="47.34074" lon="4.97626">
        <ele>293</ele>
        <time>2014-11-15T08:22:29.000Z</time>
      </trkpt>
      <trkpt lat="47.3408" lon="4.97619">
        <ele>293</ele>
        <time>2014-11-15T08:22:35.000Z</time>
      </trkpt>
      <trkpt lat="47.34088" lon="4.97613">
        <ele>293</ele>
        <time>2014-11-15T08:22:41.000Z</time>
      </trkpt>
      <trkpt lat="47.34092" lon="4.97609">
        <ele>292.60000610352</ele>
        <time>2014-11-15T08:22:45.000Z</time>
      </trkpt>
      <trkpt lat="47.34098" lon="4.97604">
        <ele>292.60000610352</ele>
        <time>2014-11-15T08:22:50.000Z</time>
      </trkpt>
      <trkpt lat="47.34099" lon="4.97604">
        <ele>292.60000610352</ele>
        <time>2014-11-15T08:22:51.000Z</time>
      </trkpt>
      <trkpt lat="47.34108" lon="4.976">
        <ele>292.79998779297</ele>
        <time>2014-11-15T08:22:58.000Z</time>
      </trkpt>
      <trkpt lat="47.34115" lon="4.97597">
        <ele>292.79998779297</ele>
        <time>2014-11-15T08:23:04.000Z</time>
      </trkpt>
      <trkpt lat="47.3412" lon="4.97592">
        <ele>292.39999389648</ele>
        <time>2014-11-15T08:23:10.000Z</time>
      </trkpt>
      <trkpt lat="47.3412" lon="4.97591">
        <ele>292.39999389648</ele>
        <time>2014-11-15T08:23:11.000Z</time>
      </trkpt>
      <trkpt lat="47.34128" lon="4.97584">
        <ele>292</ele>
        <time>2014-11-15T08:23:18.000Z</time>
      </trkpt>
      <trkpt lat="47.3413" lon="4.97582">
        <ele>292.20001220703</ele>
        <time>2014-11-15T08:23:20.000Z</time>
      </trkpt>
      <trkpt lat="47.3414" lon="4.97574">
        <ele>292.39999389648</ele>
        <time>2014-11-15T08:23:28.000Z</time>
      </trkpt>
      <trkpt lat="47.34152" lon="4.97568">
        <ele>292.79998779297</ele>
        <time>2014-11-15T08:23:36.000Z</time>
      </trkpt>
      <trkpt lat="47.3416" lon="4.97565">
        <ele>293.20001220703</ele>
        <time>2014-11-15T08:23:42.000Z</time>
      </trkpt>
      <trkpt lat="47.34167" lon="4.9756">
        <ele>293.39999389648</ele>
        <time>2014-11-15T08:23:48.000Z</time>
      </trkpt>
      <trkpt lat="47.34177" lon="4.97558">
        <ele>294</ele>
        <time>2014-11-15T08:23:55.000Z</time>
      </trkpt>
      <trkpt lat="47.3418" lon="4.97556">
        <ele>294.39999389648</ele>
        <time>2014-11-15T08:23:58.000Z</time>
      </trkpt>
      <trkpt lat="47.34187" lon="4.97554">
        <ele>296</ele>
        <time>2014-11-15T08:24:04.000Z</time>
      </trkpt>
      <trkpt lat="47.34192" lon="4.97554">
        <ele>297.20001220703</ele>
        <time>2014-11-15T08:24:09.000Z</time>
      </trkpt>
      <trkpt lat="47.34204" lon="4.97539">
        <ele>300.79998779297</ele>
        <time>2014-11-15T08:26:21.000Z</time>
      </trkpt>
      <trkpt lat="47.34208" lon="4.97543">
        <ele>301.60000610352</ele>
        <time>2014-11-15T08:26:27.000Z</time>
      </trkpt>
      <trkpt lat="47.34214" lon="4.97546">
        <ele>302.79998779297</ele>
        <time>2014-11-15T08:26:33.000Z</time>
      </trkpt>
      <trkpt lat="47.34215" lon="4.97547">
        <ele>303</ele>
        <time>2014-11-15T08:26:35.000Z</time>
      </trkpt>
      <trkpt lat="47.3422" lon="4.97552">
        <ele>304</ele>
        <time>2014-11-15T08:26:41.000Z</time>
      </trkpt>
      <trkpt lat="47.34221" lon="4.97554">
        <ele>304.20001220703</ele>
        <time>2014-11-15T08:26:43.000Z</time>
      </trkpt>
      <trkpt lat="47.34227" lon="4.97561">
        <ele>305.20001220703</ele>
        <time>2014-11-15T08:26:50.000Z</time>
      </trkpt>
      <trkpt lat="47.34232" lon="4.97568">
        <ele>306.20001220703</ele>
        <time>2014-11-15T08:26:56.000Z</time>
      </trkpt>
      <trkpt lat="47.34238" lon="4.97576">
        <ele>307.60000610352</ele>
        <time>2014-11-15T08:27:03.000Z</time>
      </trkpt>
      <trkpt lat="47.34243" lon="4.97579">
        <ele>308.39999389648</ele>
        <time>2014-11-15T08:27:07.000Z</time>
      </trkpt>
      <trkpt lat="47.34249" lon="4.97588">
        <ele>309.79998779297</ele>
        <time>2014-11-15T08:27:15.000Z</time>
      </trkpt>
      <trkpt lat="47.34252" lon="4.97591">
        <ele>310.39999389648</ele>
        <time>2014-11-15T08:27:18.000Z</time>
      </trkpt>
      <trkpt lat="47.34257" lon="4.97598">
        <ele>311.60000610352</ele>
        <time>2014-11-15T08:27:24.000Z</time>
      </trkpt>
      <trkpt lat="47.34259" lon="4.976">
        <ele>312</ele>
        <time>2014-11-15T08:27:26.000Z</time>
      </trkpt>
      <trkpt lat="47.34263" lon="4.97604">
        <ele>313.20001220703</ele>
        <time>2014-11-15T08:27:32.000Z</time>
      </trkpt>
      <trkpt lat="47.34266" lon="4.97611">
        <ele>313.60000610352</ele>
        <time>2014-11-15T08:27:38.000Z</time>
      </trkpt>
      <trkpt lat="47.34267" lon="4.97613">
        <ele>313.79998779297</ele>
        <time>2014-11-15T08:27:39.000Z</time>
      </trkpt>
      <trkpt lat="47.34269" lon="4.97617">
        <ele>314.20001220703</ele>
        <time>2014-11-15T08:27:42.000Z</time>
      </trkpt>
      <trkpt lat="47.34274" lon="4.97625">
        <ele>315.39999389648</ele>
        <time>2014-11-15T08:27:49.000Z</time>
      </trkpt>
      <trkpt lat="47.34277" lon="4.9763">
        <ele>315.79998779297</ele>
        <time>2014-11-15T08:27:53.000Z</time>
      </trkpt>
      <trkpt lat="47.34283" lon="4.9764">
        <ele>317.20001220703</ele>
        <time>2014-11-15T08:28:02.000Z</time>
      </trkpt>
      <trkpt lat="47.34284" lon="4.97642">
        <ele>317.39999389648</ele>
        <time>2014-11-15T08:28:10.000Z</time>
      </trkpt>
      <trkpt lat="47.34288" lon="4.97648">
        <ele>318</ele>
        <time>2014-11-15T08:28:17.000Z</time>
      </trkpt>
      <trkpt lat="47.34293" lon="4.97655">
        <ele>319</ele>
        <time>2014-11-15T08:28:24.000Z</time>
      </trkpt>
      <trkpt lat="47.34301" lon="4.97666">
        <ele>320.79998779297</ele>
        <time>2014-11-15T08:28:33.000Z</time>
      </trkpt>
      <trkpt lat="47.34307" lon="4.97673">
        <ele>322.20001220703</ele>
        <time>2014-11-15T08:28:41.000Z</time>
      </trkpt>
      <trkpt lat="47.34308" lon="4.97674">
        <ele>322.39999389648</ele>
        <time>2014-11-15T08:28:42.000Z</time>
      </trkpt>
      <trkpt lat="47.34313" lon="4.97683">
        <ele>323.39999389648</ele>
        <time>2014-11-15T08:28:50.000Z</time>
      </trkpt>
      <trkpt lat="47.34314" lon="4.97686">
        <ele>323.60000610352</ele>
        <time>2014-11-15T08:28:52.000Z</time>
      </trkpt>
      <trkpt lat="47.34317" lon="4.97688">
        <ele>324</ele>
        <time>2014-11-15T08:28:54.000Z</time>
      </trkpt>
      <trkpt lat="47.34321" lon="4.97694">
        <ele>324.79998779297</ele>
        <time>2014-11-15T08:28:59.000Z</time>
      </trkpt>
      <trkpt lat="47.34325" lon="4.97702">
        <ele>325.60000610352</ele>
        <time>2014-11-15T08:29:05.000Z</time>
      </trkpt>
      <trkpt lat="47.34328" lon="4.97706">
        <ele>326.39999389648</ele>
        <time>2014-11-15T08:29:10.000Z</time>
      </trkpt>
      <trkpt lat="47.34328" lon="4.97708">
        <ele>326.79998779297</ele>
        <time>2014-11-15T08:29:12.000Z</time>
      </trkpt>
      <trkpt lat="47.34333" lon="4.97716">
        <ele>328</ele>
        <time>2014-11-15T08:29:18.000Z</time>
      </trkpt>
      <trkpt lat="47.34333" lon="4.97717">
        <ele>328.20001220703</ele>
        <time>2014-11-15T08:29:19.000Z</time>
      </trkpt>
      <trkpt lat="47.34336" lon="4.97721">
        <ele>329</ele>
        <time>2014-11-15T08:29:22.000Z</time>
      </trkpt>
      <trkpt lat="47.34339" lon="4.97728">
        <ele>330</ele>
        <time>2014-11-15T08:29:28.000Z</time>
      </trkpt>
      <trkpt lat="47.34346" lon="4.97743">
        <ele>332.39999389648</ele>
        <time>2014-11-15T08:29:38.000Z</time>
      </trkpt>
      <trkpt lat="47.34352" lon="4.97753">
        <ele>334.20001220703</ele>
        <time>2014-11-15T08:29:45.000Z</time>
      </trkpt>
      <trkpt lat="47.34357" lon="4.97762">
        <ele>336</ele>
        <time>2014-11-15T08:29:53.000Z</time>
      </trkpt>
      <trkpt lat="47.3436" lon="4.97766">
        <ele>336.79998779297</ele>
        <time>2014-11-15T08:29:56.000Z</time>
      </trkpt>
      <trkpt lat="47.34363" lon="4.97771">
        <ele>337.79998779297</ele>
        <time>2014-11-15T08:30:00.000Z</time>
      </trkpt>
      <trkpt lat="47.34365" lon="4.97774">
        <ele>338.39999389648</ele>
        <time>2014-11-15T08:30:02.000Z</time>
      </trkpt>
      <trkpt lat="47.34369" lon="4.9778">
        <ele>339.60000610352</ele>
        <time>2014-11-15T08:30:07.000Z</time>
      </trkpt>
      <trkpt lat="47.3437" lon="4.97782">
        <ele>339.79998779297</ele>
        <time>2014-11-15T08:30:09.000Z</time>
      </trkpt>
      <trkpt lat="47.34375" lon="4.9779">
        <ele>341.39999389648</ele>
        <time>2014-11-15T08:30:16.000Z</time>
      </trkpt>
      <trkpt lat="47.34377" lon="4.97793">
        <ele>342</ele>
        <time>2014-11-15T08:30:20.000Z</time>
      </trkpt>
      <trkpt lat="47.34379" lon="4.97801">
        <ele>342.79998779297</ele>
        <time>2014-11-15T08:30:26.000Z</time>
      </trkpt>
      <trkpt lat="47.34379" lon="4.97802">
        <ele>342.79998779297</ele>
        <time>2014-11-15T08:30:28.000Z</time>
      </trkpt>
      <trkpt lat="47.34384" lon="4.97808">
        <ele>344</ele>
        <time>2014-11-15T08:30:34.000Z</time>
      </trkpt>
      <trkpt lat="47.34385" lon="4.97809">
        <ele>344.20001220703</ele>
        <time>2014-11-15T08:30:35.000Z</time>
      </trkpt>
      <trkpt lat="47.34385" lon="4.9781">
        <ele>344.39999389648</ele>
        <time>2014-11-15T08:30:36.000Z</time>
      </trkpt>
      <trkpt lat="47.34386" lon="4.97813">
        <ele>344.79998779297</ele>
        <time>2014-11-15T08:30:39.000Z</time>
      </trkpt>
      <trkpt lat="47.34392" lon="4.97825">
        <ele>346.39999389648</ele>
        <time>2014-11-15T08:30:49.000Z</time>
      </trkpt>
      <trkpt lat="47.34396" lon="4.97833">
        <ele>347.60000610352</ele>
        <time>2014-11-15T08:30:56.000Z</time>
      </trkpt>
      <trkpt lat="47.34399" lon="4.97841">
        <ele>348.39999389648</ele>
        <time>2014-11-15T08:31:02.000Z</time>
      </trkpt>
      <trkpt lat="47.344" lon="4.97842">
        <ele>348.60000610352</ele>
        <time>2014-11-15T08:31:03.000Z</time>
      </trkpt>
      <trkpt lat="47.34403" lon="4.97849">
        <ele>349.60000610352</ele>
        <time>2014-11-15T08:31:08.000Z</time>
      </trkpt>
      <trkpt lat="47.34403" lon="4.97851">
        <ele>349.79998779297</ele>
        <time>2014-11-15T08:31:10.000Z</time>
      </trkpt>
      <trkpt lat="47.34404" lon="4.97855">
        <ele>350.20001220703</ele>
        <time>2014-11-15T08:31:13.000Z</time>
      </trkpt>
      <trkpt lat="47.34407" lon="4.97864">
        <ele>351</ele>
        <time>2014-11-15T08:31:19.000Z</time>
      </trkpt>
      <trkpt lat="47.34408" lon="4.9787">
        <ele>351.79998779297</ele>
        <time>2014-11-15T08:31:24.000Z</time>
      </trkpt>
      <trkpt lat="47.34408" lon="4.97872">
        <ele>352.20001220703</ele>
        <time>2014-11-15T08:31:35.000Z</time>
      </trkpt>
      <trkpt lat="47.34409" lon="4.97873">
        <ele>352.20001220703</ele>
        <time>2014-11-15T08:31:37.000Z</time>
      </trkpt>
      <trkpt lat="47.34413" lon="4.97881">
        <ele>353.39999389648</ele>
        <time>2014-11-15T08:31:45.000Z</time>
      </trkpt>
      <trkpt lat="47.34416" lon="4.97888">
        <ele>354.39999389648</ele>
        <time>2014-11-15T08:31:53.000Z</time>
      </trkpt>
      <trkpt lat="47.34419" lon="4.97893">
        <ele>355</ele>
        <time>2014-11-15T08:32:00.000Z</time>
      </trkpt>
      <trkpt lat="47.34423" lon="4.97897">
        <ele>355.60000610352</ele>
        <time>2014-11-15T08:32:07.000Z</time>
      </trkpt>
      <trkpt lat="47.34427" lon="4.97899">
        <ele>356.20001220703</ele>
        <time>2014-11-15T08:32:14.000Z</time>
      </trkpt>
      <trkpt lat="47.34431" lon="4.979">
        <ele>356.60000610352</ele>
        <time>2014-11-15T08:32:21.000Z</time>
      </trkpt>
      <trkpt lat="47.34433" lon="4.97897">
        <ele>356.39999389648</ele>
        <time>2014-11-15T08:32:24.000Z</time>
      </trkpt>
      <trkpt lat="47.34438" lon="4.97885">
        <ele>357</ele>
        <time>2014-11-15T08:32:32.000Z</time>
      </trkpt>
      <trkpt lat="47.34443" lon="4.97875">
        <ele>357.79998779297</ele>
        <time>2014-11-15T08:32:38.000Z</time>
      </trkpt>
      <trkpt lat="47.34443" lon="4.97873">
        <ele>357.79998779297</ele>
        <time>2014-11-15T08:32:39.000Z</time>
      </trkpt>
      <trkpt lat="47.3445" lon="4.97858">
        <ele>358.39999389648</ele>
        <time>2014-11-15T08:32:48.000Z</time>
      </trkpt>
      <trkpt lat="47.34458" lon="4.97844">
        <ele>358.79998779297</ele>
        <time>2014-11-15T08:32:57.000Z</time>
      </trkpt>
      <trkpt lat="47.34462" lon="4.97836">
        <ele>359.39999389648</ele>
        <time>2014-11-15T08:33:02.000Z</time>
      </trkpt>
      <trkpt lat="47.34465" lon="4.97828">
        <ele>360</ele>
        <time>2014-11-15T08:33:10.000Z</time>
      </trkpt>
      <trkpt lat="47.34466" lon="4.97826">
        <ele>360.20001220703</ele>
        <time>2014-11-15T08:33:31.000Z</time>
      </trkpt>
      <trkpt lat="47.34468" lon="4.97823">
        <ele>360.60000610352</ele>
        <time>2014-11-15T08:33:36.000Z</time>
      </trkpt>
      <trkpt lat="47.34469" lon="4.97817">
        <ele>361</ele>
        <time>2014-11-15T08:33:40.000Z</time>
      </trkpt>
      <trkpt lat="47.34474" lon="4.97809">
        <ele>362</ele>
        <time>2014-11-15T08:33:45.000Z</time>
      </trkpt>
      <trkpt lat="47.34486" lon="4.97799">
        <ele>364.39999389648</ele>
        <time>2014-11-15T08:33:55.000Z</time>
      </trkpt>
      <trkpt lat="47.34494" lon="4.97798">
        <ele>366.20001220703</ele>
        <time>2014-11-15T08:34:01.000Z</time>
      </trkpt>
      <trkpt lat="47.34505" lon="4.97803">
        <ele>367.20001220703</ele>
        <time>2014-11-15T08:34:10.000Z</time>
      </trkpt>
      <trkpt lat="47.34514" lon="4.97806">
        <ele>367.39999389648</ele>
        <time>2014-11-15T08:34:17.000Z</time>
      </trkpt>
      <trkpt lat="47.34528" lon="4.9781">
        <ele>367.20001220703</ele>
        <time>2014-11-15T08:34:28.000Z</time>
      </trkpt>
      <trkpt lat="47.34535" lon="4.97812">
        <ele>367</ele>
        <time>2014-11-15T08:34:34.000Z</time>
      </trkpt>
      <trkpt lat="47.34536" lon="4.97813">
        <ele>367</ele>
        <time>2014-11-15T08:34:43.000Z</time>
      </trkpt>
      <trkpt lat="47.3454" lon="4.97814">
        <ele>366.79998779297</ele>
        <time>2014-11-15T08:35:21.000Z</time>
      </trkpt>
      <trkpt lat="47.3455" lon="4.97818">
        <ele>366.60000610352</ele>
        <time>2014-11-15T08:35:29.000Z</time>
      </trkpt>
      <trkpt lat="47.34561" lon="4.97821">
        <ele>366.39999389648</ele>
        <time>2014-11-15T08:35:37.000Z</time>
      </trkpt>
      <trkpt lat="47.34571" lon="4.97827">
        <ele>366.39999389648</ele>
        <time>2014-11-15T08:35:46.000Z</time>
      </trkpt>
      <trkpt lat="47.34572" lon="4.97828">
        <ele>366.39999389648</ele>
        <time>2014-11-15T08:35:47.000Z</time>
      </trkpt>
      <trkpt lat="47.34577" lon="4.97828">
        <ele>366.39999389648</ele>
        <time>2014-11-15T08:35:50.000Z</time>
      </trkpt>
      <trkpt lat="47.34589" lon="4.97835">
        <ele>366.60000610352</ele>
        <time>2014-11-15T08:35:59.000Z</time>
      </trkpt>
      <trkpt lat="47.34601" lon="4.97844">
        <ele>367.20001220703</ele>
        <time>2014-11-15T08:36:09.000Z</time>
      </trkpt>
      <trkpt lat="47.34613" lon="4.97855">
        <ele>368</ele>
        <time>2014-11-15T08:36:18.000Z</time>
      </trkpt>
      <trkpt lat="47.34622" lon="4.97863">
        <ele>368.39999389648</ele>
        <time>2014-11-15T08:36:25.000Z</time>
      </trkpt>
      <trkpt lat="47.34633" lon="4.97875">
        <ele>369.39999389648</ele>
        <time>2014-11-15T08:36:34.000Z</time>
      </trkpt>
      <trkpt lat="47.34642" lon="4.97885">
        <ele>369.79998779297</ele>
        <time>2014-11-15T08:36:41.000Z</time>
      </trkpt>
      <trkpt lat="47.34653" lon="4.97898">
        <ele>370.20001220703</ele>
        <time>2014-11-15T08:36:49.000Z</time>
      </trkpt>
      <trkpt lat="47.3466" lon="4.97906">
        <ele>370.60000610352</ele>
        <time>2014-11-15T08:36:55.000Z</time>
      </trkpt>
      <trkpt lat="47.34668" lon="4.97914">
        <ele>371.39999389648</ele>
        <time>2014-11-15T08:37:02.000Z</time>
      </trkpt>
      <trkpt lat="47.34674" lon="4.9792">
        <ele>372.39999389648</ele>
        <time>2014-11-15T08:37:07.000Z</time>
      </trkpt>
      <trkpt lat="47.34683" lon="4.97929">
        <ele>374</ele>
        <time>2014-11-15T08:37:15.000Z</time>
      </trkpt>
      <trkpt lat="47.34692" lon="4.97938">
        <ele>375.39999389648</ele>
        <time>2014-11-15T08:37:23.000Z</time>
      </trkpt>
      <trkpt lat="47.34702" lon="4.97948">
        <ele>377</ele>
        <time>2014-11-15T08:37:31.000Z</time>
      </trkpt>
      <trkpt lat="47.34712" lon="4.97956">
        <ele>378.60000610352</ele>
        <time>2014-11-15T08:37:39.000Z</time>
      </trkpt>
      <trkpt lat="47.34722" lon="4.97965">
        <ele>380.20001220703</ele>
        <time>2014-11-15T08:37:48.000Z</time>
      </trkpt>
      <trkpt lat="47.34733" lon="4.97974">
        <ele>381.79998779297</ele>
        <time>2014-11-15T08:37:57.000Z</time>
      </trkpt>
      <trkpt lat="47.34742" lon="4.9798">
        <ele>383</ele>
        <time>2014-11-15T08:38:04.000Z</time>
      </trkpt>
      <trkpt lat="47.34752" lon="4.97985">
        <ele>384.39999389648</ele>
        <time>2014-11-15T08:38:13.000Z</time>
      </trkpt>
      <trkpt lat="47.34755" lon="4.97986">
        <ele>384.60000610352</ele>
        <time>2014-11-15T08:38:15.000Z</time>
      </trkpt>
      <trkpt lat="47.34763" lon="4.97988">
        <ele>385.20001220703</ele>
        <time>2014-11-15T08:38:21.000Z</time>
      </trkpt>
      <trkpt lat="47.34771" lon="4.97991">
        <ele>385.79998779297</ele>
        <time>2014-11-15T08:38:28.000Z</time>
      </trkpt>
      <trkpt lat="47.34778" lon="4.97994">
        <ele>386.39999389648</ele>
        <time>2014-11-15T08:38:34.000Z</time>
      </trkpt>
      <trkpt lat="47.34787" lon="4.97999">
        <ele>387.39999389648</ele>
        <time>2014-11-15T08:38:42.000Z</time>
      </trkpt>
      <trkpt lat="47.348" lon="4.97999">
        <ele>388.79998779297</ele>
        <time>2014-11-15T08:38:52.000Z</time>
      </trkpt>
      <trkpt lat="47.34813" lon="4.97999">
        <ele>390.39999389648</ele>
        <time>2014-11-15T08:39:02.000Z</time>
      </trkpt>
      <trkpt lat="47.34828" lon="4.97998">
        <ele>392.20001220703</ele>
        <time>2014-11-15T08:39:13.000Z</time>
      </trkpt>
      <trkpt lat="47.34839" lon="4.98002">
        <ele>392.79998779297</ele>
        <time>2014-11-15T08:39:22.000Z</time>
      </trkpt>
      <trkpt lat="47.34847" lon="4.98013">
        <ele>393</ele>
        <time>2014-11-15T08:39:30.000Z</time>
      </trkpt>
      <trkpt lat="47.3486" lon="4.98025">
        <ele>393.20001220703</ele>
        <time>2014-11-15T08:39:41.000Z</time>
      </trkpt>
      <trkpt lat="47.34871" lon="4.98033">
        <ele>393.60000610352</ele>
        <time>2014-11-15T08:39:49.000Z</time>
      </trkpt>
      <trkpt lat="47.34882" lon="4.9804">
        <ele>393.79998779297</ele>
        <time>2014-11-15T08:39:57.000Z</time>
      </trkpt>
      <trkpt lat="47.34894" lon="4.98049">
        <ele>394.20001220703</ele>
        <time>2014-11-15T08:40:05.000Z</time>
      </trkpt>
      <trkpt lat="47.3491" lon="4.98061">
        <ele>394.60000610352</ele>
        <time>2014-11-15T08:40:16.000Z</time>
      </trkpt>
      <trkpt lat="47.34922" lon="4.98075">
        <ele>394.39999389648</ele>
        <time>2014-11-15T08:40:26.000Z</time>
      </trkpt>
      <trkpt lat="47.34931" lon="4.98092">
        <ele>394.20001220703</ele>
        <time>2014-11-15T08:40:35.000Z</time>
      </trkpt>
      <trkpt lat="47.34929" lon="4.98113">
        <ele>394</ele>
        <time>2014-11-15T08:40:45.000Z</time>
      </trkpt>
      <trkpt lat="47.3492" lon="4.98129">
        <ele>393.79998779297</ele>
        <time>2014-11-15T08:40:54.000Z</time>
      </trkpt>
      <trkpt lat="47.34911" lon="4.98143">
        <ele>393.39999389648</ele>
        <time>2014-11-15T08:41:02.000Z</time>
      </trkpt>
      <trkpt lat="47.34901" lon="4.98164">
        <ele>392.79998779297</ele>
        <time>2014-11-15T08:41:13.000Z</time>
      </trkpt>
      <trkpt lat="47.34898" lon="4.98173">
        <ele>392.39999389648</ele>
        <time>2014-11-15T08:41:18.000Z</time>
      </trkpt>
      <trkpt lat="47.34897" lon="4.98175">
        <ele>392.39999389648</ele>
        <time>2014-11-15T08:41:26.000Z</time>
      </trkpt>
      <trkpt lat="47.34896" lon="4.98175">
        <ele>392.39999389648</ele>
        <time>2014-11-15T08:41:42.000Z</time>
      </trkpt>
      <trkpt lat="47.34893" lon="4.98194">
        <ele>392</ele>
        <time>2014-11-15T08:41:50.000Z</time>
      </trkpt>
      <trkpt lat="47.34889" lon="4.9821">
        <ele>392.20001220703</ele>
        <time>2014-11-15T08:41:56.000Z</time>
      </trkpt>
      <trkpt lat="47.34887" lon="4.98225">
        <ele>392</ele>
        <time>2014-11-15T08:42:02.000Z</time>
      </trkpt>
      <trkpt lat="47.34883" lon="4.98245">
        <ele>391.39999389648</ele>
        <time>2014-11-15T08:42:10.000Z</time>
      </trkpt>
      <trkpt lat="47.34877" lon="4.98266">
        <ele>391.60000610352</ele>
        <time>2014-11-15T08:42:19.000Z</time>
      </trkpt>
      <trkpt lat="47.34871" lon="4.98278">
        <ele>392</ele>
        <time>2014-11-15T08:42:25.000Z</time>
      </trkpt>
      <trkpt lat="47.34865" lon="4.98293">
        <ele>392.39999389648</ele>
        <time>2014-11-15T08:42:32.000Z</time>
      </trkpt>
      <trkpt lat="47.34849" lon="4.98299">
        <ele>393</ele>
        <time>2014-11-15T08:42:43.000Z</time>
      </trkpt>
      <trkpt lat="47.34831" lon="4.98289">
        <ele>394</ele>
        <time>2014-11-15T08:42:56.000Z</time>
      </trkpt>
      <trkpt lat="47.34821" lon="4.98284">
        <ele>394.60000610352</ele>
        <time>2014-11-15T08:43:03.000Z</time>
      </trkpt>
      <trkpt lat="47.34813" lon="4.98278">
        <ele>395</ele>
        <time>2014-11-15T08:43:09.000Z</time>
      </trkpt>
      <trkpt lat="47.348" lon="4.9827">
        <ele>395.60000610352</ele>
        <time>2014-11-15T08:43:18.000Z</time>
      </trkpt>
      <trkpt lat="47.34792" lon="4.98266">
        <ele>396</ele>
        <time>2014-11-15T08:43:23.000Z</time>
      </trkpt>
      <trkpt lat="47.34782" lon="4.98261">
        <ele>396.39999389648</ele>
        <time>2014-11-15T08:43:29.000Z</time>
      </trkpt>
      <trkpt lat="47.34771" lon="4.98254">
        <ele>397</ele>
        <time>2014-11-15T08:43:37.000Z</time>
      </trkpt>
      <trkpt lat="47.3476" lon="4.98249">
        <ele>397.60000610352</ele>
        <time>2014-11-15T08:43:44.000Z</time>
      </trkpt>
      <trkpt lat="47.34759" lon="4.98248">
        <ele>397.60000610352</ele>
        <time>2014-11-15T08:43:45.000Z</time>
      </trkpt>
      <trkpt lat="47.3475" lon="4.98245">
        <ele>398</ele>
        <time>2014-11-15T08:43:51.000Z</time>
      </trkpt>
      <trkpt lat="47.34739" lon="4.98239">
        <ele>398.20001220703</ele>
        <time>2014-11-15T08:43:59.000Z</time>
      </trkpt>
      <trkpt lat="47.34733" lon="4.98237">
        <ele>398.39999389648</ele>
        <time>2014-11-15T08:44:05.000Z</time>
      </trkpt>
      <trkpt lat="47.34727" lon="4.98232">
        <ele>398.39999389648</ele>
        <time>2014-11-15T08:44:12.000Z</time>
      </trkpt>
      <trkpt lat="47.3472" lon="4.98229">
        <ele>398.60000610352</ele>
        <time>2014-11-15T08:44:17.000Z</time>
      </trkpt>
      <trkpt lat="47.34717" lon="4.98225">
        <ele>398.60000610352</ele>
        <time>2014-11-15T08:44:20.000Z</time>
      </trkpt>
      <trkpt lat="47.34706" lon="4.98222">
        <ele>398.60000610352</ele>
        <time>2014-11-15T08:44:28.000Z</time>
      </trkpt>
      <trkpt lat="47.347" lon="4.98221">
        <ele>398.60000610352</ele>
        <time>2014-11-15T08:44:33.000Z</time>
      </trkpt>
      <trkpt lat="47.34694" lon="4.98221">
        <ele>398.60000610352</ele>
        <time>2014-11-15T08:44:40.000Z</time>
      </trkpt>
      <trkpt lat="47.34693" lon="4.98221">
        <ele>398.60000610352</ele>
        <time>2014-11-15T08:44:41.000Z</time>
      </trkpt>
      <trkpt lat="47.34689" lon="4.98219">
        <ele>398.79998779297</ele>
        <time>2014-11-15T08:44:44.000Z</time>
      </trkpt>
      <trkpt lat="47.34672" lon="4.98216">
        <ele>398.79998779297</ele>
        <time>2014-11-15T08:44:55.000Z</time>
      </trkpt>
      <trkpt lat="47.34662" lon="4.98214">
        <ele>398</ele>
        <time>2014-11-15T08:45:02.000Z</time>
      </trkpt>
      <trkpt lat="47.34651" lon="4.98211">
        <ele>395.60000610352</ele>
        <time>2014-11-15T08:45:09.000Z</time>
      </trkpt>
      <trkpt lat="47.34639" lon="4.9821">
        <ele>393</ele>
        <time>2014-11-15T08:45:17.000Z</time>
      </trkpt>
      <trkpt lat="47.34628" lon="4.98209">
        <ele>390.39999389648</ele>
        <time>2014-11-15T08:45:25.000Z</time>
      </trkpt>
      <trkpt lat="47.3462" lon="4.98211">
        <ele>388.20001220703</ele>
        <time>2014-11-15T08:45:31.000Z</time>
      </trkpt>
      <trkpt lat="47.34618" lon="4.98222">
        <ele>386.79998779297</ele>
        <time>2014-11-15T08:45:37.000Z</time>
      </trkpt>
      <trkpt lat="47.34617" lon="4.98235">
        <ele>385.79998779297</ele>
        <time>2014-11-15T08:45:44.000Z</time>
      </trkpt>
      <trkpt lat="47.34617" lon="4.98237">
        <ele>385.60000610352</ele>
        <time>2014-11-15T08:45:45.000Z</time>
      </trkpt>
      <trkpt lat="47.34617" lon="4.98239">
        <ele>385.60000610352</ele>
        <time>2014-11-15T08:45:46.000Z</time>
      </trkpt>
      <trkpt lat="47.34619" lon="4.98243">
        <ele>385.60000610352</ele>
        <time>2014-11-15T08:45:49.000Z</time>
      </trkpt>
      <trkpt lat="47.34622" lon="4.98252">
        <ele>385.79998779297</ele>
        <time>2014-11-15T08:45:55.000Z</time>
      </trkpt>
      <trkpt lat="47.34624" lon="4.98256">
        <ele>386.20001220703</ele>
        <time>2014-11-15T08:45:59.000Z</time>
      </trkpt>
      <trkpt lat="47.34627" lon="4.98261">
        <ele>386.60000610352</ele>
        <time>2014-11-15T08:46:03.000Z</time>
      </trkpt>
      <trkpt lat="47.34627" lon="4.98262">
        <ele>386.79998779297</ele>
        <time>2014-11-15T08:46:04.000Z</time>
      </trkpt>
      <trkpt lat="47.3463" lon="4.98268">
        <ele>387.20001220703</ele>
        <time>2014-11-15T08:46:09.000Z</time>
      </trkpt>
      <trkpt lat="47.34633" lon="4.98276">
        <ele>387.39999389648</ele>
        <time>2014-11-15T08:46:16.000Z</time>
      </trkpt>
      <trkpt lat="47.34636" lon="4.98283">
        <ele>388</ele>
        <time>2014-11-15T08:46:21.000Z</time>
      </trkpt>
      <trkpt lat="47.34637" lon="4.98293">
        <ele>388</ele>
        <time>2014-11-15T08:46:26.000Z</time>
      </trkpt>
      <trkpt lat="47.34638" lon="4.98312">
        <ele>386.20001220703</ele>
        <time>2014-11-15T08:46:35.000Z</time>
      </trkpt>
      <trkpt lat="47.34639" lon="4.98332">
        <ele>384.39999389648</ele>
        <time>2014-11-15T08:46:44.000Z</time>
      </trkpt>
      <trkpt lat="47.34639" lon="4.98335">
        <ele>384.20001220703</ele>
        <time>2014-11-15T08:46:45.000Z</time>
      </trkpt>
      <trkpt lat="47.3464" lon="4.98352">
        <ele>383</ele>
        <time>2014-11-15T08:46:52.000Z</time>
      </trkpt>
      <trkpt lat="47.34643" lon="4.98371">
        <ele>381.79998779297</ele>
        <time>2014-11-15T08:47:01.000Z</time>
      </trkpt>
      <trkpt lat="47.34644" lon="4.98383">
        <ele>381.20001220703</ele>
        <time>2014-11-15T08:47:07.000Z</time>
      </trkpt>
      <trkpt lat="47.34649" lon="4.98396">
        <ele>381.39999389648</ele>
        <time>2014-11-15T08:47:13.000Z</time>
      </trkpt>
      <trkpt lat="47.34654" lon="4.98404">
        <ele>381.79998779297</ele>
        <time>2014-11-15T08:47:19.000Z</time>
      </trkpt>
      <trkpt lat="47.34655" lon="4.98407">
        <ele>381.79998779297</ele>
        <time>2014-11-15T08:47:21.000Z</time>
      </trkpt>
      <trkpt lat="47.34659" lon="4.98419">
        <ele>382</ele>
        <time>2014-11-15T08:47:27.000Z</time>
      </trkpt>
      <trkpt lat="47.34669" lon="4.98434">
        <ele>382.79998779297</ele>
        <time>2014-11-15T08:47:36.000Z</time>
      </trkpt>
      <trkpt lat="47.3467" lon="4.9845">
        <ele>382</ele>
        <time>2014-11-15T08:47:43.000Z</time>
      </trkpt>
      <trkpt lat="47.34673" lon="4.98467">
        <ele>382</ele>
        <time>2014-11-15T08:47:50.000Z</time>
      </trkpt>
      <trkpt lat="47.34674" lon="4.98471">
        <ele>382</ele>
        <time>2014-11-15T08:47:52.000Z</time>
      </trkpt>
      <trkpt lat="47.34675" lon="4.98485">
        <ele>381.60000610352</ele>
        <time>2014-11-15T08:47:59.000Z</time>
      </trkpt>
      <trkpt lat="47.34678" lon="4.98505">
        <ele>381.39999389648</ele>
        <time>2014-11-15T08:48:08.000Z</time>
      </trkpt>
      <trkpt lat="47.3468" lon="4.98513">
        <ele>381.20001220703</ele>
        <time>2014-11-15T08:48:13.000Z</time>
      </trkpt>
      <trkpt lat="47.3468" lon="4.98516">
        <ele>381.20001220703</ele>
        <time>2014-11-15T08:48:15.000Z</time>
      </trkpt>
      <trkpt lat="47.34685" lon="4.98525">
        <ele>381.60000610352</ele>
        <time>2014-11-15T08:48:21.000Z</time>
      </trkpt>
      <trkpt lat="47.34686" lon="4.98531">
        <ele>381.60000610352</ele>
        <time>2014-11-15T08:48:24.000Z</time>
      </trkpt>
      <trkpt lat="47.34689" lon="4.98546">
        <ele>381.39999389648</ele>
        <time>2014-11-15T08:48:31.000Z</time>
      </trkpt>
      <trkpt lat="47.3469" lon="4.98552">
        <ele>381.39999389648</ele>
        <time>2014-11-15T08:48:34.000Z</time>
      </trkpt>
      <trkpt lat="47.34693" lon="4.9856">
        <ele>381.60000610352</ele>
        <time>2014-11-15T08:48:38.000Z</time>
      </trkpt>
      <trkpt lat="47.34696" lon="4.98575">
        <ele>381.60000610352</ele>
        <time>2014-11-15T08:48:45.000Z</time>
      </trkpt>
      <trkpt lat="47.347" lon="4.98591">
        <ele>381.60000610352</ele>
        <time>2014-11-15T08:48:53.000Z</time>
      </trkpt>
      <trkpt lat="47.34703" lon="4.98604">
        <ele>381.60000610352</ele>
        <time>2014-11-15T08:49:00.000Z</time>
      </trkpt>
      <trkpt lat="47.34708" lon="4.98614">
        <ele>381.79998779297</ele>
        <time>2014-11-15T08:49:06.000Z</time>
      </trkpt>
      <trkpt lat="47.34711" lon="4.98623">
        <ele>382</ele>
        <time>2014-11-15T08:49:11.000Z</time>
      </trkpt>
      <trkpt lat="47.34714" lon="4.98631">
        <ele>382</ele>
        <time>2014-11-15T08:49:16.000Z</time>
      </trkpt>
      <trkpt lat="47.34715" lon="4.98635">
        <ele>382</ele>
        <time>2014-11-15T08:49:18.000Z</time>
      </trkpt>
      <trkpt lat="47.34715" lon="4.98643">
        <ele>381.39999389648</ele>
        <time>2014-11-15T08:49:22.000Z</time>
      </trkpt>
      <trkpt lat="47.34714" lon="4.98659">
        <ele>380.20001220703</ele>
        <time>2014-11-15T08:49:29.000Z</time>
      </trkpt>
      <trkpt lat="47.34711" lon="4.98677">
        <ele>378.79998779297</ele>
        <time>2014-11-15T08:49:37.000Z</time>
      </trkpt>
      <trkpt lat="47.34709" lon="4.98692">
        <ele>378</ele>
        <time>2014-11-15T08:49:44.000Z</time>
      </trkpt>
      <trkpt lat="47.34702" lon="4.98705">
        <ele>376.60000610352</ele>
        <time>2014-11-15T08:49:52.000Z</time>
      </trkpt>
      <trkpt lat="47.34701" lon="4.98709">
        <ele>376.39999389648</ele>
        <time>2014-11-15T08:49:57.000Z</time>
      </trkpt>
      <trkpt lat="47.34699" lon="4.98715">
        <ele>376</ele>
        <time>2014-11-15T08:50:01.000Z</time>
      </trkpt>
      <trkpt lat="47.34695" lon="4.98723">
        <ele>375.20001220703</ele>
        <time>2014-11-15T08:50:06.000Z</time>
      </trkpt>
      <trkpt lat="47.34687" lon="4.98732">
        <ele>374</ele>
        <time>2014-11-15T08:50:14.000Z</time>
      </trkpt>
      <trkpt lat="47.34681" lon="4.98746">
        <ele>373.60000610352</ele>
        <time>2014-11-15T08:50:22.000Z</time>
      </trkpt>
      <trkpt lat="47.34675" lon="4.9876">
        <ele>373.39999389648</ele>
        <time>2014-11-15T08:50:29.000Z</time>
      </trkpt>
      <trkpt lat="47.3467" lon="4.98775">
        <ele>373.20001220703</ele>
        <time>2014-11-15T08:50:37.000Z</time>
      </trkpt>
      <trkpt lat="47.3467" lon="4.98782">
        <ele>373.39999389648</ele>
        <time>2014-11-15T08:50:41.000Z</time>
      </trkpt>
      <trkpt lat="47.34665" lon="4.98794">
        <ele>373.20001220703</ele>
        <time>2014-11-15T08:50:48.000Z</time>
      </trkpt>
      <trkpt lat="47.34661" lon="4.98806">
        <ele>373.20001220703</ele>
        <time>2014-11-15T08:50:54.000Z</time>
      </trkpt>
      <trkpt lat="47.34658" lon="4.98824">
        <ele>373.39999389648</ele>
        <time>2014-11-15T08:51:03.000Z</time>
      </trkpt>
      <trkpt lat="47.34654" lon="4.98838">
        <ele>373.39999389648</ele>
        <time>2014-11-15T08:51:10.000Z</time>
      </trkpt>
      <trkpt lat="47.34651" lon="4.98846">
        <ele>373.20001220703</ele>
        <time>2014-11-15T08:51:14.000Z</time>
      </trkpt>
      <trkpt lat="47.34645" lon="4.98858">
        <ele>372.60000610352</ele>
        <time>2014-11-15T08:51:21.000Z</time>
      </trkpt>
      <trkpt lat="47.34644" lon="4.9886">
        <ele>372.60000610352</ele>
        <time>2014-11-15T08:51:22.000Z</time>
      </trkpt>
      <trkpt lat="47.34639" lon="4.98873">
        <ele>372</ele>
        <time>2014-11-15T08:51:29.000Z</time>
      </trkpt>
      <trkpt lat="47.34632" lon="4.98887">
        <ele>371</ele>
        <time>2014-11-15T08:51:36.000Z</time>
      </trkpt>
      <trkpt lat="47.34625" lon="4.98901">
        <ele>370</ele>
        <time>2014-11-15T08:51:43.000Z</time>
      </trkpt>
      <trkpt lat="47.34617" lon="4.98917">
        <ele>369.39999389648</ele>
        <time>2014-11-15T08:51:51.000Z</time>
      </trkpt>
      <trkpt lat="47.34612" lon="4.98927">
        <ele>369.79998779297</ele>
        <time>2014-11-15T08:51:57.000Z</time>
      </trkpt>
      <trkpt lat="47.34611" lon="4.98931">
        <ele>370</ele>
        <time>2014-11-15T08:51:59.000Z</time>
      </trkpt>
      <trkpt lat="47.34603" lon="4.98948">
        <ele>370.79998779297</ele>
        <time>2014-11-15T08:52:09.000Z</time>
      </trkpt>
      <trkpt lat="47.34596" lon="4.98959">
        <ele>370.79998779297</ele>
        <time>2014-11-15T08:52:16.000Z</time>
      </trkpt>
      <trkpt lat="47.34591" lon="4.98973">
        <ele>370.39999389648</ele>
        <time>2014-11-15T08:52:24.000Z</time>
      </trkpt>
      <trkpt lat="47.34585" lon="4.9898">
        <ele>371</ele>
        <time>2014-11-15T08:52:30.000Z</time>
      </trkpt>
      <trkpt lat="47.34585" lon="4.98981">
        <ele>371</ele>
        <time>2014-11-15T08:52:31.000Z</time>
      </trkpt>
      <trkpt lat="47.34582" lon="4.98984">
        <ele>371.20001220703</ele>
        <time>2014-11-15T08:52:37.000Z</time>
      </trkpt>
      <trkpt lat="47.34582" lon="4.98985">
        <ele>371.20001220703</ele>
        <time>2014-11-15T08:52:47.000Z</time>
      </trkpt>
      <trkpt lat="47.34579" lon="4.98988">
        <ele>371</ele>
        <time>2014-11-15T08:52:51.000Z</time>
      </trkpt>
      <trkpt lat="47.34575" lon="4.98997">
        <ele>370.79998779297</ele>
        <time>2014-11-15T08:52:57.000Z</time>
      </trkpt>
      <trkpt lat="47.34574" lon="4.98999">
        <ele>370.79998779297</ele>
        <time>2014-11-15T08:52:59.000Z</time>
      </trkpt>
      <trkpt lat="47.3457" lon="4.99007">
        <ele>370.20001220703</ele>
        <time>2014-11-15T08:53:05.000Z</time>
      </trkpt>
      <trkpt lat="47.34569" lon="4.99008">
        <ele>370.20001220703</ele>
        <time>2014-11-15T08:53:06.000Z</time>
      </trkpt>
      <trkpt lat="47.34568" lon="4.99012">
        <ele>370.39999389648</ele>
        <time>2014-11-15T08:53:08.000Z</time>
      </trkpt>
      <trkpt lat="47.34567" lon="4.99021">
        <ele>370.79998779297</ele>
        <time>2014-11-15T08:53:13.000Z</time>
      </trkpt>
      <trkpt lat="47.34566" lon="4.99029">
        <ele>371.20001220703</ele>
        <time>2014-11-15T08:53:18.000Z</time>
      </trkpt>
      <trkpt lat="47.34566" lon="4.99033">
        <ele>371.20001220703</ele>
        <time>2014-11-15T08:53:21.000Z</time>
      </trkpt>
      <trkpt lat="47.34564" lon="4.9904">
        <ele>371</ele>
        <time>2014-11-15T08:53:25.000Z</time>
      </trkpt>
      <trkpt lat="47.34564" lon="4.99047">
        <ele>371.20001220703</ele>
        <time>2014-11-15T08:53:29.000Z</time>
      </trkpt>
      <trkpt lat="47.34563" lon="4.99058">
        <ele>370.79998779297</ele>
        <time>2014-11-15T08:53:34.000Z</time>
      </trkpt>
      <trkpt lat="47.3456" lon="4.99069">
        <ele>369.60000610352</ele>
        <time>2014-11-15T08:53:40.000Z</time>
      </trkpt>
      <trkpt lat="47.34557" lon="4.99077">
        <ele>368.60000610352</ele>
        <time>2014-11-15T08:53:45.000Z</time>
      </trkpt>
      <trkpt lat="47.34556" lon="4.99082">
        <ele>368.39999389648</ele>
        <time>2014-11-15T08:53:48.000Z</time>
      </trkpt>
      <trkpt lat="47.34556" lon="4.99086">
        <ele>368.39999389648</ele>
        <time>2014-11-15T08:53:50.000Z</time>
      </trkpt>
      <trkpt lat="47.34556" lon="4.99087">
        <ele>368.20001220703</ele>
        <time>2014-11-15T08:53:51.000Z</time>
      </trkpt>
      <trkpt lat="47.34552" lon="4.99096">
        <ele>367</ele>
        <time>2014-11-15T08:53:57.000Z</time>
      </trkpt>
      <trkpt lat="47.34547" lon="4.99103">
        <ele>365.60000610352</ele>
        <time>2014-11-15T08:54:01.000Z</time>
      </trkpt>
      <trkpt lat="47.34542" lon="4.99115">
        <ele>364.39999389648</ele>
        <time>2014-11-15T08:54:08.000Z</time>
      </trkpt>
      <trkpt lat="47.34539" lon="4.99122">
        <ele>363.39999389648</ele>
        <time>2014-11-15T08:54:12.000Z</time>
      </trkpt>
      <trkpt lat="47.34536" lon="4.99131">
        <ele>362.39999389648</ele>
        <time>2014-11-15T08:54:16.000Z</time>
      </trkpt>
      <trkpt lat="47.34535" lon="4.9914">
        <ele>361.79998779297</ele>
        <time>2014-11-15T08:54:21.000Z</time>
      </trkpt>
      <trkpt lat="47.34535" lon="4.99142">
        <ele>361.60000610352</ele>
        <time>2014-11-15T08:54:22.000Z</time>
      </trkpt>
      <trkpt lat="47.34534" lon="4.99145">
        <ele>361.39999389648</ele>
        <time>2014-11-15T08:54:24.000Z</time>
      </trkpt>
      <trkpt lat="47.34528" lon="4.99159">
        <ele>359.39999389648</ele>
        <time>2014-11-15T08:54:31.000Z</time>
      </trkpt>
      <trkpt lat="47.34525" lon="4.99168">
        <ele>358.79998779297</ele>
        <time>2014-11-15T08:54:35.000Z</time>
      </trkpt>
      <trkpt lat="47.34524" lon="4.99173">
        <ele>358.60000610352</ele>
        <time>2014-11-15T08:54:37.000Z</time>
      </trkpt>
      <trkpt lat="47.3452" lon="4.99187">
        <ele>358</ele>
        <time>2014-11-15T08:54:43.000Z</time>
      </trkpt>
      <trkpt lat="47.34521" lon="4.9919">
        <ele>358.20001220703</ele>
        <time>2014-11-15T08:54:44.000Z</time>
      </trkpt>
      <trkpt lat="47.34519" lon="4.99198">
        <ele>357.79998779297</ele>
        <time>2014-11-15T08:54:48.000Z</time>
      </trkpt>
      <trkpt lat="47.34513" lon="4.99209">
        <ele>356.39999389648</ele>
        <time>2014-11-15T08:54:53.000Z</time>
      </trkpt>
      <trkpt lat="47.34505" lon="4.99215">
        <ele>354.39999389648</ele>
        <time>2014-11-15T08:54:59.000Z</time>
      </trkpt>
      <trkpt lat="47.345" lon="4.99218">
        <ele>353.79998779297</ele>
        <time>2014-11-15T08:55:03.000Z</time>
      </trkpt>
      <trkpt lat="47.34498" lon="4.99218">
        <ele>353.60000610352</ele>
        <time>2014-11-15T08:55:05.000Z</time>
      </trkpt>
      <trkpt lat="47.34492" lon="4.99218">
        <ele>352.60000610352</ele>
        <time>2014-11-15T08:55:10.000Z</time>
      </trkpt>
      <trkpt lat="47.34482" lon="4.99218">
        <ele>351.20001220703</ele>
        <time>2014-11-15T08:55:16.000Z</time>
      </trkpt>
      <trkpt lat="47.34474" lon="4.99221">
        <ele>350.20001220703</ele>
        <time>2014-11-15T08:55:22.000Z</time>
      </trkpt>
      <trkpt lat="47.34468" lon="4.99225">
        <ele>349.60000610352</ele>
        <time>2014-11-15T08:55:26.000Z</time>
      </trkpt>
      <trkpt lat="47.34452" lon="4.99236">
        <ele>347.79998779297</ele>
        <time>2014-11-15T08:55:46.000Z</time>
      </trkpt>
      <trkpt lat="47.34449" lon="4.99238">
        <ele>347.39999389648</ele>
        <time>2014-11-15T08:55:52.000Z</time>
      </trkpt>
      <trkpt lat="47.34448" lon="4.99238">
        <ele>347.39999389648</ele>
        <time>2014-11-15T08:55:59.000Z</time>
      </trkpt>
      <trkpt lat="47.34445" lon="4.9924">
        <ele>347</ele>
        <time>2014-11-15T08:56:30.000Z</time>
      </trkpt>
      <trkpt lat="47.34445" lon="4.99237">
        <ele>346.79998779297</ele>
        <time>2014-11-15T08:56:38.000Z</time>
      </trkpt>
      <trkpt lat="47.34446" lon="4.99233">
        <ele>346.79998779297</ele>
        <time>2014-11-15T08:56:41.000Z</time>
      </trkpt>
      <trkpt lat="47.34448" lon="4.99222">
        <ele>346.60000610352</ele>
        <time>2014-11-15T08:56:48.000Z</time>
      </trkpt>
      <trkpt lat="47.34451" lon="4.9921">
        <ele>346.39999389648</ele>
        <time>2014-11-15T08:56:56.000Z</time>
      </trkpt>
      <trkpt lat="47.34454" lon="4.99198">
        <ele>346.20001220703</ele>
        <time>2014-11-15T08:57:03.000Z</time>
      </trkpt>
      <trkpt lat="47.34459" lon="4.99178">
        <ele>346</ele>
        <time>2014-11-15T08:57:13.000Z</time>
      </trkpt>
      <trkpt lat="47.34461" lon="4.99165">
        <ele>346</ele>
        <time>2014-11-15T08:57:19.000Z</time>
      </trkpt>
      <trkpt lat="47.34464" lon="4.99151">
        <ele>346.39999389648</ele>
        <time>2014-11-15T08:57:26.000Z</time>
      </trkpt>
      <trkpt lat="47.34464" lon="4.99139">
        <ele>346.20001220703</ele>
        <time>2014-11-15T08:57:33.000Z</time>
      </trkpt>
      <trkpt lat="47.34464" lon="4.99132">
        <ele>346</ele>
        <time>2014-11-15T08:57:38.000Z</time>
      </trkpt>
      <trkpt lat="47.34464" lon="4.99123">
        <ele>346</ele>
        <time>2014-11-15T08:57:43.000Z</time>
      </trkpt>
      <trkpt lat="47.34464" lon="4.99117">
        <ele>346.20001220703</ele>
        <time>2014-11-15T08:57:46.000Z</time>
      </trkpt>
      <trkpt lat="47.34466" lon="4.99098">
        <ele>346.60000610352</ele>
        <time>2014-11-15T08:57:54.000Z</time>
      </trkpt>
      <trkpt lat="47.34466" lon="4.99096">
        <ele>346.60000610352</ele>
        <time>2014-11-15T08:57:55.000Z</time>
      </trkpt>
      <trkpt lat="47.34468" lon="4.99082">
        <ele>347</ele>
        <time>2014-11-15T08:58:02.000Z</time>
      </trkpt>
      <trkpt lat="47.34469" lon="4.99066">
        <ele>347.20001220703</ele>
        <time>2014-11-15T08:58:09.000Z</time>
      </trkpt>
      <trkpt lat="47.34472" lon="4.99043">
        <ele>347.79998779297</ele>
        <time>2014-11-15T08:58:19.000Z</time>
      </trkpt>
      <trkpt lat="47.34475" lon="4.99024">
        <ele>348.20001220703</ele>
        <time>2014-11-15T08:58:28.000Z</time>
      </trkpt>
      <trkpt lat="47.34478" lon="4.99006">
        <ele>348</ele>
        <time>2014-11-15T08:58:36.000Z</time>
      </trkpt>
      <trkpt lat="47.34481" lon="4.98985">
        <ele>347.39999389648</ele>
        <time>2014-11-15T08:58:45.000Z</time>
      </trkpt>
      <trkpt lat="47.34485" lon="4.98971">
        <ele>347.20001220703</ele>
        <time>2014-11-15T08:58:51.000Z</time>
      </trkpt>
      <trkpt lat="47.34488" lon="4.98953">
        <ele>347</ele>
        <time>2014-11-15T08:58:59.000Z</time>
      </trkpt>
      <trkpt lat="47.34495" lon="4.98927">
        <ele>347.39999389648</ele>
        <time>2014-11-15T08:59:11.000Z</time>
      </trkpt>
      <trkpt lat="47.34498" lon="4.98914">
        <ele>347.60000610352</ele>
        <time>2014-11-15T08:59:17.000Z</time>
      </trkpt>
      <trkpt lat="47.34502" lon="4.98899">
        <ele>348.39999389648</ele>
        <time>2014-11-15T08:59:24.000Z</time>
      </trkpt>
      <trkpt lat="47.34507" lon="4.98877">
        <ele>348.79998779297</ele>
        <time>2014-11-15T08:59:34.000Z</time>
      </trkpt>
      <trkpt lat="47.34511" lon="4.98859">
        <ele>349.20001220703</ele>
        <time>2014-11-15T08:59:42.000Z</time>
      </trkpt>
      <trkpt lat="47.34517" lon="4.98845">
        <ele>349.79998779297</ele>
        <time>2014-11-15T08:59:49.000Z</time>
      </trkpt>
      <trkpt lat="47.34523" lon="4.98826">
        <ele>350.60000610352</ele>
        <time>2014-11-15T08:59:58.000Z</time>
      </trkpt>
      <trkpt lat="47.34528" lon="4.98811">
        <ele>351</ele>
        <time>2014-11-15T09:00:05.000Z</time>
      </trkpt>
      <trkpt lat="47.34533" lon="4.98794">
        <ele>351.20001220703</ele>
        <time>2014-11-15T09:00:13.000Z</time>
      </trkpt>
      <trkpt lat="47.34538" lon="4.98773">
        <ele>352.39999389648</ele>
        <time>2014-11-15T09:00:22.000Z</time>
      </trkpt>
      <trkpt lat="47.34542" lon="4.98758">
        <ele>353.60000610352</ele>
        <time>2014-11-15T09:00:29.000Z</time>
      </trkpt>
      <trkpt lat="47.34545" lon="4.98746">
        <ele>354.20001220703</ele>
        <time>2014-11-15T09:00:35.000Z</time>
      </trkpt>
      <trkpt lat="47.34547" lon="4.98733">
        <ele>354.60000610352</ele>
        <time>2014-11-15T09:00:41.000Z</time>
      </trkpt>
      <trkpt lat="47.3455" lon="4.9872">
        <ele>355.20001220703</ele>
        <time>2014-11-15T09:00:47.000Z</time>
      </trkpt>
      <trkpt lat="47.34553" lon="4.98704">
        <ele>355.79998779297</ele>
        <time>2014-11-15T09:00:54.000Z</time>
      </trkpt>
      <trkpt lat="47.34554" lon="4.98701">
        <ele>356</ele>
        <time>2014-11-15T09:00:55.000Z</time>
      </trkpt>
      <trkpt lat="47.34555" lon="4.98693">
        <ele>356.39999389648</ele>
        <time>2014-11-15T09:00:59.000Z</time>
      </trkpt>
      <trkpt lat="47.34558" lon="4.98671">
        <ele>356.79998779297</ele>
        <time>2014-11-15T09:01:09.000Z</time>
      </trkpt>
      <trkpt lat="47.34561" lon="4.98651">
        <ele>357.20001220703</ele>
        <time>2014-11-15T09:01:18.000Z</time>
      </trkpt>
      <trkpt lat="47.34565" lon="4.98629">
        <ele>357.60000610352</ele>
        <time>2014-11-15T09:01:28.000Z</time>
      </trkpt>
      <trkpt lat="47.34568" lon="4.98614">
        <ele>358.60000610352</ele>
        <time>2014-11-15T09:01:35.000Z</time>
      </trkpt>
      <trkpt lat="47.34572" lon="4.98593">
        <ele>359.79998779297</ele>
        <time>2014-11-15T09:01:45.000Z</time>
      </trkpt>
      <trkpt lat="47.34575" lon="4.98571">
        <ele>361.20001220703</ele>
        <time>2014-11-15T09:01:55.000Z</time>
      </trkpt>
      <trkpt lat="47.34575" lon="4.98555">
        <ele>362</ele>
        <time>2014-11-15T09:02:02.000Z</time>
      </trkpt>
      <trkpt lat="47.34568" lon="4.98541">
        <ele>362</ele>
        <time>2014-11-15T09:02:09.000Z</time>
      </trkpt>
      <trkpt lat="47.34559" lon="4.98538">
        <ele>361.60000610352</ele>
        <time>2014-11-15T09:02:14.000Z</time>
      </trkpt>
      <trkpt lat="47.34547" lon="4.98533">
        <ele>360.79998779297</ele>
        <time>2014-11-15T09:02:21.000Z</time>
      </trkpt>
      <trkpt lat="47.34537" lon="4.98529">
        <ele>360.20001220703</ele>
        <time>2014-11-15T09:02:27.000Z</time>
      </trkpt>
      <trkpt lat="47.3452" lon="4.98522">
        <ele>359</ele>
        <time>2014-11-15T09:02:38.000Z</time>
      </trkpt>
      <trkpt lat="47.34511" lon="4.98518">
        <ele>358.60000610352</ele>
        <time>2014-11-15T09:02:44.000Z</time>
      </trkpt>
      <trkpt lat="47.34496" lon="4.98512">
        <ele>357.60000610352</ele>
        <time>2014-11-15T09:02:53.000Z</time>
      </trkpt>
      <trkpt lat="47.34483" lon="4.98508">
        <ele>357.20001220703</ele>
        <time>2014-11-15T09:03:01.000Z</time>
      </trkpt>
      <trkpt lat="47.34467" lon="4.98503">
        <ele>356.79998779297</ele>
        <time>2014-11-15T09:03:11.000Z</time>
      </trkpt>
      <trkpt lat="47.34457" lon="4.98499">
        <ele>356.60000610352</ele>
        <time>2014-11-15T09:03:18.000Z</time>
      </trkpt>
      <trkpt lat="47.34445" lon="4.98491">
        <ele>356.39999389648</ele>
        <time>2014-11-15T09:03:26.000Z</time>
      </trkpt>
      <trkpt lat="47.34434" lon="4.98482">
        <ele>356</ele>
        <time>2014-11-15T09:03:34.000Z</time>
      </trkpt>
      <trkpt lat="47.34422" lon="4.98473">
        <ele>355.79998779297</ele>
        <time>2014-11-15T09:03:42.000Z</time>
      </trkpt>
      <trkpt lat="47.34413" lon="4.98465">
        <ele>355.79998779297</ele>
        <time>2014-11-15T09:03:49.000Z</time>
      </trkpt>
      <trkpt lat="47.34411" lon="4.98464">
        <ele>355.79998779297</ele>
        <time>2014-11-15T09:03:50.000Z</time>
      </trkpt>
      <trkpt lat="47.34405" lon="4.98453">
        <ele>356</ele>
        <time>2014-11-15T09:03:57.000Z</time>
      </trkpt>
      <trkpt lat="47.34399" lon="4.98442">
        <ele>356</ele>
        <time>2014-11-15T09:04:03.000Z</time>
      </trkpt>
      <trkpt lat="47.34389" lon="4.9843">
        <ele>356</ele>
        <time>2014-11-15T09:04:11.000Z</time>
      </trkpt>
      <trkpt lat="47.34377" lon="4.98423">
        <ele>356</ele>
        <time>2014-11-15T09:04:19.000Z</time>
      </trkpt>
      <trkpt lat="47.34365" lon="4.98416">
        <ele>355.79998779297</ele>
        <time>2014-11-15T09:04:27.000Z</time>
      </trkpt>
      <trkpt lat="47.34339" lon="4.984">
        <ele>355.60000610352</ele>
        <time>2014-11-15T09:04:43.000Z</time>
      </trkpt>
      <trkpt lat="47.34326" lon="4.98392">
        <ele>355.39999389648</ele>
        <time>2014-11-15T09:04:52.000Z</time>
      </trkpt>
      <trkpt lat="47.3432" lon="4.98379">
        <ele>355.60000610352</ele>
        <time>2014-11-15T09:04:59.000Z</time>
      </trkpt>
      <trkpt lat="47.34318" lon="4.98357">
        <ele>356</ele>
        <time>2014-11-15T09:05:08.000Z</time>
      </trkpt>
      <trkpt lat="47.34314" lon="4.98339">
        <ele>356</ele>
        <time>2014-11-15T09:05:17.000Z</time>
      </trkpt>
      <trkpt lat="47.34306" lon="4.98324">
        <ele>356</ele>
        <time>2014-11-15T09:05:25.000Z</time>
      </trkpt>
      <trkpt lat="47.343" lon="4.9831">
        <ele>356</ele>
        <time>2014-11-15T09:05:32.000Z</time>
      </trkpt>
      <trkpt lat="47.34297" lon="4.9829">
        <ele>356.20001220703</ele>
        <time>2014-11-15T09:05:42.000Z</time>
      </trkpt>
      <trkpt lat="47.34295" lon="4.98272">
        <ele>356</ele>
        <time>2014-11-15T09:05:51.000Z</time>
      </trkpt>
      <trkpt lat="47.34296" lon="4.98254">
        <ele>355.79998779297</ele>
        <time>2014-11-15T09:05:59.000Z</time>
      </trkpt>
      <trkpt lat="47.34298" lon="4.98236">
        <ele>356</ele>
        <time>2014-11-15T09:06:07.000Z</time>
      </trkpt>
      <trkpt lat="47.34301" lon="4.9822">
        <ele>356.39999389648</ele>
        <time>2014-11-15T09:06:14.000Z</time>
      </trkpt>
      <trkpt lat="47.34303" lon="4.98214">
        <ele>356.60000610352</ele>
        <time>2014-11-15T09:06:17.000Z</time>
      </trkpt>
      <trkpt lat="47.34305" lon="4.98205">
        <ele>356.79998779297</ele>
        <time>2014-11-15T09:06:21.000Z</time>
      </trkpt>
      <trkpt lat="47.34312" lon="4.98174">
        <ele>357.20001220703</ele>
        <time>2014-11-15T09:06:36.000Z</time>
      </trkpt>
      <trkpt lat="47.34316" lon="4.98158">
        <ele>357.79998779297</ele>
        <time>2014-11-15T09:06:44.000Z</time>
      </trkpt>
      <trkpt lat="47.34318" lon="4.98154">
        <ele>357.79998779297</ele>
        <time>2014-11-15T09:06:46.000Z</time>
      </trkpt>
      <trkpt lat="47.34326" lon="4.98135">
        <ele>358.60000610352</ele>
        <time>2014-11-15T09:06:57.000Z</time>
      </trkpt>
      <trkpt lat="47.34333" lon="4.98119">
        <ele>359</ele>
        <time>2014-11-15T09:07:05.000Z</time>
      </trkpt>
      <trkpt lat="47.34342" lon="4.98099">
        <ele>359.39999389648</ele>
        <time>2014-11-15T09:07:15.000Z</time>
      </trkpt>
      <trkpt lat="47.3435" lon="4.98082">
        <ele>359.60000610352</ele>
        <time>2014-11-15T09:07:24.000Z</time>
      </trkpt>
      <trkpt lat="47.34356" lon="4.98069">
        <ele>360</ele>
        <time>2014-11-15T09:07:31.000Z</time>
      </trkpt>
      <trkpt lat="47.3437" lon="4.98048">
        <ele>361.20001220703</ele>
        <time>2014-11-15T09:07:47.000Z</time>
      </trkpt>
      <trkpt lat="47.34362" lon="4.98036">
        <ele>360.79998779297</ele>
        <time>2014-11-15T09:09:38.000Z</time>
      </trkpt>
      <trkpt lat="47.3435" lon="4.98026">
        <ele>359.79998779297</ele>
        <time>2014-11-15T09:09:47.000Z</time>
      </trkpt>
      <trkpt lat="47.34338" lon="4.98019">
        <ele>358.79998779297</ele>
        <time>2014-11-15T09:09:56.000Z</time>
      </trkpt>
      <trkpt lat="47.34325" lon="4.98014">
        <ele>358</ele>
        <time>2014-11-15T09:10:05.000Z</time>
      </trkpt>
      <trkpt lat="47.34308" lon="4.98009">
        <ele>357.20001220703</ele>
        <time>2014-11-15T09:10:16.000Z</time>
      </trkpt>
      <trkpt lat="47.34297" lon="4.98001">
        <ele>356.39999389648</ele>
        <time>2014-11-15T09:10:24.000Z</time>
      </trkpt>
      <trkpt lat="47.34282" lon="4.9799">
        <ele>355.39999389648</ele>
        <time>2014-11-15T09:10:34.000Z</time>
      </trkpt>
      <trkpt lat="47.34271" lon="4.97982">
        <ele>354.60000610352</ele>
        <time>2014-11-15T09:10:42.000Z</time>
      </trkpt>
      <trkpt lat="47.34259" lon="4.97981">
        <ele>353.60000610352</ele>
        <time>2014-11-15T09:10:50.000Z</time>
      </trkpt>
      <trkpt lat="47.34258" lon="4.97981">
        <ele>353.60000610352</ele>
        <time>2014-11-15T09:10:51.000Z</time>
      </trkpt>
      <trkpt lat="47.3425" lon="4.97972">
        <ele>353</ele>
        <time>2014-11-15T09:10:58.000Z</time>
      </trkpt>
      <trkpt lat="47.34248" lon="4.97964">
        <ele>353</ele>
        <time>2014-11-15T09:11:02.000Z</time>
      </trkpt>
      <trkpt lat="47.34244" lon="4.9796">
        <ele>352.39999389648</ele>
        <time>2014-11-15T09:11:07.000Z</time>
      </trkpt>
      <trkpt lat="47.34241" lon="4.97959">
        <ele>352</ele>
        <time>2014-11-15T09:11:09.000Z</time>
      </trkpt>
      <trkpt lat="47.34235" lon="4.97949">
        <ele>350.60000610352</ele>
        <time>2014-11-15T09:11:16.000Z</time>
      </trkpt>
      <trkpt lat="47.34235" lon="4.97948">
        <ele>350.39999389648</ele>
        <time>2014-11-15T09:11:17.000Z</time>
      </trkpt>
      <trkpt lat="47.34234" lon="4.97947">
        <ele>350.20001220703</ele>
        <time>2014-11-15T09:11:18.000Z</time>
      </trkpt>
      <trkpt lat="47.34232" lon="4.97943">
        <ele>349.79998779297</ele>
        <time>2014-11-15T09:11:21.000Z</time>
      </trkpt>
      <trkpt lat="47.34227" lon="4.97933">
        <ele>348.39999389648</ele>
        <time>2014-11-15T09:11:30.000Z</time>
      </trkpt>
      <trkpt lat="47.34224" lon="4.97929">
        <ele>347.60000610352</ele>
        <time>2014-11-15T09:11:33.000Z</time>
      </trkpt>
      <trkpt lat="47.34221" lon="4.97923">
        <ele>346.60000610352</ele>
        <time>2014-11-15T09:11:41.000Z</time>
      </trkpt>
      <trkpt lat="47.34214" lon="4.97913">
        <ele>345</ele>
        <time>2014-11-15T09:11:49.000Z</time>
      </trkpt>
      <trkpt lat="47.34207" lon="4.979">
        <ele>343.20001220703</ele>
        <time>2014-11-15T09:11:57.000Z</time>
      </trkpt>
      <trkpt lat="47.34203" lon="4.97888">
        <ele>342</ele>
        <time>2014-11-15T09:12:04.000Z</time>
      </trkpt>
      <trkpt lat="47.34204" lon="4.97878">
        <ele>341.39999389648</ele>
        <time>2014-11-15T09:12:10.000Z</time>
      </trkpt>
      <trkpt lat="47.34202" lon="4.97866">
        <ele>340.60000610352</ele>
        <time>2014-11-15T09:12:16.000Z</time>
      </trkpt>
      <trkpt lat="47.34197" lon="4.97852">
        <ele>339.39999389648</ele>
        <time>2014-11-15T09:12:24.000Z</time>
      </trkpt>
      <trkpt lat="47.34196" lon="4.97834">
        <ele>338.60000610352</ele>
        <time>2014-11-15T09:12:32.000Z</time>
      </trkpt>
      <trkpt lat="47.34186" lon="4.97823">
        <ele>336.60000610352</ele>
        <time>2014-11-15T09:12:45.000Z</time>
      </trkpt>
      <trkpt lat="47.34184" lon="4.97822">
        <ele>336.20001220703</ele>
        <time>2014-11-15T09:12:47.000Z</time>
      </trkpt>
      <trkpt lat="47.34179" lon="4.97824">
        <ele>335.39999389648</ele>
        <time>2014-11-15T09:12:53.000Z</time>
      </trkpt>
      <trkpt lat="47.34175" lon="4.97824">
        <ele>334.79998779297</ele>
        <time>2014-11-15T09:12:58.000Z</time>
      </trkpt>
      <trkpt lat="47.34167" lon="4.97823">
        <ele>333.60000610352</ele>
        <time>2014-11-15T09:13:04.000Z</time>
      </trkpt>
      <trkpt lat="47.34162" lon="4.97815">
        <ele>332.60000610352</ele>
        <time>2014-11-15T09:13:09.000Z</time>
      </trkpt>
      <trkpt lat="47.34162" lon="4.978">
        <ele>332</ele>
        <time>2014-11-15T09:13:17.000Z</time>
      </trkpt>
      <trkpt lat="47.34165" lon="4.97786">
        <ele>331.20001220703</ele>
        <time>2014-11-15T09:13:24.000Z</time>
      </trkpt>
      <trkpt lat="47.34161" lon="4.97777">
        <ele>329.79998779297</ele>
        <time>2014-11-15T09:13:29.000Z</time>
      </trkpt>
      <trkpt lat="47.34159" lon="4.97773">
        <ele>329.20001220703</ele>
        <time>2014-11-15T09:13:31.000Z</time>
      </trkpt>
      <trkpt lat="47.34161" lon="4.97757">
        <ele>327.20001220703</ele>
        <time>2014-11-15T09:13:40.000Z</time>
      </trkpt>
      <trkpt lat="47.34162" lon="4.97754">
        <ele>326.79998779297</ele>
        <time>2014-11-15T09:13:42.000Z</time>
      </trkpt>
      <trkpt lat="47.34159" lon="4.97743">
        <ele>325.20001220703</ele>
        <time>2014-11-15T09:13:48.000Z</time>
      </trkpt>
      <trkpt lat="47.34155" lon="4.97734">
        <ele>323.60000610352</ele>
        <time>2014-11-15T09:13:54.000Z</time>
      </trkpt>
      <trkpt lat="47.34148" lon="4.97725">
        <ele>321.79998779297</ele>
        <time>2014-11-15T09:14:01.000Z</time>
      </trkpt>
      <trkpt lat="47.34146" lon="4.97719">
        <ele>320.79998779297</ele>
        <time>2014-11-15T09:14:05.000Z</time>
      </trkpt>
      <trkpt lat="47.34146" lon="4.97717">
        <ele>320.39999389648</ele>
        <time>2014-11-15T09:14:11.000Z</time>
      </trkpt>
      <trkpt lat="47.34146" lon="4.97723">
        <ele>321.20001220703</ele>
        <time>2014-11-15T09:14:19.000Z</time>
      </trkpt>
      <trkpt lat="47.34146" lon="4.97724">
        <ele>321.39999389648</ele>
        <time>2014-11-15T09:14:20.000Z</time>
      </trkpt>
      <trkpt lat="47.34145" lon="4.97725">
        <ele>321.39999389648</ele>
        <time>2014-11-15T09:14:28.000Z</time>
      </trkpt>
      <trkpt lat="47.34145" lon="4.97717">
        <ele>320.39999389648</ele>
        <time>2014-11-15T09:14:44.000Z</time>
      </trkpt>
      <trkpt lat="47.34145" lon="4.97717">
        <ele>320.39999389648</ele>
        <time>2014-11-15T09:14:45.000Z</time>
      </trkpt>
      <trkpt lat="47.34137" lon="4.97709">
        <ele>318.60000610352</ele>
        <time>2014-11-15T09:14:51.000Z</time>
      </trkpt>
      <trkpt lat="47.34129" lon="4.97703">
        <ele>316.60000610352</ele>
        <time>2014-11-15T09:14:56.000Z</time>
      </trkpt>
      <trkpt lat="47.3412" lon="4.97698">
        <ele>314.60000610352</ele>
        <time>2014-11-15T09:15:02.000Z</time>
      </trkpt>
      <trkpt lat="47.34111" lon="4.97694">
        <ele>312.79998779297</ele>
        <time>2014-11-15T09:15:07.000Z</time>
      </trkpt>
      <trkpt lat="47.34098" lon="4.97687">
        <ele>309.79998779297</ele>
        <time>2014-11-15T09:15:14.000Z</time>
      </trkpt>
      <trkpt lat="47.34085" lon="4.97681">
        <ele>307.20001220703</ele>
        <time>2014-11-15T09:15:20.000Z</time>
      </trkpt>
      <trkpt lat="47.34074" lon="4.97675">
        <ele>304.39999389648</ele>
        <time>2014-11-15T09:15:26.000Z</time>
      </trkpt>
      <trkpt lat="47.3406" lon="4.97676">
        <ele>302</ele>
        <time>2014-11-15T09:15:35.000Z</time>
      </trkpt>
      <trkpt lat="47.34049" lon="4.97676">
        <ele>300</ele>
        <time>2014-11-15T09:15:43.000Z</time>
      </trkpt>
      <trkpt lat="47.34043" lon="4.97675">
        <ele>298.39999389648</ele>
        <time>2014-11-15T09:15:49.000Z</time>
      </trkpt>
      <trkpt lat="47.34034" lon="4.97679">
        <ele>296.60000610352</ele>
        <time>2014-11-15T09:15:57.000Z</time>
      </trkpt>
      <trkpt lat="47.34031" lon="4.97687">
        <ele>296.79998779297</ele>
        <time>2014-11-15T09:16:04.000Z</time>
      </trkpt>
      <trkpt lat="47.34027" lon="4.97699">
        <ele>297.39999389648</ele>
        <time>2014-11-15T09:16:14.000Z</time>
      </trkpt>
      <trkpt lat="47.34024" lon="4.97712">
        <ele>298.20001220703</ele>
        <time>2014-11-15T09:16:21.000Z</time>
      </trkpt>
      <trkpt lat="47.34021" lon="4.97726">
        <ele>298.60000610352</ele>
        <time>2014-11-15T09:16:28.000Z</time>
      </trkpt>
      <trkpt lat="47.3402" lon="4.97742">
        <ele>299.60000610352</ele>
        <time>2014-11-15T09:16:36.000Z</time>
      </trkpt>
      <trkpt lat="47.34021" lon="4.97754">
        <ele>300.39999389648</ele>
        <time>2014-11-15T09:16:42.000Z</time>
      </trkpt>
      <trkpt lat="47.34021" lon="4.97765">
        <ele>301.20001220703</ele>
        <time>2014-11-15T09:16:49.000Z</time>
      </trkpt>
      <trkpt lat="47.34022" lon="4.97778">
        <ele>302.60000610352</ele>
        <time>2014-11-15T09:16:55.000Z</time>
      </trkpt>
      <trkpt lat="47.34025" lon="4.97791">
        <ele>304.39999389648</ele>
        <time>2014-11-15T09:17:02.000Z</time>
      </trkpt>
      <trkpt lat="47.34028" lon="4.97797">
        <ele>305</ele>
        <time>2014-11-15T09:17:06.000Z</time>
      </trkpt>
      <trkpt lat="47.34029" lon="4.97808">
        <ele>304.79998779297</ele>
        <time>2014-11-15T09:17:14.000Z</time>
      </trkpt>
      <trkpt lat="47.34029" lon="4.97815">
        <ele>304.79998779297</ele>
        <time>2014-11-15T09:17:20.000Z</time>
      </trkpt>
      <trkpt lat="47.34027" lon="4.97819">
        <ele>304.20001220703</ele>
        <time>2014-11-15T09:17:25.000Z</time>
      </trkpt>
      <trkpt lat="47.34023" lon="4.97824">
        <ele>303.39999389648</ele>
        <time>2014-11-15T09:17:32.000Z</time>
      </trkpt>
      <trkpt lat="47.34021" lon="4.97827">
        <ele>303</ele>
        <time>2014-11-15T09:17:34.000Z</time>
      </trkpt>
      <trkpt lat="47.34018" lon="4.97836">
        <ele>302.79998779297</ele>
        <time>2014-11-15T09:17:41.000Z</time>
      </trkpt>
      <trkpt lat="47.34018" lon="4.97837">
        <ele>302.79998779297</ele>
        <time>2014-11-15T09:17:42.000Z</time>
      </trkpt>
      <trkpt lat="47.34013" lon="4.97843">
        <ele>302.20001220703</ele>
        <time>2014-11-15T09:17:49.000Z</time>
      </trkpt>
      <trkpt lat="47.34007" lon="4.97851">
        <ele>301.20001220703</ele>
        <time>2014-11-15T09:17:57.000Z</time>
      </trkpt>
      <trkpt lat="47.34004" lon="4.97853">
        <ele>300.60000610352</ele>
        <time>2014-11-15T09:18:00.000Z</time>
      </trkpt>
      <trkpt lat="47.33996" lon="4.97861">
        <ele>299.20001220703</ele>
        <time>2014-11-15T09:18:09.000Z</time>
      </trkpt>
      <trkpt lat="47.33992" lon="4.97865">
        <ele>298.39999389648</ele>
        <time>2014-11-15T09:18:14.000Z</time>
      </trkpt>
      <trkpt lat="47.3399" lon="4.97869">
        <ele>298</ele>
        <time>2014-11-15T09:18:18.000Z</time>
      </trkpt>
      <trkpt lat="47.33983" lon="4.97873">
        <ele>297.39999389648</ele>
        <time>2014-11-15T09:18:26.000Z</time>
      </trkpt>
      <trkpt lat="47.33964" lon="4.97879">
        <ele>295.20001220703</ele>
        <time>2014-11-15T09:18:41.000Z</time>
      </trkpt>
      <trkpt lat="47.33956" lon="4.9788">
        <ele>294</ele>
        <time>2014-11-15T09:18:48.000Z</time>
      </trkpt>
      <trkpt lat="47.33949" lon="4.97882">
        <ele>293</ele>
        <time>2014-11-15T09:18:54.000Z</time>
      </trkpt>
      <trkpt lat="47.33944" lon="4.97885">
        <ele>292.60000610352</ele>
        <time>2014-11-15T09:19:00.000Z</time>
      </trkpt>
      <trkpt lat="47.33941" lon="4.97886">
        <ele>292.39999389648</ele>
        <time>2014-11-15T09:19:03.000Z</time>
      </trkpt>
      <trkpt lat="47.33935" lon="4.97893">
        <ele>292.39999389648</ele>
        <time>2014-11-15T09:19:11.000Z</time>
      </trkpt>
      <trkpt lat="47.33931" lon="4.97901">
        <ele>293</ele>
        <time>2014-11-15T09:19:18.000Z</time>
      </trkpt>
      <trkpt lat="47.33926" lon="4.97909">
        <ele>294</ele>
        <time>2014-11-15T09:19:24.000Z</time>
      </trkpt>
      <trkpt lat="47.33925" lon="4.97912">
        <ele>294.20001220703</ele>
        <time>2014-11-15T09:19:26.000Z</time>
      </trkpt>
      <trkpt lat="47.33918" lon="4.97927">
        <ele>296</ele>
        <time>2014-11-15T09:19:35.000Z</time>
      </trkpt>
      <trkpt lat="47.33908" lon="4.97941">
        <ele>296.20001220703</ele>
        <time>2014-11-15T09:19:44.000Z</time>
      </trkpt>
      <trkpt lat="47.33903" lon="4.9795">
        <ele>296.20001220703</ele>
        <time>2014-11-15T09:19:51.000Z</time>
      </trkpt>
      <trkpt lat="47.33901" lon="4.97958">
        <ele>297</ele>
        <time>2014-11-15T09:19:55.000Z</time>
      </trkpt>
      <trkpt lat="47.33896" lon="4.97969">
        <ele>296.20001220703</ele>
        <time>2014-11-15T09:20:02.000Z</time>
      </trkpt>
      <trkpt lat="47.33894" lon="4.97982">
        <ele>296.39999389648</ele>
        <time>2014-11-15T09:20:09.000Z</time>
      </trkpt>
      <trkpt lat="47.33891" lon="4.97992">
        <ele>296.39999389648</ele>
        <time>2014-11-15T09:20:15.000Z</time>
      </trkpt>
      <trkpt lat="47.33892" lon="4.98001">
        <ele>297.39999389648</ele>
        <time>2014-11-15T09:20:19.000Z</time>
      </trkpt>
      <trkpt lat="47.33891" lon="4.98012">
        <ele>297.79998779297</ele>
        <time>2014-11-15T09:20:24.000Z</time>
      </trkpt>
      <trkpt lat="47.3389" lon="4.98027">
        <ele>299</ele>
        <time>2014-11-15T09:20:33.000Z</time>
      </trkpt>
      <trkpt lat="47.33893" lon="4.9804">
        <ele>301</ele>
        <time>2014-11-15T09:20:42.000Z</time>
      </trkpt>
      <trkpt lat="47.33894" lon="4.98048">
        <ele>301.39999389648</ele>
        <time>2014-11-15T09:20:46.000Z</time>
      </trkpt>
      <trkpt lat="47.33895" lon="4.98054">
        <ele>301.79998779297</ele>
        <time>2014-11-15T09:20:50.000Z</time>
      </trkpt>
      <trkpt lat="47.33895" lon="4.98068">
        <ele>301.79998779297</ele>
        <time>2014-11-15T09:20:57.000Z</time>
      </trkpt>
      <trkpt lat="47.33896" lon="4.98075">
        <ele>302.20001220703</ele>
        <time>2014-11-15T09:21:00.000Z</time>
      </trkpt>
      <trkpt lat="47.33898" lon="4.98081">
        <ele>302.60000610352</ele>
        <time>2014-11-15T09:21:03.000Z</time>
      </trkpt>
      <trkpt lat="47.33902" lon="4.98091">
        <ele>303.60000610352</ele>
        <time>2014-11-15T09:21:08.000Z</time>
      </trkpt>
      <trkpt lat="47.33907" lon="4.98101">
        <ele>305.20001220703</ele>
        <time>2014-11-15T09:21:15.000Z</time>
      </trkpt>
      <trkpt lat="47.33906" lon="4.98109">
        <ele>305</ele>
        <time>2014-11-15T09:21:19.000Z</time>
      </trkpt>
      <trkpt lat="47.33904" lon="4.98116">
        <ele>304.39999389648</ele>
        <time>2014-11-15T09:21:23.000Z</time>
      </trkpt>
      <trkpt lat="47.33905" lon="4.98125">
        <ele>304.60000610352</ele>
        <time>2014-11-15T09:21:28.000Z</time>
      </trkpt>
      <trkpt lat="47.33913" lon="4.98138">
        <ele>306</ele>
        <time>2014-11-15T09:21:37.000Z</time>
      </trkpt>
      <trkpt lat="47.33919" lon="4.98153">
        <ele>307</ele>
        <time>2014-11-15T09:21:45.000Z</time>
      </trkpt>
      <trkpt lat="47.33923" lon="4.98166">
        <ele>307.39999389648</ele>
        <time>2014-11-15T09:21:52.000Z</time>
      </trkpt>
      <trkpt lat="47.3393" lon="4.9818">
        <ele>308.79998779297</ele>
        <time>2014-11-15T09:22:00.000Z</time>
      </trkpt>
      <trkpt lat="47.33937" lon="4.98194">
        <ele>310.39999389648</ele>
        <time>2014-11-15T09:22:09.000Z</time>
      </trkpt>
      <trkpt lat="47.33939" lon="4.98199">
        <ele>310.79998779297</ele>
        <time>2014-11-15T09:22:12.000Z</time>
      </trkpt>
      <trkpt lat="47.33942" lon="4.9821">
        <ele>311</ele>
        <time>2014-11-15T09:22:18.000Z</time>
      </trkpt>
      <trkpt lat="47.33944" lon="4.98216">
        <ele>311.39999389648</ele>
        <time>2014-11-15T09:22:21.000Z</time>
      </trkpt>
      <trkpt lat="47.3395" lon="4.98238">
        <ele>312.79998779297</ele>
        <time>2014-11-15T09:22:36.000Z</time>
      </trkpt>
      <trkpt lat="47.33952" lon="4.98247">
        <ele>313.39999389648</ele>
        <time>2014-11-15T09:22:43.000Z</time>
      </trkpt>
      <trkpt lat="47.33951" lon="4.98255">
        <ele>313.39999389648</ele>
        <time>2014-11-15T09:22:49.000Z</time>
      </trkpt>
      <trkpt lat="47.33948" lon="4.98263">
        <ele>312.60000610352</ele>
        <time>2014-11-15T09:22:55.000Z</time>
      </trkpt>
      <trkpt lat="47.33945" lon="4.98268">
        <ele>311.79998779297</ele>
        <time>2014-11-15T09:23:00.000Z</time>
      </trkpt>
      <trkpt lat="47.33937" lon="4.98277">
        <ele>310</ele>
        <time>2014-11-15T09:23:08.000Z</time>
      </trkpt>
      <trkpt lat="47.33934" lon="4.98288">
        <ele>309.20001220703</ele>
        <time>2014-11-15T09:23:15.000Z</time>
      </trkpt>
      <trkpt lat="47.33934" lon="4.98301">
        <ele>309.39999389648</ele>
        <time>2014-11-15T09:23:22.000Z</time>
      </trkpt>
      <trkpt lat="47.33933" lon="4.98319">
        <ele>309.60000610352</ele>
        <time>2014-11-15T09:23:31.000Z</time>
      </trkpt>
      <trkpt lat="47.33933" lon="4.98339">
        <ele>310.39999389648</ele>
        <time>2014-11-15T09:23:40.000Z</time>
      </trkpt>
      <trkpt lat="47.33933" lon="4.98354">
        <ele>310.79998779297</ele>
        <time>2014-11-15T09:23:47.000Z</time>
      </trkpt>
      <trkpt lat="47.33934" lon="4.98369">
        <ele>311.60000610352</ele>
        <time>2014-11-15T09:23:54.000Z</time>
      </trkpt>
      <trkpt lat="47.33936" lon="4.9838">
        <ele>312</ele>
        <time>2014-11-15T09:23:59.000Z</time>
      </trkpt>
      <trkpt lat="47.33942" lon="4.98397">
        <ele>312.79998779297</ele>
        <time>2014-11-15T09:24:07.000Z</time>
      </trkpt>
      <trkpt lat="47.33948" lon="4.98411">
        <ele>313.79998779297</ele>
        <time>2014-11-15T09:24:14.000Z</time>
      </trkpt>
      <trkpt lat="47.33956" lon="4.98426">
        <ele>315.20001220703</ele>
        <time>2014-11-15T09:24:22.000Z</time>
      </trkpt>
      <trkpt lat="47.33964" lon="4.98434">
        <ele>317</ele>
        <time>2014-11-15T09:24:29.000Z</time>
      </trkpt>
      <trkpt lat="47.33971" lon="4.98446">
        <ele>318.20001220703</ele>
        <time>2014-11-15T09:24:37.000Z</time>
      </trkpt>
      <trkpt lat="47.3398" lon="4.98457">
        <ele>319.79998779297</ele>
        <time>2014-11-15T09:24:46.000Z</time>
      </trkpt>
      <trkpt lat="47.33985" lon="4.98464">
        <ele>319.79998779297</ele>
        <time>2014-11-15T09:24:53.000Z</time>
      </trkpt>
      <trkpt lat="47.33988" lon="4.98469">
        <ele>319.39999389648</ele>
        <time>2014-11-15T09:24:56.000Z</time>
      </trkpt>
      <trkpt lat="47.33999" lon="4.9848">
        <ele>319.60000610352</ele>
        <time>2014-11-15T09:25:06.000Z</time>
      </trkpt>
      <trkpt lat="47.34006" lon="4.98486">
        <ele>320</ele>
        <time>2014-11-15T09:25:12.000Z</time>
      </trkpt>
      <trkpt lat="47.34014" lon="4.98497">
        <ele>319.39999389648</ele>
        <time>2014-11-15T09:25:20.000Z</time>
      </trkpt>
      <trkpt lat="47.34019" lon="4.98502">
        <ele>319.39999389648</ele>
        <time>2014-11-15T09:25:26.000Z</time>
      </trkpt>
      <trkpt lat="47.34024" lon="4.98508">
        <ele>319.20001220703</ele>
        <time>2014-11-15T09:25:32.000Z</time>
      </trkpt>
      <trkpt lat="47.34029" lon="4.9851">
        <ele>320</ele>
        <time>2014-11-15T09:25:36.000Z</time>
      </trkpt>
      <trkpt lat="47.34036" lon="4.98516">
        <ele>320.39999389648</ele>
        <time>2014-11-15T09:25:43.000Z</time>
      </trkpt>
      <trkpt lat="47.34037" lon="4.98516">
        <ele>320.60000610352</ele>
        <time>2014-11-15T09:25:44.000Z</time>
      </trkpt>
      <trkpt lat="47.3404" lon="4.98518">
        <ele>320.60000610352</ele>
        <time>2014-11-15T09:25:46.000Z</time>
      </trkpt>
      <trkpt lat="47.34047" lon="4.98523">
        <ele>321.39999389648</ele>
        <time>2014-11-15T09:25:53.000Z</time>
      </trkpt>
      <trkpt lat="47.34053" lon="4.98529">
        <ele>321.39999389648</ele>
        <time>2014-11-15T09:25:59.000Z</time>
      </trkpt>
      <trkpt lat="47.34061" lon="4.98538">
        <ele>321.39999389648</ele>
        <time>2014-11-15T09:26:07.000Z</time>
      </trkpt>
      <trkpt lat="47.34071" lon="4.98543">
        <ele>322.20001220703</ele>
        <time>2014-11-15T09:26:14.000Z</time>
      </trkpt>
      <trkpt lat="47.34079" lon="4.98549">
        <ele>322.39999389648</ele>
        <time>2014-11-15T09:26:21.000Z</time>
      </trkpt>
      <trkpt lat="47.34087" lon="4.98556">
        <ele>321.79998779297</ele>
        <time>2014-11-15T09:26:28.000Z</time>
      </trkpt>
      <trkpt lat="47.34095" lon="4.98564">
        <ele>321.20001220703</ele>
        <time>2014-11-15T09:26:35.000Z</time>
      </trkpt>
      <trkpt lat="47.34106" lon="4.98571">
        <ele>321.60000610352</ele>
        <time>2014-11-15T09:26:43.000Z</time>
      </trkpt>
      <trkpt lat="47.34113" lon="4.98582">
        <ele>320</ele>
        <time>2014-11-15T09:26:50.000Z</time>
      </trkpt>
      <trkpt lat="47.3412" lon="4.98593">
        <ele>318</ele>
        <time>2014-11-15T09:26:57.000Z</time>
      </trkpt>
      <trkpt lat="47.34128" lon="4.98607">
        <ele>315.39999389648</ele>
        <time>2014-11-15T09:27:06.000Z</time>
      </trkpt>
      <trkpt lat="47.34133" lon="4.98618">
        <ele>313.39999389648</ele>
        <time>2014-11-15T09:27:12.000Z</time>
      </trkpt>
      <trkpt lat="47.3414" lon="4.98633">
        <ele>311</ele>
        <time>2014-11-15T09:27:21.000Z</time>
      </trkpt>
      <trkpt lat="47.34144" lon="4.98638">
        <ele>310.79998779297</ele>
        <time>2014-11-15T09:27:25.000Z</time>
      </trkpt>
      <trkpt lat="47.34152" lon="4.98637">
        <ele>312.39999389648</ele>
        <time>2014-11-15T09:27:30.000Z</time>
      </trkpt>
      <trkpt lat="47.34159" lon="4.98635">
        <ele>314.60000610352</ele>
        <time>2014-11-15T09:27:37.000Z</time>
      </trkpt>
      <trkpt lat="47.34167" lon="4.98639">
        <ele>315.39999389648</ele>
        <time>2014-11-15T09:27:43.000Z</time>
      </trkpt>
      <trkpt lat="47.34167" lon="4.9864">
        <ele>315.60000610352</ele>
        <time>2014-11-15T09:27:44.000Z</time>
      </trkpt>
      <trkpt lat="47.3417" lon="4.98641">
        <ele>315.79998779297</ele>
        <time>2014-11-15T09:27:47.000Z</time>
      </trkpt>
      <trkpt lat="47.34175" lon="4.98645">
        <ele>316.20001220703</ele>
        <time>2014-11-15T09:27:56.000Z</time>
      </trkpt>
      <trkpt lat="47.34178" lon="4.9865">
        <ele>316</ele>
        <time>2014-11-15T09:28:02.000Z</time>
      </trkpt>
      <trkpt lat="47.3418" lon="4.98651">
        <ele>316.20001220703</ele>
        <time>2014-11-15T09:28:05.000Z</time>
      </trkpt>
      <trkpt lat="47.34183" lon="4.98655">
        <ele>316</ele>
        <time>2014-11-15T09:28:09.000Z</time>
      </trkpt>
      <trkpt lat="47.34189" lon="4.9866">
        <ele>316.60000610352</ele>
        <time>2014-11-15T09:28:16.000Z</time>
      </trkpt>
      <trkpt lat="47.34191" lon="4.98661">
        <ele>316.79998779297</ele>
        <time>2014-11-15T09:28:19.000Z</time>
      </trkpt>
      <trkpt lat="47.34197" lon="4.98657">
        <ele>319.20001220703</ele>
        <time>2014-11-15T09:28:26.000Z</time>
      </trkpt>
      <trkpt lat="47.34198" lon="4.98656">
        <ele>319.60000610352</ele>
        <time>2014-11-15T09:28:28.000Z</time>
      </trkpt>
      <trkpt lat="47.34201" lon="4.98657">
        <ele>320.39999389648</ele>
        <time>2014-11-15T09:28:33.000Z</time>
      </trkpt>
      <trkpt lat="47.34202" lon="4.98656">
        <ele>320.79998779297</ele>
        <time>2014-11-15T09:28:41.000Z</time>
      </trkpt>
      <trkpt lat="47.34204" lon="4.98656">
        <ele>321.20001220703</ele>
        <time>2014-11-15T09:28:46.000Z</time>
      </trkpt>
      <trkpt lat="47.34207" lon="4.98657">
        <ele>321.79998779297</ele>
        <time>2014-11-15T09:28:53.000Z</time>
      </trkpt>
      <trkpt lat="47.3421" lon="4.98657">
        <ele>322.39999389648</ele>
        <time>2014-11-15T09:28:59.000Z</time>
      </trkpt>
      <trkpt lat="47.34213" lon="4.98654">
        <ele>323.60000610352</ele>
        <time>2014-11-15T09:29:04.000Z</time>
      </trkpt>
      <trkpt lat="47.34214" lon="4.98652">
        <ele>324.39999389648</ele>
        <time>2014-11-15T09:29:08.000Z</time>
      </trkpt>
      <trkpt lat="47.34216" lon="4.9865">
        <ele>325.20001220703</ele>
        <time>2014-11-15T09:29:12.000Z</time>
      </trkpt>
      <trkpt lat="47.34219" lon="4.98648">
        <ele>326.60000610352</ele>
        <time>2014-11-15T09:29:19.000Z</time>
      </trkpt>
      <trkpt lat="47.34221" lon="4.98647">
        <ele>327.20001220703</ele>
        <time>2014-11-15T09:29:24.000Z</time>
      </trkpt>
      <trkpt lat="47.34224" lon="4.98645">
        <ele>328.39999389648</ele>
        <time>2014-11-15T09:29:30.000Z</time>
      </trkpt>
      <trkpt lat="47.34227" lon="4.98642">
        <ele>329.60000610352</ele>
        <time>2014-11-15T09:29:37.000Z</time>
      </trkpt>
      <trkpt lat="47.3423" lon="4.98641">
        <ele>330.39999389648</ele>
        <time>2014-11-15T09:29:41.000Z</time>
      </trkpt>
      <trkpt lat="47.34234" lon="4.98638">
        <ele>332</ele>
        <time>2014-11-15T09:29:50.000Z</time>
      </trkpt>
      <trkpt lat="47.34237" lon="4.98636">
        <ele>333.20001220703</ele>
        <time>2014-11-15T09:29:56.000Z</time>
      </trkpt>
      <trkpt lat="47.34239" lon="4.98635">
        <ele>333.79998779297</ele>
        <time>2014-11-15T09:30:00.000Z</time>
      </trkpt>
      <trkpt lat="47.34241" lon="4.98634">
        <ele>334.60000610352</ele>
        <time>2014-11-15T09:30:06.000Z</time>
      </trkpt>
      <trkpt lat="47.34245" lon="4.98635">
        <ele>335.20001220703</ele>
        <time>2014-11-15T09:30:11.000Z</time>
      </trkpt>
      <trkpt lat="47.34247" lon="4.98636">
        <ele>335.60000610352</ele>
        <time>2014-11-15T09:30:16.000Z</time>
      </trkpt>
      <trkpt lat="47.3425" lon="4.98636">
        <ele>336.20001220703</ele>
        <time>2014-11-15T09:30:22.000Z</time>
      </trkpt>
      <trkpt lat="47.34253" lon="4.98635">
        <ele>337</ele>
        <time>2014-11-15T09:30:26.000Z</time>
      </trkpt>
      <trkpt lat="47.34257" lon="4.98633">
        <ele>338.20001220703</ele>
        <time>2014-11-15T09:30:33.000Z</time>
      </trkpt>
      <trkpt lat="47.34259" lon="4.98631">
        <ele>338.60000610352</ele>
        <time>2014-11-15T09:30:38.000Z</time>
      </trkpt>
      <trkpt lat="47.34262" lon="4.98629">
        <ele>339.20001220703</ele>
        <time>2014-11-15T09:30:44.000Z</time>
      </trkpt>
      <trkpt lat="47.34265" lon="4.98628">
        <ele>339.79998779297</ele>
        <time>2014-11-15T09:30:49.000Z</time>
      </trkpt>
      <trkpt lat="47.34268" lon="4.98628">
        <ele>340.20001220703</ele>
        <time>2014-11-15T09:30:54.000Z</time>
      </trkpt>
      <trkpt lat="47.34272" lon="4.98628">
        <ele>340.60000610352</ele>
        <time>2014-11-15T09:31:00.000Z</time>
      </trkpt>
      <trkpt lat="47.34276" lon="4.98631">
        <ele>340.79998779297</ele>
        <time>2014-11-15T09:32:00.000Z</time>
      </trkpt>
      <trkpt lat="47.3428" lon="4.98636">
        <ele>340.60000610352</ele>
        <time>2014-11-15T09:32:07.000Z</time>
      </trkpt>
      <trkpt lat="47.34285" lon="4.98639">
        <ele>340.79998779297</ele>
        <time>2014-11-15T09:32:13.000Z</time>
      </trkpt>
      <trkpt lat="47.34287" lon="4.98638">
        <ele>341</ele>
        <time>2014-11-15T09:32:14.000Z</time>
      </trkpt>
      <trkpt lat="47.34294" lon="4.98633">
        <ele>342.60000610352</ele>
        <time>2014-11-15T09:32:21.000Z</time>
      </trkpt>
      <trkpt lat="47.34298" lon="4.98628">
        <ele>343.60000610352</ele>
        <time>2014-11-15T09:32:26.000Z</time>
      </trkpt>
      <trkpt lat="47.34306" lon="4.98618">
        <ele>345.79998779297</ele>
        <time>2014-11-15T09:32:35.000Z</time>
      </trkpt>
      <trkpt lat="47.34306" lon="4.9861">
        <ele>346.60000610352</ele>
        <time>2014-11-15T09:32:41.000Z</time>
      </trkpt>
      <trkpt lat="47.34311" lon="4.98611">
        <ele>347.20001220703</ele>
        <time>2014-11-15T09:32:46.000Z</time>
      </trkpt>
      <trkpt lat="47.34313" lon="4.98612">
        <ele>347.20001220703</ele>
        <time>2014-11-15T09:32:48.000Z</time>
      </trkpt>
      <trkpt lat="47.34319" lon="4.98618">
        <ele>347.39999389648</ele>
        <time>2014-11-15T09:32:54.000Z</time>
      </trkpt>
      <trkpt lat="47.34323" lon="4.98622">
        <ele>347.39999389648</ele>
        <time>2014-11-15T09:32:58.000Z</time>
      </trkpt>
      <trkpt lat="47.34324" lon="4.98624">
        <ele>347.39999389648</ele>
        <time>2014-11-15T09:33:00.000Z</time>
      </trkpt>
      <trkpt lat="47.34327" lon="4.98634">
        <ele>346.39999389648</ele>
        <time>2014-11-15T09:33:06.000Z</time>
      </trkpt>
      <trkpt lat="47.34328" lon="4.98636">
        <ele>346.39999389648</ele>
        <time>2014-11-15T09:33:07.000Z</time>
      </trkpt>
      <trkpt lat="47.34334" lon="4.98649">
        <ele>345.20001220703</ele>
        <time>2014-11-15T09:33:15.000Z</time>
      </trkpt>
      <trkpt lat="47.34341" lon="4.98659">
        <ele>344.60000610352</ele>
        <time>2014-11-15T09:33:23.000Z</time>
      </trkpt>
      <trkpt lat="47.34349" lon="4.98667">
        <ele>344.20001220703</ele>
        <time>2014-11-15T09:33:30.000Z</time>
      </trkpt>
      <trkpt lat="47.34354" lon="4.98674">
        <ele>343.79998779297</ele>
        <time>2014-11-15T09:33:36.000Z</time>
      </trkpt>
      <trkpt lat="47.34357" lon="4.9868">
        <ele>343.39999389648</ele>
        <time>2014-11-15T09:33:39.000Z</time>
      </trkpt>
      <trkpt lat="47.3436" lon="4.98685">
        <ele>342.79998779297</ele>
        <time>2014-11-15T09:33:43.000Z</time>
      </trkpt>
      <trkpt lat="47.34368" lon="4.98696">
        <ele>342</ele>
        <time>2014-11-15T09:33:51.000Z</time>
      </trkpt>
      <trkpt lat="47.34369" lon="4.98698">
        <ele>342</ele>
        <time>2014-11-15T09:33:52.000Z</time>
      </trkpt>
      <trkpt lat="47.34376" lon="4.98704">
        <ele>341.79998779297</ele>
        <time>2014-11-15T09:33:58.000Z</time>
      </trkpt>
      <trkpt lat="47.34377" lon="4.98705">
        <ele>341.79998779297</ele>
        <time>2014-11-15T09:33:59.000Z</time>
      </trkpt>
      <trkpt lat="47.34379" lon="4.98706">
        <ele>341.79998779297</ele>
        <time>2014-11-15T09:34:01.000Z</time>
      </trkpt>
      <trkpt lat="47.34387" lon="4.98711">
        <ele>341.79998779297</ele>
        <time>2014-11-15T09:34:08.000Z</time>
      </trkpt>
      <trkpt lat="47.34393" lon="4.98714">
        <ele>342</ele>
        <time>2014-11-15T09:34:14.000Z</time>
      </trkpt>
      <trkpt lat="47.34397" lon="4.98719">
        <ele>342</ele>
        <time>2014-11-15T09:34:18.000Z</time>
      </trkpt>
      <trkpt lat="47.34403" lon="4.98725">
        <ele>342</ele>
        <time>2014-11-15T09:34:24.000Z</time>
      </trkpt>
      <trkpt lat="47.34408" lon="4.98734">
        <ele>341.60000610352</ele>
        <time>2014-11-15T09:34:30.000Z</time>
      </trkpt>
      <trkpt lat="47.34411" lon="4.98742">
        <ele>341.39999389648</ele>
        <time>2014-11-15T09:34:36.000Z</time>
      </trkpt>
      <trkpt lat="47.34412" lon="4.98745">
        <ele>341.20001220703</ele>
        <time>2014-11-15T09:34:42.000Z</time>
      </trkpt>
      <trkpt lat="47.3441" lon="4.98754">
        <ele>340.39999389648</ele>
        <time>2014-11-15T09:34:49.000Z</time>
      </trkpt>
      <trkpt lat="47.34405" lon="4.98764">
        <ele>339.20001220703</ele>
        <time>2014-11-15T09:34:55.000Z</time>
      </trkpt>
      <trkpt lat="47.34398" lon="4.98774">
        <ele>338.20001220703</ele>
        <time>2014-11-15T09:35:02.000Z</time>
      </trkpt>
      <trkpt lat="47.34395" lon="4.98776">
        <ele>337.39999389648</ele>
        <time>2014-11-15T09:35:05.000Z</time>
      </trkpt>
      <trkpt lat="47.34392" lon="4.9878">
        <ele>336.39999389648</ele>
        <time>2014-11-15T09:35:10.000Z</time>
      </trkpt>
      <trkpt lat="47.34388" lon="4.98785">
        <ele>335</ele>
        <time>2014-11-15T09:35:16.000Z</time>
      </trkpt>
      <trkpt lat="47.34381" lon="4.98794">
        <ele>333</ele>
        <time>2014-11-15T09:35:23.000Z</time>
      </trkpt>
      <trkpt lat="47.34374" lon="4.988">
        <ele>332</ele>
        <time>2014-11-15T09:35:29.000Z</time>
      </trkpt>
      <trkpt lat="47.34365" lon="4.98808">
        <ele>330.60000610352</ele>
        <time>2014-11-15T09:35:37.000Z</time>
      </trkpt>
      <trkpt lat="47.34357" lon="4.98817">
        <ele>329.60000610352</ele>
        <time>2014-11-15T09:35:44.000Z</time>
      </trkpt>
      <trkpt lat="47.34347" lon="4.98829">
        <ele>328.79998779297</ele>
        <time>2014-11-15T09:35:53.000Z</time>
      </trkpt>
      <trkpt lat="47.34341" lon="4.98837">
        <ele>328.20001220703</ele>
        <time>2014-11-15T09:35:59.000Z</time>
      </trkpt>
      <trkpt lat="47.34339" lon="4.9884">
        <ele>328</ele>
        <time>2014-11-15T09:36:01.000Z</time>
      </trkpt>
      <trkpt lat="47.34335" lon="4.98854">
        <ele>327.79998779297</ele>
        <time>2014-11-15T09:36:09.000Z</time>
      </trkpt>
      <trkpt lat="47.3433" lon="4.98868">
        <ele>327.60000610352</ele>
        <time>2014-11-15T09:36:17.000Z</time>
      </trkpt>
      <trkpt lat="47.3433" lon="4.98872">
        <ele>327.60000610352</ele>
        <time>2014-11-15T09:36:23.000Z</time>
      </trkpt>
      <trkpt lat="47.3433" lon="4.98876">
        <ele>328</ele>
        <time>2014-11-15T09:36:35.000Z</time>
      </trkpt>
      <trkpt lat="47.3433" lon="4.98881">
        <ele>328</ele>
        <time>2014-11-15T09:36:45.000Z</time>
      </trkpt>
      <trkpt lat="47.3433" lon="4.98886">
        <ele>328.20001220703</ele>
        <time>2014-11-15T09:36:59.000Z</time>
      </trkpt>
      <trkpt lat="47.34331" lon="4.98893">
        <ele>328.60000610352</ele>
        <time>2014-11-15T09:37:06.000Z</time>
      </trkpt>
      <trkpt lat="47.34333" lon="4.98902">
        <ele>329.20001220703</ele>
        <time>2014-11-15T09:37:12.000Z</time>
      </trkpt>
      <trkpt lat="47.34335" lon="4.98913">
        <ele>329.79998779297</ele>
        <time>2014-11-15T09:37:18.000Z</time>
      </trkpt>
      <trkpt lat="47.34336" lon="4.98928">
        <ele>330.39999389648</ele>
        <time>2014-11-15T09:37:27.000Z</time>
      </trkpt>
      <trkpt lat="47.34335" lon="4.98939">
        <ele>330.60000610352</ele>
        <time>2014-11-15T09:37:34.000Z</time>
      </trkpt>
      <trkpt lat="47.34337" lon="4.98953">
        <ele>331.39999389648</ele>
        <time>2014-11-15T09:37:44.000Z</time>
      </trkpt>
      <trkpt lat="47.34337" lon="4.98957">
        <ele>331.39999389648</ele>
        <time>2014-11-15T09:37:46.000Z</time>
      </trkpt>
      <trkpt lat="47.34337" lon="4.98964">
        <ele>331.60000610352</ele>
        <time>2014-11-15T09:37:49.000Z</time>
      </trkpt>
      <trkpt lat="47.34337" lon="4.98965">
        <ele>331.60000610352</ele>
        <time>2014-11-15T09:37:50.000Z</time>
      </trkpt>
      <trkpt lat="47.3434" lon="4.98979">
        <ele>331.60000610352</ele>
        <time>2014-11-15T09:37:58.000Z</time>
      </trkpt>
      <trkpt lat="47.34341" lon="4.9898">
        <ele>331.60000610352</ele>
        <time>2014-11-15T09:37:59.000Z</time>
      </trkpt>
      <trkpt lat="47.34343" lon="4.98984">
        <ele>331.79998779297</ele>
        <time>2014-11-15T09:38:07.000Z</time>
      </trkpt>
      <trkpt lat="47.34346" lon="4.98988">
        <ele>332</ele>
        <time>2014-11-15T09:38:11.000Z</time>
      </trkpt>
      <trkpt lat="47.34351" lon="4.98993">
        <ele>332.20001220703</ele>
        <time>2014-11-15T09:38:17.000Z</time>
      </trkpt>
      <trkpt lat="47.34355" lon="4.99002">
        <ele>332.60000610352</ele>
        <time>2014-11-15T09:38:22.000Z</time>
      </trkpt>
      <trkpt lat="47.34355" lon="4.99011">
        <ele>332.39999389648</ele>
        <time>2014-11-15T09:38:26.000Z</time>
      </trkpt>
      <trkpt lat="47.34353" lon="4.9903">
        <ele>331.79998779297</ele>
        <time>2014-11-15T09:38:35.000Z</time>
      </trkpt>
      <trkpt lat="47.34351" lon="4.99043">
        <ele>331.20001220703</ele>
        <time>2014-11-15T09:38:42.000Z</time>
      </trkpt>
      <trkpt lat="47.34351" lon="4.99044">
        <ele>331.20001220703</ele>
        <time>2014-11-15T09:38:43.000Z</time>
      </trkpt>
      <trkpt lat="47.34348" lon="4.99051">
        <ele>330.79998779297</ele>
        <time>2014-11-15T09:38:48.000Z</time>
      </trkpt>
      <trkpt lat="47.34347" lon="4.99056">
        <ele>330.60000610352</ele>
        <time>2014-11-15T09:38:51.000Z</time>
      </trkpt>
      <trkpt lat="47.34346" lon="4.99068">
        <ele>330.60000610352</ele>
        <time>2014-11-15T09:38:59.000Z</time>
      </trkpt>
      <trkpt lat="47.34346" lon="4.99076">
        <ele>330.79998779297</ele>
        <time>2014-11-15T09:39:04.000Z</time>
      </trkpt>
      <trkpt lat="47.3435" lon="4.99081">
        <ele>331</ele>
        <time>2014-11-15T09:39:08.000Z</time>
      </trkpt>
      <trkpt lat="47.34354" lon="4.99088">
        <ele>331.60000610352</ele>
        <time>2014-11-15T09:39:13.000Z</time>
      </trkpt>
      <trkpt lat="47.34354" lon="4.99094">
        <ele>331.60000610352</ele>
        <time>2014-11-15T09:39:18.000Z</time>
      </trkpt>
      <trkpt lat="47.34355" lon="4.99097">
        <ele>331.79998779297</ele>
        <time>2014-11-15T09:39:26.000Z</time>
      </trkpt>
      <trkpt lat="47.34369" lon="4.99113">
        <ele>333</ele>
        <time>2014-11-15T09:39:40.000Z</time>
      </trkpt>
      <trkpt lat="47.3438" lon="4.99127">
        <ele>334.20001220703</ele>
        <time>2014-11-15T09:39:50.000Z</time>
      </trkpt>
      <trkpt lat="47.34386" lon="4.99136">
        <ele>335.20001220703</ele>
        <time>2014-11-15T09:39:57.000Z</time>
      </trkpt>
      <trkpt lat="47.34392" lon="4.99146">
        <ele>336.20001220703</ele>
        <time>2014-11-15T09:40:05.000Z</time>
      </trkpt>
      <trkpt lat="47.34398" lon="4.99155">
        <ele>337</ele>
        <time>2014-11-15T09:40:12.000Z</time>
      </trkpt>
      <trkpt lat="47.34403" lon="4.99164">
        <ele>338</ele>
        <time>2014-11-15T09:40:19.000Z</time>
      </trkpt>
      <trkpt lat="47.34409" lon="4.99174">
        <ele>338.79998779297</ele>
        <time>2014-11-15T09:40:26.000Z</time>
      </trkpt>
      <trkpt lat="47.34413" lon="4.99184">
        <ele>339.79998779297</ele>
        <time>2014-11-15T09:40:33.000Z</time>
      </trkpt>
      <trkpt lat="47.34419" lon="4.99195">
        <ele>341</ele>
        <time>2014-11-15T09:40:41.000Z</time>
      </trkpt>
      <trkpt lat="47.34423" lon="4.99204">
        <ele>342</ele>
        <time>2014-11-15T09:40:47.000Z</time>
      </trkpt>
      <trkpt lat="47.34426" lon="4.99217">
        <ele>343.20001220703</ele>
        <time>2014-11-15T09:40:54.000Z</time>
      </trkpt>
      <trkpt lat="47.34427" lon="4.9923">
        <ele>344.20001220703</ele>
        <time>2014-11-15T09:41:02.000Z</time>
      </trkpt>
      <trkpt lat="47.34426" lon="4.99241">
        <ele>345.20001220703</ele>
        <time>2014-11-15T09:41:08.000Z</time>
      </trkpt>
      <trkpt lat="47.34423" lon="4.99256">
        <ele>346</ele>
        <time>2014-11-15T09:41:17.000Z</time>
      </trkpt>
      <trkpt lat="47.34416" lon="4.9927">
        <ele>346.39999389648</ele>
        <time>2014-11-15T09:41:26.000Z</time>
      </trkpt>
      <trkpt lat="47.34394" lon="4.99301">
        <ele>347.20001220703</ele>
        <time>2014-11-15T09:41:47.000Z</time>
      </trkpt>
      <trkpt lat="47.34386" lon="4.99312">
        <ele>346.79998779297</ele>
        <time>2014-11-15T09:41:54.000Z</time>
      </trkpt>
      <trkpt lat="47.34379" lon="4.99322">
        <ele>346.39999389648</ele>
        <time>2014-11-15T09:42:01.000Z</time>
      </trkpt>
      <trkpt lat="47.34371" lon="4.99332">
        <ele>346</ele>
        <time>2014-11-15T09:42:09.000Z</time>
      </trkpt>
      <trkpt lat="47.34363" lon="4.99342">
        <ele>346</ele>
        <time>2014-11-15T09:42:17.000Z</time>
      </trkpt>
      <trkpt lat="47.34352" lon="4.99351">
        <ele>346</ele>
        <time>2014-11-15T09:42:25.000Z</time>
      </trkpt>
      <trkpt lat="47.34345" lon="4.99356">
        <ele>346</ele>
        <time>2014-11-15T09:42:30.000Z</time>
      </trkpt>
      <trkpt lat="47.34331" lon="4.99381">
        <ele>346</ele>
        <time>2014-11-15T09:42:44.000Z</time>
      </trkpt>
      <trkpt lat="47.34322" lon="4.99397">
        <ele>346</ele>
        <time>2014-11-15T09:42:53.000Z</time>
      </trkpt>
      <trkpt lat="47.34314" lon="4.99411">
        <ele>346</ele>
        <time>2014-11-15T09:43:02.000Z</time>
      </trkpt>
      <trkpt lat="47.343" lon="4.99426">
        <ele>346</ele>
        <time>2014-11-15T09:43:13.000Z</time>
      </trkpt>
      <trkpt lat="47.34292" lon="4.99435">
        <ele>346</ele>
        <time>2014-11-15T09:43:20.000Z</time>
      </trkpt>
      <trkpt lat="47.34282" lon="4.99445">
        <ele>346</ele>
        <time>2014-11-15T09:43:28.000Z</time>
      </trkpt>
      <trkpt lat="47.3427" lon="4.99457">
        <ele>346</ele>
        <time>2014-11-15T09:43:37.000Z</time>
      </trkpt>
      <trkpt lat="47.34258" lon="4.9947">
        <ele>345.79998779297</ele>
        <time>2014-11-15T09:43:46.000Z</time>
      </trkpt>
      <trkpt lat="47.3425" lon="4.9948">
        <ele>346</ele>
        <time>2014-11-15T09:43:54.000Z</time>
      </trkpt>
      <trkpt lat="47.34242" lon="4.9949">
        <ele>346</ele>
        <time>2014-11-15T09:44:02.000Z</time>
      </trkpt>
      <trkpt lat="47.34234" lon="4.99503">
        <ele>345.79998779297</ele>
        <time>2014-11-15T09:44:10.000Z</time>
      </trkpt>
      <trkpt lat="47.34227" lon="4.99515">
        <ele>345.79998779297</ele>
        <time>2014-11-15T09:44:18.000Z</time>
      </trkpt>
      <trkpt lat="47.3422" lon="4.99527">
        <ele>345.60000610352</ele>
        <time>2014-11-15T09:44:25.000Z</time>
      </trkpt>
      <trkpt lat="47.34213" lon="4.99535">
        <ele>345.60000610352</ele>
        <time>2014-11-15T09:44:32.000Z</time>
      </trkpt>
      <trkpt lat="47.34206" lon="4.99543">
        <ele>345.39999389648</ele>
        <time>2014-11-15T09:44:39.000Z</time>
      </trkpt>
      <trkpt lat="47.34195" lon="4.99555">
        <ele>345.20001220703</ele>
        <time>2014-11-15T09:44:48.000Z</time>
      </trkpt>
      <trkpt lat="47.34188" lon="4.99564">
        <ele>345</ele>
        <time>2014-11-15T09:44:55.000Z</time>
      </trkpt>
      <trkpt lat="47.3418" lon="4.99573">
        <ele>344.79998779297</ele>
        <time>2014-11-15T09:45:02.000Z</time>
      </trkpt>
      <trkpt lat="47.34172" lon="4.99586">
        <ele>344.60000610352</ele>
        <time>2014-11-15T09:45:10.000Z</time>
      </trkpt>
      <trkpt lat="47.34164" lon="4.99597">
        <ele>344.39999389648</ele>
        <time>2014-11-15T09:45:18.000Z</time>
      </trkpt>
      <trkpt lat="47.34158" lon="4.99605">
        <ele>344</ele>
        <time>2014-11-15T09:45:24.000Z</time>
      </trkpt>
      <trkpt lat="47.34154" lon="4.9961">
        <ele>344</ele>
        <time>2014-11-15T09:45:28.000Z</time>
      </trkpt>
      <trkpt lat="47.34149" lon="4.9962">
        <ele>343.79998779297</ele>
        <time>2014-11-15T09:45:33.000Z</time>
      </trkpt>
      <trkpt lat="47.34136" lon="4.99634">
        <ele>343.20001220703</ele>
        <time>2014-11-15T09:45:43.000Z</time>
      </trkpt>
      <trkpt lat="47.34129" lon="4.99643">
        <ele>343</ele>
        <time>2014-11-15T09:45:50.000Z</time>
      </trkpt>
      <trkpt lat="47.34125" lon="4.99656">
        <ele>342.60000610352</ele>
        <time>2014-11-15T09:45:56.000Z</time>
      </trkpt>
      <trkpt lat="47.34121" lon="4.99671">
        <ele>342.39999389648</ele>
        <time>2014-11-15T09:46:03.000Z</time>
      </trkpt>
      <trkpt lat="47.34111" lon="4.9968">
        <ele>341.79998779297</ele>
        <time>2014-11-15T09:46:11.000Z</time>
      </trkpt>
      <trkpt lat="47.34102" lon="4.99685">
        <ele>341.39999389648</ele>
        <time>2014-11-15T09:46:18.000Z</time>
      </trkpt>
      <trkpt lat="47.34084" lon="4.99683">
        <ele>340.79998779297</ele>
        <time>2014-11-15T09:46:29.000Z</time>
      </trkpt>
      <trkpt lat="47.34069" lon="4.99684">
        <ele>340.39999389648</ele>
        <time>2014-11-15T09:46:38.000Z</time>
      </trkpt>
      <trkpt lat="47.34059" lon="4.99685">
        <ele>340</ele>
        <time>2014-11-15T09:46:45.000Z</time>
      </trkpt>
      <trkpt lat="47.34046" lon="4.99687">
        <ele>339.60000610352</ele>
        <time>2014-11-15T09:46:53.000Z</time>
      </trkpt>
      <trkpt lat="47.34034" lon="4.9969">
        <ele>339</ele>
        <time>2014-11-15T09:47:01.000Z</time>
      </trkpt>
      <trkpt lat="47.34023" lon="4.99693">
        <ele>338.39999389648</ele>
        <time>2014-11-15T09:47:08.000Z</time>
      </trkpt>
      <trkpt lat="47.34008" lon="4.99699">
        <ele>337.60000610352</ele>
        <time>2014-11-15T09:47:18.000Z</time>
      </trkpt>
      <trkpt lat="47.33996" lon="4.99706">
        <ele>337</ele>
        <time>2014-11-15T09:47:26.000Z</time>
      </trkpt>
      <trkpt lat="47.33986" lon="4.99712">
        <ele>336.39999389648</ele>
        <time>2014-11-15T09:47:34.000Z</time>
      </trkpt>
      <trkpt lat="47.33975" lon="4.99721">
        <ele>335.39999389648</ele>
        <time>2014-11-15T09:47:43.000Z</time>
      </trkpt>
      <trkpt lat="47.33966" lon="4.99727">
        <ele>334.79998779297</ele>
        <time>2014-11-15T09:47:49.000Z</time>
      </trkpt>
      <trkpt lat="47.33957" lon="4.99732">
        <ele>334.20001220703</ele>
        <time>2014-11-15T09:47:56.000Z</time>
      </trkpt>
      <trkpt lat="47.33956" lon="4.99733">
        <ele>334</ele>
        <time>2014-11-15T09:47:57.000Z</time>
      </trkpt>
      <trkpt lat="47.3395" lon="4.99736">
        <ele>333.60000610352</ele>
        <time>2014-11-15T09:48:02.000Z</time>
      </trkpt>
      <trkpt lat="47.33949" lon="4.99737">
        <ele>333.60000610352</ele>
        <time>2014-11-15T09:48:03.000Z</time>
      </trkpt>
      <trkpt lat="47.33939" lon="4.9974">
        <ele>333.20001220703</ele>
        <time>2014-11-15T09:48:09.000Z</time>
      </trkpt>
      <trkpt lat="47.33929" lon="4.99749">
        <ele>333</ele>
        <time>2014-11-15T09:48:17.000Z</time>
      </trkpt>
      <trkpt lat="47.33923" lon="4.99759">
        <ele>332.79998779297</ele>
        <time>2014-11-15T09:48:23.000Z</time>
      </trkpt>
      <trkpt lat="47.33915" lon="4.99771">
        <ele>332.39999389648</ele>
        <time>2014-11-15T09:48:31.000Z</time>
      </trkpt>
      <trkpt lat="47.33905" lon="4.99784">
        <ele>332</ele>
        <time>2014-11-15T09:48:40.000Z</time>
      </trkpt>
      <trkpt lat="47.33901" lon="4.99791">
        <ele>332</ele>
        <time>2014-11-15T09:48:45.000Z</time>
      </trkpt>
      <trkpt lat="47.33893" lon="4.99806">
        <ele>331.20001220703</ele>
        <time>2014-11-15T09:48:54.000Z</time>
      </trkpt>
      <trkpt lat="47.33889" lon="4.99819">
        <ele>330.60000610352</ele>
        <time>2014-11-15T09:49:00.000Z</time>
      </trkpt>
      <trkpt lat="47.33891" lon="4.99832">
        <ele>330</ele>
        <time>2014-11-15T09:49:06.000Z</time>
      </trkpt>
      <trkpt lat="47.33883" lon="4.99844">
        <ele>329.39999389648</ele>
        <time>2014-11-15T09:49:13.000Z</time>
      </trkpt>
      <trkpt lat="47.33881" lon="4.99846">
        <ele>329.60000610352</ele>
        <time>2014-11-15T09:49:15.000Z</time>
      </trkpt>
      <trkpt lat="47.33878" lon="4.99846">
        <ele>329.79998779297</ele>
        <time>2014-11-15T09:49:17.000Z</time>
      </trkpt>
      <trkpt lat="47.33875" lon="4.99845">
        <ele>329.79998779297</ele>
        <time>2014-11-15T09:49:19.000Z</time>
      </trkpt>
      <trkpt lat="47.3387" lon="4.99848">
        <ele>330.20001220703</ele>
        <time>2014-11-15T09:49:23.000Z</time>
      </trkpt>
      <trkpt lat="47.33864" lon="4.99854">
        <ele>330.39999389648</ele>
        <time>2014-11-15T09:49:28.000Z</time>
      </trkpt>
      <trkpt lat="47.3385" lon="4.99864">
        <ele>331</ele>
        <time>2014-11-15T09:49:37.000Z</time>
      </trkpt>
      <trkpt lat="47.3384" lon="4.99872">
        <ele>331.60000610352</ele>
        <time>2014-11-15T09:49:43.000Z</time>
      </trkpt>
      <trkpt lat="47.33829" lon="4.99881">
        <ele>331</ele>
        <time>2014-11-15T09:49:51.000Z</time>
      </trkpt>
      <trkpt lat="47.33818" lon="4.99891">
        <ele>328.20001220703</ele>
        <time>2014-11-15T09:50:00.000Z</time>
      </trkpt>
      <trkpt lat="47.33809" lon="4.99899">
        <ele>325.79998779297</ele>
        <time>2014-11-15T09:50:08.000Z</time>
      </trkpt>
      <trkpt lat="47.33803" lon="4.99904">
        <ele>324.20001220703</ele>
        <time>2014-11-15T09:50:14.000Z</time>
      </trkpt>
      <trkpt lat="47.33795" lon="4.9991">
        <ele>322.20001220703</ele>
        <time>2014-11-15T09:50:21.000Z</time>
      </trkpt>
      <trkpt lat="47.33791" lon="4.99912">
        <ele>321.39999389648</ele>
        <time>2014-11-15T09:50:27.000Z</time>
      </trkpt>
      <trkpt lat="47.33783" lon="4.99918">
        <ele>320.60000610352</ele>
        <time>2014-11-15T09:50:33.000Z</time>
      </trkpt>
      <trkpt lat="47.33775" lon="4.99927">
        <ele>321</ele>
        <time>2014-11-15T09:50:40.000Z</time>
      </trkpt>
      <trkpt lat="47.33766" lon="4.9994">
        <ele>322</ele>
        <time>2014-11-15T09:50:49.000Z</time>
      </trkpt>
      <trkpt lat="47.33762" lon="4.99946">
        <ele>322.20001220703</ele>
        <time>2014-11-15T09:50:53.000Z</time>
      </trkpt>
      <trkpt lat="47.33757" lon="4.99946">
        <ele>322.20001220703</ele>
        <time>2014-11-15T09:50:57.000Z</time>
      </trkpt>
      <trkpt lat="47.33753" lon="4.99946">
        <ele>322.20001220703</ele>
        <time>2014-11-15T09:51:00.000Z</time>
      </trkpt>
      <trkpt lat="47.33747" lon="4.99944">
        <ele>322</ele>
        <time>2014-11-15T09:51:05.000Z</time>
      </trkpt>
      <trkpt lat="47.33737" lon="4.99939">
        <ele>321.79998779297</ele>
        <time>2014-11-15T09:51:11.000Z</time>
      </trkpt>
      <trkpt lat="47.3373" lon="4.99931">
        <ele>321.20001220703</ele>
        <time>2014-11-15T09:51:17.000Z</time>
      </trkpt>
      <trkpt lat="47.33724" lon="4.99923">
        <ele>320.79998779297</ele>
        <time>2014-11-15T09:51:24.000Z</time>
      </trkpt>
      <trkpt lat="47.33722" lon="4.9992">
        <ele>320.60000610352</ele>
        <time>2014-11-15T09:51:26.000Z</time>
      </trkpt>
      <trkpt lat="47.33717" lon="4.9991">
        <ele>319.79998779297</ele>
        <time>2014-11-15T09:51:32.000Z</time>
      </trkpt>
      <trkpt lat="47.33717" lon="4.99909">
        <ele>319.79998779297</ele>
        <time>2014-11-15T09:51:33.000Z</time>
      </trkpt>
      <trkpt lat="47.33714" lon="4.99904">
        <ele>319.60000610352</ele>
        <time>2014-11-15T09:51:36.000Z</time>
      </trkpt>
      <trkpt lat="47.33705" lon="4.99894">
        <ele>318.79998779297</ele>
        <time>2014-11-15T09:51:45.000Z</time>
      </trkpt>
      <trkpt lat="47.337" lon="4.99886">
        <ele>318.39999389648</ele>
        <time>2014-11-15T09:51:51.000Z</time>
      </trkpt>
      <trkpt lat="47.33691" lon="4.99877">
        <ele>317.79998779297</ele>
        <time>2014-11-15T09:51:57.000Z</time>
      </trkpt>
      <trkpt lat="47.33684" lon="4.99868">
        <ele>316.60000610352</ele>
        <time>2014-11-15T09:52:03.000Z</time>
      </trkpt>
      <trkpt lat="47.33674" lon="4.99864">
        <ele>316</ele>
        <time>2014-11-15T09:52:10.000Z</time>
      </trkpt>
      <trkpt lat="47.33663" lon="4.99866">
        <ele>316.60000610352</ele>
        <time>2014-11-15T09:52:18.000Z</time>
      </trkpt>
      <trkpt lat="47.33656" lon="4.99872">
        <ele>318</ele>
        <time>2014-11-15T09:52:24.000Z</time>
      </trkpt>
      <trkpt lat="47.33647" lon="4.99884">
        <ele>320.20001220703</ele>
        <time>2014-11-15T09:52:33.000Z</time>
      </trkpt>
      <trkpt lat="47.33639" lon="4.99894">
        <ele>322</ele>
        <time>2014-11-15T09:52:41.000Z</time>
      </trkpt>
      <trkpt lat="47.3363" lon="4.99908">
        <ele>324.39999389648</ele>
        <time>2014-11-15T09:52:51.000Z</time>
      </trkpt>
      <trkpt lat="47.33622" lon="4.99919">
        <ele>326</ele>
        <time>2014-11-15T09:52:59.000Z</time>
      </trkpt>
      <trkpt lat="47.33616" lon="4.99933">
        <ele>326.60000610352</ele>
        <time>2014-11-15T09:53:08.000Z</time>
      </trkpt>
      <trkpt lat="47.33614" lon="4.99949">
        <ele>327.39999389648</ele>
        <time>2014-11-15T09:53:15.000Z</time>
      </trkpt>
      <trkpt lat="47.33614" lon="4.99956">
        <ele>327.60000610352</ele>
        <time>2014-11-15T09:53:19.000Z</time>
      </trkpt>
      <trkpt lat="47.33615" lon="4.99963">
        <ele>327.79998779297</ele>
        <time>2014-11-15T09:53:25.000Z</time>
      </trkpt>
      <trkpt lat="47.33618" lon="4.99968">
        <ele>327.79998779297</ele>
        <time>2014-11-15T09:53:29.000Z</time>
      </trkpt>
      <trkpt lat="47.33635" lon="4.9999">
        <ele>328</ele>
        <time>2014-11-15T09:53:44.000Z</time>
      </trkpt>
    </trkseg>
  </trk>
</gpx>